Wetterdaten: Montag, 27.11.2017
Datum Zeit Temp. A. Pool Temp. Feuchte A. Luftdruck Regen Wind Richtung Richtung Sonnenschein ET UV Solar Taupunkt Windchill Windben Empfang
27.11.2017 00:00 0,7 C 4,4 C 94 % 1025,7 hPa 0,0 l/m 8,0 km/h (2 Bft) W-SW 246 0 min 0,000 mm 0,0 UV-I 0 W/m -0,2 C -0,9 C 8,0 km/h (2 Bft) 100,00 %
27.11.2017 00:02 0,7 C 4,4 C 94 % 1025,8 hPa 0,0 l/m 6,4 km/h (2 Bft) W-SW 256 0 min 0,000 mm 0,0 UV-I 0 W/m -0,2 C 0,7 C 9,7 km/h (2 Bft) 96,43 %
27.11.2017 00:04 0,7 C 4,4 C 94 % 1025,8 hPa 0,0 l/m 6,3 km/h (2 Bft) W-SW 252 0 min 0,000 mm 0,0 UV-I 0 W/m -0,2 C 0,7 C 9,7 km/h (2 Bft) 98,31 %
27.11.2017 00:06 0,7 C 4,4 C 94 % 1025,8 hPa 0,0 l/m 6,6 km/h (2 Bft) W-SW 240 0 min 0,000 mm 0,0 UV-I 0 W/m -0,2 C 0,5 C 8,0 km/h (2 Bft) 100,00 %
27.11.2017 00:08 0,8 C 4,4 C 94 % 1025,8 hPa 0,0 l/m 7,3 km/h (2 Bft) W-SW 256 0 min 0,000 mm 0,0 UV-I 0 W/m -0,1 C -0,1 C 11,3 km/h (2 Bft) 98,21 %
27.11.2017 00:10 0,8 C 4,4 C 93 % 1025,7 hPa 0,0 l/m 6,8 km/h (2 Bft) W-SW 248 0 min 0,000 mm 0,0 UV-I 0 W/m -0,2 C 0,4 C 9,7 km/h (2 Bft) 100,00 %
27.11.2017 00:12 0,8 C 4,4 C 93 % 1025,8 hPa 0,0 l/m 10,1 km/h (2 Bft) W-SW 252 0 min 0,000 mm 0,0 UV-I 0 W/m -0,2 C -2,6 C 12,9 km/h (3 Bft) 100,00 %
27.11.2017 00:14 0,9 C 4,4 C 93 % 1025,8 hPa 0,0 l/m 10,4 km/h (2 Bft) W-SW 257 0 min 0,000 mm 0,0 UV-I 0 W/m -0,1 C -2,8 C 14,5 km/h (3 Bft) 97,87 %
27.11.2017 00:16 0,9 C 4,4 C 93 % 1025,8 hPa 0,0 l/m 8,8 km/h (2 Bft) W-SW 258 0 min 0,000 mm 0,0 UV-I 0 W/m -0,1 C -1,4 C 12,9 km/h (3 Bft) 98,00 %
27.11.2017 00:18 0,9 C 4,4 C 93 % 1025,7 hPa 0,0 l/m 10,4 km/h (2 Bft) W 261 0 min 0,000 mm 0,0 UV-I 0 W/m -0,1 C -2,8 C 14,5 km/h (3 Bft) 97,62 %
27.11.2017 00:20 0,9 C 4,4 C 93 % 1025,7 hPa 0,0 l/m 8,4 km/h (2 Bft) W 267 0 min 0,000 mm 0,0 UV-I 0 W/m -0,1 C -1,1 C 11,3 km/h (2 Bft) 100,00 %
27.11.2017 00:22 0,9 C 4,4 C 93 % 1025,6 hPa 0,0 l/m 7,6 km/h (2 Bft) W-SW 258 0 min 0,000 mm 0,0 UV-I 0 W/m -0,1 C -0,3 C 11,3 km/h (2 Bft) 100,00 %
27.11.2017 00:24 0,9 C 4,4 C 92 % 1025,6 hPa 0,0 l/m 7,2 km/h (2 Bft) W-SW 250 0 min 0,000 mm 0,0 UV-I 0 W/m -0,2 C 0,1 C 12,9 km/h (3 Bft) 100,00 %
27.11.2017 00:26 1,0 C 4,4 C 92 % 1025,6 hPa 0,0 l/m 6,7 km/h (2 Bft) W-SW 248 0 min 0,000 mm 0,0 UV-I 0 W/m -0,2 C 0,7 C 9,7 km/h (2 Bft) 100,00 %
27.11.2017 00:28 1,1 C 4,4 C 92 % 1025,6 hPa 0,0 l/m 7,5 km/h (2 Bft) W-SW 239 0 min 0,000 mm 0,0 UV-I 0 W/m -0,1 C -0,0 C 11,3 km/h (2 Bft) 98,00 %
27.11.2017 00:30 1,1 C 4,4 C 91 % 1025,6 hPa 0,0 l/m 7,5 km/h (2 Bft) SW 236 0 min 0,000 mm 0,0 UV-I 0 W/m -0,2 C -0,0 C 11,3 km/h (2 Bft) 95,12 %
27.11.2017 00:32 1,2 C 4,4 C 91 % 1025,6 hPa 0,0 l/m 8,3 km/h (2 Bft) SW 232 0 min 0,000 mm 0,0 UV-I 0 W/m -0,1 C -0,7 C 11,3 km/h (2 Bft) 97,56 %
27.11.2017 00:34 1,2 C 4,4 C 91 % 1025,6 hPa 0,0 l/m 7,3 km/h (2 Bft) W-SW 254 0 min 0,000 mm 0,0 UV-I 0 W/m -0,1 C 0,3 C 9,7 km/h (2 Bft) 97,73 %
27.11.2017 00:36 1,2 C 4,4 C 90 % 1025,6 hPa 0,0 l/m 6,5 km/h (2 Bft) W-SW 240 0 min 0,000 mm 0,0 UV-I 0 W/m -0,3 C 1,1 C 9,7 km/h (2 Bft) 96,00 %
27.11.2017 00:38 1,2 C 4,4 C 90 % 1025,6 hPa 0,0 l/m 8,2 km/h (2 Bft) W-SW 246 0 min 0,000 mm 0,0 UV-I 0 W/m -0,3 C -0,6 C 14,5 km/h (3 Bft) 97,56 %
27.11.2017 00:40 1,2 C 4,4 C 90 % 1025,6 hPa 0,0 l/m 11,5 km/h (2 Bft) W-SW 248 0 min 0,000 mm 0,0 UV-I 0 W/m -0,3 C -3,3 C 16,1 km/h (3 Bft) 98,11 %
27.11.2017 00:42 1,2 C 4,4 C 90 % 1025,7 hPa 0,0 l/m 8,7 km/h (2 Bft) W 262 0 min 0,000 mm 0,0 UV-I 0 W/m -0,3 C -1,0 C 12,9 km/h (3 Bft) 98,11 %
27.11.2017 00:44 1,2 C 4,4 C 90 % 1025,6 hPa 0,0 l/m 11,8 km/h (2 Bft) W-SW 257 0 min 0,000 mm 0,0 UV-I 0 W/m -0,3 C -3,5 C 16,1 km/h (3 Bft) 94,34 %
27.11.2017 00:46 1,2 C 4,4 C 90 % 1025,7 hPa 0,0 l/m 13,1 km/h (3 Bft) W-SW 254 0 min 0,000 mm 0,0 UV-I 0 W/m -0,3 C -4,4 C 17,7 km/h (3 Bft) 95,45 %
27.11.2017 00:48 1,3 C 4,4 C 90 % 1025,6 hPa 0,0 l/m 14,1 km/h (3 Bft) W-SW 242 0 min 0,000 mm 0,0 UV-I 0 W/m -0,2 C -4,9 C 19,3 km/h (3 Bft) 95,45 %
27.11.2017 00:50 1,3 C 4,4 C 90 % 1025,6 hPa 0,0 l/m 12,9 km/h (3 Bft) W-SW 244 0 min 0,000 mm 0,0 UV-I 0 W/m -0,2 C -4,1 C 20,9 km/h (4 Bft) 98,11 %
27.11.2017 00:52 1,3 C 4,4 C 90 % 1025,6 hPa 0,0 l/m 13,7 km/h (3 Bft) W 273 0 min 0,000 mm 0,0 UV-I 0 W/m -0,2 C -4,6 C 17,7 km/h (3 Bft) 97,56 %
27.11.2017 00:54 1,3 C 4,4 C 90 % 1025,6 hPa 0,0 l/m 14,7 km/h (3 Bft) W 269 0 min 0,000 mm 0,0 UV-I 0 W/m -0,2 C -5,2 C 19,3 km/h (3 Bft) 97,62 %
27.11.2017 00:56 1,3 C 4,4 C 90 % 1025,6 hPa 0,0 l/m 13,7 km/h (3 Bft) W 266 0 min 0,000 mm 0,0 UV-I 0 W/m -0,2 C -4,6 C 17,7 km/h (3 Bft) 98,00 %
27.11.2017 00:58 1,3 C 4,4 C 90 % 1025,6 hPa 0,0 l/m 14,2 km/h (3 Bft) W 265 0 min 0,000 mm 0,0 UV-I 0 W/m -0,2 C -4,9 C 19,3 km/h (3 Bft) 100,00 %
27.11.2017 01:00 1,3 C 4,4 C 90 % 1025,6 hPa 0,0 l/m 14,7 km/h (3 Bft) W 265 0 min 0,000 mm 0,0 UV-I 0 W/m -0,2 C -5,2 C 17,7 km/h (3 Bft) 98,11 %
27.11.2017 01:02 1,3 C 4,4 C 90 % 1025,6 hPa 0,0 l/m 16,2 km/h (3 Bft) W-SW 258 0 min 0,000 mm 0,0 UV-I 0 W/m -0,2 C -6,1 C 19,3 km/h (3 Bft) 94,00 %
27.11.2017 01:04 1,3 C 4,4 C 90 % 1025,7 hPa 0,0 l/m 13,5 km/h (3 Bft) W-SW 244 0 min 0,000 mm 0,0 UV-I 0 W/m -0,2 C -4,5 C 19,3 km/h (3 Bft) 100,00 %
27.11.2017 01:06 1,3 C 4,4 C 89 % 1025,7 hPa 0,0 l/m 11,2 km/h (2 Bft) W 263 0 min 0,000 mm 0,0 UV-I 0 W/m -0,3 C -2,9 C 14,5 km/h (3 Bft) 94,64 %
27.11.2017 01:08 1,3 C 4,4 C 89 % 1025,7 hPa 0,0 l/m 14,1 km/h (3 Bft) W-SW 248 0 min 0,000 mm 0,0 UV-I 0 W/m -0,3 C -4,9 C 20,9 km/h (4 Bft) 100,00 %
27.11.2017 01:10 1,3 C 4,4 C 89 % 1025,7 hPa 0,0 l/m 11,6 km/h (2 Bft) W-SW 249 0 min 0,000 mm 0,0 UV-I 0 W/m -0,3 C -3,2 C 14,5 km/h (3 Bft) 100,00 %
27.11.2017 01:12 1,3 C 4,4 C 90 % 1025,7 hPa 0,0 l/m 10,9 km/h (2 Bft) SW 223 0 min 0,000 mm 0,0 UV-I 0 W/m -0,2 C -2,7 C 16,1 km/h (3 Bft) 98,21 %
27.11.2017 01:14 1,3 C 4,4 C 89 % 1025,7 hPa 0,0 l/m 11,0 km/h (2 Bft) W-SW 258 0 min 0,000 mm 0,0 UV-I 0 W/m -0,3 C -2,8 C 14,5 km/h (3 Bft) 100,00 %
27.11.2017 01:16 1,3 C 4,4 C 90 % 1025,7 hPa 0,0 l/m 11,7 km/h (2 Bft) W 274 0 min 0,000 mm 0,0 UV-I 0 W/m -0,2 C -3,3 C 14,5 km/h (3 Bft) 98,11 %
27.11.2017 01:18 1,3 C 4,4 C 90 % 1025,8 hPa 0,0 l/m 11,3 km/h (2 Bft) W-SW 250 0 min 0,000 mm 0,0 UV-I 0 W/m -0,2 C -3,0 C 14,5 km/h (3 Bft) 97,87 %
27.11.2017 01:20 1,3 C 4,4 C 90 % 1025,7 hPa 0,0 l/m 13,3 km/h (3 Bft) W-SW 248 0 min 0,000 mm 0,0 UV-I 0 W/m -0,2 C -4,4 C 17,7 km/h (3 Bft) 97,56 %
27.11.2017 01:22 1,3 C 4,4 C 90 % 1025,7 hPa 0,0 l/m 11,7 km/h (2 Bft) W-SW 248 0 min 0,000 mm 0,0 UV-I 0 W/m -0,2 C -3,3 C 19,3 km/h (3 Bft) 100,00 %
27.11.2017 01:24 1,3 C 4,4 C 90 % 1025,7 hPa 0,0 l/m 10,7 km/h (2 Bft) W-SW 245 0 min 0,000 mm 0,0 UV-I 0 W/m -0,2 C -2,6 C 16,1 km/h (3 Bft) 100,00 %
27.11.2017 01:26 1,3 C 4,4 C 90 % 1025,7 hPa 0,0 l/m 10,7 km/h (2 Bft) W 259 0 min 0,000 mm 0,0 UV-I 0 W/m -0,2 C -2,6 C 16,1 km/h (3 Bft) 100,00 %
27.11.2017 01:28 1,3 C 4,4 C 90 % 1025,7 hPa 0,0 l/m 11,1 km/h (2 Bft) W-SW 254 0 min 0,000 mm 0,0 UV-I 0 W/m -0,2 C -2,9 C 14,5 km/h (3 Bft) 100,00 %
27.11.2017 01:30 1,3 C 4,4 C 90 % 1025,7 hPa 0,0 l/m 12,4 km/h (3 Bft) SW 234 0 min 0,000 mm 0,0 UV-I 0 W/m -0,2 C -3,8 C 17,7 km/h (3 Bft) 100,00 %
27.11.2017 01:32 1,3 C 4,4 C 90 % 1025,6 hPa 0,0 l/m 12,4 km/h (3 Bft) W-NW 285 0 min 0,000 mm 0,0 UV-I 0 W/m -0,2 C -3,8 C 16,1 km/h (3 Bft) 100,00 %
27.11.2017 01:34 1,3 C 4,4 C 90 % 1025,6 hPa 0,0 l/m 12,0 km/h (2 Bft) W 259 0 min 0,000 mm 0,0 UV-I 0 W/m -0,2 C -3,5 C 17,7 km/h (3 Bft) 100,00 %
27.11.2017 01:36 1,3 C 4,4 C 90 % 1025,7 hPa 0,0 l/m 13,4 km/h (3 Bft) W-SW 249 0 min 0,000 mm 0,0 UV-I 0 W/m -0,2 C -4,4 C 16,1 km/h (3 Bft) 100,00 %
27.11.2017 01:38 1,3 C 4,4 C 90 % 1025,7 hPa 0,0 l/m 13,5 km/h (3 Bft) W-SW 247 0 min 0,000 mm 0,0 UV-I 0 W/m -0,2 C -4,5 C 17,7 km/h (3 Bft) 100,00 %
27.11.2017 01:40 1,3 C 4,4 C 90 % 1025,7 hPa 0,0 l/m 12,8 km/h (3 Bft) W-SW 255 0 min 0,000 mm 0,0 UV-I 0 W/m -0,2 C -4,0 C 16,1 km/h (3 Bft) 100,00 %
27.11.2017 01:42 1,3 C 4,4 C 90 % 1025,7 hPa 0,0 l/m 13,2 km/h (3 Bft) W-SW 244 0 min 0,000 mm 0,0 UV-I 0 W/m -0,2 C -4,3 C 19,3 km/h (3 Bft) 98,11 %
27.11.2017 01:44 1,3 C 4,4 C 90 % 1025,7 hPa 0,0 l/m 12,9 km/h (3 Bft) SW 230 0 min 0,000 mm 0,0 UV-I 0 W/m -0,2 C -4,1 C 16,1 km/h (3 Bft) 100,00 %
27.11.2017 01:46 1,3 C 4,4 C 90 % 1025,7 hPa 0,0 l/m 14,0 km/h (3 Bft) W-SW 244 0 min 0,000 mm 0,0 UV-I 0 W/m -0,2 C -4,8 C 17,7 km/h (3 Bft) 100,00 %
27.11.2017 01:48 1,4 C 4,4 C 90 % 1025,7 hPa 0,0 l/m 8,2 km/h (2 Bft) W 266 0 min 0,000 mm 0,0 UV-I 0 W/m -0,1 C -0,4 C 12,9 km/h (3 Bft) 100,00 %
27.11.2017 01:50 1,3 C 4,4 C 90 % 1025,8 hPa 0,0 l/m 11,0 km/h (2 Bft) W-SW 248 0 min 0,000 mm 0,0 UV-I 0 W/m -0,2 C -2,8 C 17,7 km/h (3 Bft) 98,00 %
27.11.2017 01:52 1,3 C 4,4 C 90 % 1025,7 hPa 0,0 l/m 11,4 km/h (2 Bft) W-SW 242 0 min 0,000 mm 0,0 UV-I 0 W/m -0,2 C -3,1 C 17,7 km/h (3 Bft) 97,73 %
27.11.2017 01:54 1,4 C 4,4 C 90 % 1025,8 hPa 0,0 l/m 12,0 km/h (2 Bft) W-SW 244 0 min 0,000 mm 0,0 UV-I 0 W/m -0,1 C -3,4 C 16,1 km/h (3 Bft) 98,00 %
27.11.2017 01:56 1,4 C 4,4 C 89 % 1025,8 hPa 0,0 l/m 11,2 km/h (2 Bft) W-SW 247 0 min 0,000 mm 0,0 UV-I 0 W/m -0,2 C -2,8 C 17,7 km/h (3 Bft) 100,00 %
27.11.2017 01:58 1,4 C 4,4 C 89 % 1025,8 hPa 0,0 l/m 11,7 km/h (2 Bft) SW 234 0 min 0,000 mm 0,0 UV-I 0 W/m -0,2 C -3,2 C 17,7 km/h (3 Bft) 100,00 %
27.11.2017 02:00 1,4 C 4,4 C 89 % 1025,8 hPa 0,0 l/m 9,6 km/h (2 Bft) W-SW 252 0 min 0,000 mm 0,0 UV-I 0 W/m -0,2 C -1,6 C 14,5 km/h (3 Bft) 98,00 %
27.11.2017 02:02 1,4 C 4,4 C 89 % 1025,8 hPa 0,0 l/m 11,2 km/h (2 Bft) W 260 0 min 0,000 mm 0,0 UV-I 0 W/m -0,2 C -2,8 C 14,5 km/h (3 Bft) 98,11 %
27.11.2017 02:04 1,4 C 4,4 C 89 % 1025,8 hPa 0,0 l/m 11,0 km/h (2 Bft) W-SW 248 0 min 0,000 mm 0,0 UV-I 0 W/m -0,2 C -2,7 C 16,1 km/h (3 Bft) 97,56 %
27.11.2017 02:06 1,4 C 4,4 C 89 % 1025,9 hPa 0,0 l/m 9,1 km/h (2 Bft) W-SW 252 0 min 0,000 mm 0,0 UV-I 0 W/m -0,2 C -1,2 C 14,5 km/h (3 Bft) 97,56 %
27.11.2017 02:08 1,4 C 4,4 C 89 % 1025,8 hPa 0,0 l/m 11,3 km/h (2 Bft) W-SW 245 0 min 0,000 mm 0,0 UV-I 0 W/m -0,2 C -2,9 C 14,5 km/h (3 Bft) 94,00 %
27.11.2017 02:10 1,4 C 4,4 C 89 % 1025,8 hPa 0,0 l/m 9,7 km/h (2 Bft) W 259 0 min 0,000 mm 0,0 UV-I 0 W/m -0,2 C -1,7 C 12,9 km/h (3 Bft) 98,00 %
27.11.2017 02:12 1,4 C 4,4 C 89 % 1025,8 hPa 0,0 l/m 9,7 km/h (2 Bft) W 277 0 min 0,000 mm 0,0 UV-I 0 W/m -0,2 C -1,7 C 14,5 km/h (3 Bft) 97,87 %
27.11.2017 02:14 1,4 C 4,4 C 89 % 1025,8 hPa 0,0 l/m 8,8 km/h (2 Bft) W-SW 256 0 min 0,000 mm 0,0 UV-I 0 W/m -0,2 C -0,9 C 12,9 km/h (3 Bft) 96,00 %
27.11.2017 02:16 1,4 C 4,4 C 89 % 1025,8 hPa 0,0 l/m 9,7 km/h (2 Bft) W-SW 250 0 min 0,000 mm 0,0 UV-I 0 W/m -0,2 C -1,7 C 14,5 km/h (3 Bft) 94,44 %
27.11.2017 02:18 1,4 C 4,4 C 89 % 1025,8 hPa 0,0 l/m 10,8 km/h (2 Bft) W-SW 254 0 min 0,000 mm 0,0 UV-I 0 W/m -0,2 C -2,5 C 16,1 km/h (3 Bft) 97,87 %
27.11.2017 02:20 1,4 C 4,4 C 89 % 1025,8 hPa 0,0 l/m 10,2 km/h (2 Bft) W-SW 256 0 min 0,000 mm 0,0 UV-I 0 W/m -0,2 C -2,1 C 14,5 km/h (3 Bft) 94,92 %
27.11.2017 02:22 1,4 C 4,4 C 89 % 1025,8 hPa 0,0 l/m 15,2 km/h (3 Bft) W 261 0 min 0,000 mm 0,0 UV-I 0 W/m -0,2 C -5,4 C 20,9 km/h (4 Bft) 95,12 %
27.11.2017 02:24 1,4 C 4,4 C 89 % 1025,7 hPa 0,0 l/m 8,8 km/h (2 Bft) W 264 0 min 0,000 mm 0,0 UV-I 0 W/m -0,2 C -0,9 C 14,5 km/h (3 Bft) 97,73 %
27.11.2017 02:26 1,4 C 4,4 C 89 % 1025,7 hPa 0,0 l/m 11,6 km/h (2 Bft) W-SW 242 0 min 0,000 mm 0,0 UV-I 0 W/m -0,2 C -3,1 C 16,1 km/h (3 Bft) 95,74 %
27.11.2017 02:28 1,4 C 4,4 C 89 % 1025,7 hPa 0,0 l/m 11,6 km/h (2 Bft) W-SW 252 0 min 0,000 mm 0,0 UV-I 0 W/m -0,2 C -3,1 C 14,5 km/h (3 Bft) 94,00 %
27.11.2017 02:30 1,3 C 4,4 C 89 % 1025,8 hPa 0,0 l/m 10,4 km/h (2 Bft) W-SW 250 0 min 0,000 mm 0,0 UV-I 0 W/m -0,3 C -2,3 C 14,5 km/h (3 Bft) 98,00 %
27.11.2017 02:32 1,3 C 4,4 C 89 % 1025,8 hPa 0,0 l/m 8,8 km/h (2 Bft) W-SW 240 0 min 0,000 mm 0,0 UV-I 0 W/m -0,3 C -1,0 C 12,9 km/h (3 Bft) 97,56 %
27.11.2017 02:34 1,3 C 4,4 C 89 % 1025,8 hPa 0,0 l/m 10,0 km/h (2 Bft) W-SW 248 0 min 0,000 mm 0,0 UV-I 0 W/m -0,3 C -2,0 C 19,3 km/h (3 Bft) 98,00 %
27.11.2017 02:36 1,3 C 4,4 C 89 % 1025,8 hPa 0,0 l/m 12,3 km/h (3 Bft) W-SW 249 0 min 0,000 mm 0,0 UV-I 0 W/m -0,3 C -3,7 C 16,1 km/h (3 Bft) 97,56 %
27.11.2017 02:38 1,4 C 4,4 C 89 % 1025,7 hPa 0,0 l/m 11,0 km/h (2 Bft) SW 225 0 min 0,000 mm 0,0 UV-I 0 W/m -0,2 C -2,7 C 16,1 km/h (3 Bft) 98,00 %
27.11.2017 02:40 1,4 C 4,4 C 89 % 1025,8 hPa 0,0 l/m 11,1 km/h (2 Bft) SW 229 0 min 0,000 mm 0,0 UV-I 0 W/m -0,2 C -2,7 C 17,7 km/h (3 Bft) 94,00 %
27.11.2017 02:42 1,4 C 4,4 C 89 % 1025,8 hPa 0,0 l/m 9,3 km/h (2 Bft) SW 215 0 min 0,000 mm 0,0 UV-I 0 W/m -0,2 C -1,3 C 14,5 km/h (3 Bft) 95,74 %
27.11.2017 02:44 1,4 C 4,4 C 89 % 1025,8 hPa 0,0 l/m 9,9 km/h (2 Bft) SW 234 0 min 0,000 mm 0,0 UV-I 0 W/m -0,2 C -1,8 C 14,5 km/h (3 Bft) 94,74 %
27.11.2017 02:46 1,4 C 4,4 C 89 % 1025,9 hPa 0,0 l/m 11,7 km/h (2 Bft) W-SW 244 0 min 0,000 mm 0,0 UV-I 0 W/m -0,2 C -3,2 C 17,7 km/h (3 Bft) 94,64 %
27.11.2017 02:48 1,4 C 4,4 C 89 % 1025,8 hPa 0,0 l/m 11,9 km/h (2 Bft) W-SW 252 0 min 0,000 mm 0,0 UV-I 0 W/m -0,2 C -3,3 C 17,7 km/h (3 Bft) 94,74 %
27.11.2017 02:50 1,3 C 4,4 C 89 % 1025,9 hPa 0,0 l/m 12,9 km/h (3 Bft) SW 224 0 min 0,000 mm 0,0 UV-I 0 W/m -0,3 C -4,1 C 20,9 km/h (4 Bft) 92,45 %
27.11.2017 02:52 1,3 C 4,4 C 89 % 1025,9 hPa 0,0 l/m 10,5 km/h (2 Bft) W-SW 255 0 min 0,000 mm 0,0 UV-I 0 W/m -0,3 C -2,4 C 14,5 km/h (3 Bft) 94,34 %
27.11.2017 02:54 1,3 C 4,4 C 89 % 1025,9 hPa 0,0 l/m 11,1 km/h (2 Bft) W-SW 255 0 min 0,000 mm 0,0 UV-I 0 W/m -0,3 C -2,9 C 16,1 km/h (3 Bft) 94,87 %
27.11.2017 02:56 1,3 C 4,4 C 89 % 1025,8 hPa 0,0 l/m 14,6 km/h (3 Bft) W-SW 257 0 min 0,000 mm 0,0 UV-I 0 W/m -0,3 C -5,2 C 19,3 km/h (3 Bft) 95,74 %
27.11.2017 02:58 1,3 C 4,4 C 89 % 1025,8 hPa 0,0 l/m 13,8 km/h (3 Bft) W-SW 250 0 min 0,000 mm 0,0 UV-I 0 W/m -0,3 C -4,7 C 17,7 km/h (3 Bft) 95,74 %
27.11.2017 03:00 1,3 C 4,4 C 89 % 1025,9 hPa 0,0 l/m 13,2 km/h (3 Bft) W-SW 242 0 min 0,000 mm 0,0 UV-I 0 W/m -0,3 C -4,3 C 19,3 km/h (3 Bft) 94,34 %
27.11.2017 03:02 1,3 C 4,4 C 89 % 1025,9 hPa 0,0 l/m 13,6 km/h (3 Bft) W-SW 244 0 min 0,000 mm 0,0 UV-I 0 W/m -0,3 C -4,6 C 17,7 km/h (3 Bft) 97,37 %
27.11.2017 03:04 1,3 C 4,4 C 89 % 1025,9 hPa 0,0 l/m 10,8 km/h (2 Bft) W 273 0 min 0,000 mm 0,0 UV-I 0 W/m -0,3 C -2,6 C 19,3 km/h (3 Bft) 94,00 %
27.11.2017 03:06 1,3 C 4,4 C 89 % 1025,9 hPa 0,0 l/m 10,9 km/h (2 Bft) SW 223 0 min 0,000 mm 0,0 UV-I 0 W/m -0,3 C -2,7 C 16,1 km/h (3 Bft) 95,12 %
27.11.2017 03:08 1,3 C 4,4 C 89 % 1026,0 hPa 0,0 l/m 10,6 km/h (2 Bft) W-SW 242 0 min 0,000 mm 0,0 UV-I 0 W/m -0,3 C -2,5 C 14,5 km/h (3 Bft) 94,64 %
27.11.2017 03:10 1,3 C 4,4 C 89 % 1025,9 hPa 0,0 l/m 10,2 km/h (2 Bft) W-SW 239 0 min 0,000 mm 0,0 UV-I 0 W/m -0,3 C -2,2 C 14,5 km/h (3 Bft) 95,74 %
27.11.2017 03:12 1,3 C 4,4 C 89 % 1025,9 hPa 0,0 l/m 11,7 km/h (2 Bft) W-SW 250 0 min 0,000 mm 0,0 UV-I 0 W/m -0,3 C -3,3 C 17,7 km/h (3 Bft) 97,37 %
27.11.2017 03:14 1,3 C 4,4 C 89 % 1025,9 hPa 0,0 l/m 12,2 km/h (2 Bft) W-SW 253 0 min 0,000 mm 0,0 UV-I 0 W/m -0,3 C -3,6 C 19,3 km/h (3 Bft) 96,00 %
27.11.2017 03:16 1,3 C 4,4 C 89 % 1025,9 hPa 0,0 l/m 11,3 km/h (2 Bft) SW 236 0 min 0,000 mm 0,0 UV-I 0 W/m -0,3 C -3,0 C 19,3 km/h (3 Bft) 96,23 %
27.11.2017 03:18 1,3 C 4,4 C 89 % 1025,9 hPa 0,0 l/m 9,6 km/h (2 Bft) W-SW 252 0 min 0,000 mm 0,0 UV-I 0 W/m -0,3 C -1,7 C 12,9 km/h (3 Bft) 97,14 %
27.11.2017 03:20 1,2 C 4,4 C 89 % 1025,9 hPa 0,0 l/m 9,5 km/h (2 Bft) SW 222 0 min 0,000 mm 0,0 UV-I 0 W/m -0,4 C -1,7 C 14,5 km/h (3 Bft) 98,21 %
27.11.2017 03:22 1,2 C 4,4 C 89 % 1026,0 hPa 0,0 l/m 11,0 km/h (2 Bft) SW 227 0 min 0,000 mm 0,0 UV-I 0 W/m -0,4 C -2,9 C 17,7 km/h (3 Bft) 100,00 %
27.11.2017 03:24 1,2 C 4,4 C 90 % 1025,9 hPa 0,0 l/m 9,9 km/h (2 Bft) SW 234 0 min 0,000 mm 0,0 UV-I 0 W/m -0,3 C -2,0 C 12,9 km/h (3 Bft) 100,00 %
27.11.2017 03:26 1,2 C 4,4 C 90 % 1025,9 hPa 0,0 l/m 10,3 km/h (2 Bft) W-SW 245 0 min 0,000 mm 0,0 UV-I 0 W/m -0,3 C -2,4 C 16,1 km/h (3 Bft) 98,00 %
27.11.2017 03:28 1,2 C 4,4 C 90 % 1025,9 hPa 0,0 l/m 12,0 km/h (2 Bft) W-SW 246 0 min 0,000 mm 0,0 UV-I 0 W/m -0,3 C -3,6 C 16,1 km/h (3 Bft) 100,00 %
27.11.2017 03:30 1,2 C 4,4 C 90 % 1025,9 hPa 0,0 l/m 11,2 km/h (2 Bft) W 275 0 min 0,000 mm 0,0 UV-I 0 W/m -0,3 C -3,0 C 17,7 km/h (3 Bft) 100,00 %
27.11.2017 03:32 1,2 C 4,4 C 90 % 1025,8 hPa 0,0 l/m 11,9 km/h (2 Bft) W-SW 255 0 min 0,000 mm 0,0 UV-I 0 W/m -0,3 C -3,5 C 17,7 km/h (3 Bft) 98,57 %
27.11.2017 03:34 1,2 C 4,4 C 90 % 1025,9 hPa 0,0 l/m 12,6 km/h (3 Bft) W 267 0 min 0,000 mm 0,0 UV-I 0 W/m -0,3 C -4,0 C 16,1 km/h (3 Bft) 100,00 %
27.11.2017 03:36 1,2 C 4,4 C 90 % 1025,9 hPa 0,0 l/m 14,9 km/h (3 Bft) W-SW 246 0 min 0,000 mm 0,0 UV-I 0 W/m -0,3 C -5,5 C 19,3 km/h (3 Bft) 100,00 %
27.11.2017 03:38 1,2 C 4,4 C 90 % 1025,9 hPa 0,0 l/m 11,9 km/h (2 Bft) W 259 0 min 0,000 mm 0,0 UV-I 0 W/m -0,3 C -3,5 C 19,3 km/h (3 Bft) 100,00 %
27.11.2017 03:40 1,2 C 4,4 C 90 % 1025,8 hPa 0,0 l/m 13,2 km/h (3 Bft) W 275 0 min 0,000 mm 0,0 UV-I 0 W/m -0,3 C -4,4 C 17,7 km/h (3 Bft) 100,00 %
27.11.2017 03:42 1,2 C 4,4 C 90 % 1025,9 hPa 0,0 l/m 13,5 km/h (3 Bft) W-SW 248 0 min 0,000 mm 0,0 UV-I 0 W/m -0,3 C -4,6 C 16,1 km/h (3 Bft) 100,00 %
27.11.2017 03:44 1,2 C 4,4 C 90 % 1025,8 hPa 0,0 l/m 13,6 km/h (3 Bft) W-SW 252 0 min 0,000 mm 0,0 UV-I 0 W/m -0,3 C -4,7 C 17,7 km/h (3 Bft) 100,00 %
27.11.2017 03:46 1,2 C 4,4 C 90 % 1025,9 hPa 0,0 l/m 11,8 km/h (2 Bft) SW 229 0 min 0,000 mm 0,0 UV-I 0 W/m -0,3 C -3,5 C 16,1 km/h (3 Bft) 97,37 %
27.11.2017 03:48 1,2 C 4,4 C 90 % 1025,9 hPa 0,0 l/m 14,5 km/h (3 Bft) W-SW 254 0 min 0,000 mm 0,0 UV-I 0 W/m -0,3 C -5,2 C 19,3 km/h (3 Bft) 100,00 %
27.11.2017 03:50 1,3 C 4,4 C 90 % 1026,0 hPa 0,0 l/m 13,1 km/h (3 Bft) W 259 0 min 0,000 mm 0,0 UV-I 0 W/m -0,2 C -4,2 C 17,7 km/h (3 Bft) 100,00 %
27.11.2017 03:52 1,3 C 4,4 C 89 % 1026,0 hPa 0,0 l/m 12,5 km/h (3 Bft) W-SW 244 0 min 0,000 mm 0,0 UV-I 0 W/m -0,3 C -3,8 C 17,7 km/h (3 Bft) 100,00 %
27.11.2017 03:54 1,3 C 4,4 C 89 % 1025,9 hPa 0,0 l/m 11,0 km/h (2 Bft) SW 232 0 min 0,000 mm 0,0 UV-I 0 W/m -0,3 C -2,8 C 14,5 km/h (3 Bft) 100,00 %
27.11.2017 03:56 1,3 C 4,4 C 89 % 1025,9 hPa 0,0 l/m 11,6 km/h (2 Bft) SW 227 0 min 0,000 mm 0,0 UV-I 0 W/m -0,3 C -3,2 C 16,1 km/h (3 Bft) 100,00 %
27.11.2017 03:58 1,3 C 4,4 C 89 % 1025,9 hPa 0,0 l/m 9,5 km/h (2 Bft) W-SW 251 0 min 0,000 mm 0,0 UV-I 0 W/m -0,3 C -1,6 C 16,1 km/h (3 Bft) 100,00 %
27.11.2017 04:00 1,3 C 4,4 C 89 % 1026,0 hPa 0,0 l/m 10,8 km/h (2 Bft) W-SW 257 0 min 0,000 mm 0,0 UV-I 0 W/m -0,3 C -2,6 C 16,1 km/h (3 Bft) 100,00 %
27.11.2017 04:04 1,3 C 4,4 C 89 % 1026,0 hPa 0,0 l/m 12,3 km/h (3 Bft) W-SW 248 0 min 0,000 mm 0,0 UV-I 0 W/m -0,3 C -3,7 C 17,7 km/h (3 Bft) 98,31 %
27.11.2017 04:06 1,3 C 4,4 C 89 % 1026,0 hPa 0,0 l/m 13,9 km/h (3 Bft) W-SW 241 0 min 0,000 mm 0,0 UV-I 0 W/m -0,3 C -4,7 C 19,3 km/h (3 Bft) 100,00 %
27.11.2017 04:08 1,3 C 4,4 C 89 % 1026,1 hPa 0,0 l/m 10,7 km/h (2 Bft) W-SW 249 0 min 0,000 mm 0,0 UV-I 0 W/m -0,3 C -2,6 C 16,1 km/h (3 Bft) 100,00 %
27.11.2017 04:10 1,3 C 4,4 C 89 % 1026,0 hPa 0,0 l/m 13,0 km/h (3 Bft) W 265 0 min 0,000 mm 0,0 UV-I 0 W/m -0,3 C -4,2 C 17,7 km/h (3 Bft) 100,00 %
27.11.2017 04:12 1,4 C 4,4 C 89 % 1026,0 hPa 0,0 l/m 12,6 km/h (3 Bft) W-SW 240 0 min 0,000 mm 0,0 UV-I 0 W/m -0,2 C -3,8 C 17,7 km/h (3 Bft) 100,00 %
27.11.2017 04:14 1,3 C 4,4 C 89 % 1026,0 hPa 0,0 l/m 11,2 km/h (2 Bft) W-SW 246 0 min 0,000 mm 0,0 UV-I 0 W/m -0,3 C -2,9 C 17,7 km/h (3 Bft) 100,00 %
27.11.2017 04:16 1,3 C 4,4 C 89 % 1026,0 hPa 0,0 l/m 12,3 km/h (3 Bft) W-SW 250 0 min 0,000 mm 0,0 UV-I 0 W/m -0,3 C -3,7 C 20,9 km/h (4 Bft) 98,18 %
27.11.2017 04:18 1,3 C 4,4 C 89 % 1026,0 hPa 0,0 l/m 11,1 km/h (2 Bft) W-SW 244 0 min 0,000 mm 0,0 UV-I 0 W/m -0,3 C -2,9 C 17,7 km/h (3 Bft) 100,00 %
27.11.2017 04:20 1,3 C 4,4 C 89 % 1026,0 hPa 0,0 l/m 11,2 km/h (2 Bft) S-SW 205 0 min 0,000 mm 0,0 UV-I 0 W/m -0,3 C -2,9 C 17,7 km/h (3 Bft) 98,31 %
27.11.2017 04:22 1,3 C 4,4 C 89 % 1026,0 hPa 0,0 l/m 12,9 km/h (3 Bft) SW 228 0 min 0,000 mm 0,0 UV-I 0 W/m -0,3 C -4,1 C 17,7 km/h (3 Bft) 94,29 %
27.11.2017 04:24 1,3 C 4,4 C 89 % 1026,0 hPa 0,0 l/m 12,3 km/h (3 Bft) W 261 0 min 0,000 mm 0,0 UV-I 0 W/m -0,3 C -3,7 C 16,1 km/h (3 Bft) 100,00 %
27.11.2017 04:26 1,3 C 4,4 C 89 % 1026,0 hPa 0,0 l/m 14,5 km/h (3 Bft) W 263 0 min 0,000 mm 0,0 UV-I 0 W/m -0,3 C -5,1 C 24,1 km/h (4 Bft) 100,00 %
27.11.2017 04:28 1,3 C 4,4 C 89 % 1026,0 hPa 0,0 l/m 12,7 km/h (3 Bft) W-SW 246 0 min 0,000 mm 0,0 UV-I 0 W/m -0,3 C -4,0 C 19,3 km/h (3 Bft) 98,00 %
27.11.2017 04:30 1,3 C 4,4 C 89 % 1026,0 hPa 0,0 l/m 12,4 km/h (3 Bft) W-SW 252 0 min 0,000 mm 0,0 UV-I 0 W/m -0,3 C -3,8 C 16,1 km/h (3 Bft) 100,00 %
27.11.2017 04:32 1,4 C 4,4 C 89 % 1026,0 hPa 0,0 l/m 13,9 km/h (3 Bft) SW 233 0 min 0,000 mm 0,0 UV-I 0 W/m -0,2 C -4,6 C 19,3 km/h (3 Bft) 100,00 %
27.11.2017 04:34 1,4 C 4,4 C 89 % 1026,0 hPa 0,0 l/m 14,1 km/h (3 Bft) SW 222 0 min 0,000 mm 0,0 UV-I 0 W/m -0,2 C -4,8 C 20,9 km/h (4 Bft) 98,11 %
27.11.2017 04:36 1,4 C 4,4 C 89 % 1026,1 hPa 0,0 l/m 10,8 km/h (2 Bft) W-SW 244 0 min 0,000 mm 0,0 UV-I 0 W/m -0,2 C -2,5 C 16,1 km/h (3 Bft) 100,00 %
27.11.2017 04:38 1,3 C 4,4 C 89 % 1026,1 hPa 0,0 l/m 10,6 km/h (2 Bft) W 274 0 min 0,000 mm 0,0 UV-I 0 W/m -0,3 C -2,5 C 16,1 km/h (3 Bft) 100,00 %
27.11.2017 04:40 1,3 C 4,4 C 89 % 1026,1 hPa 0,0 l/m 11,4 km/h (2 Bft) W 260 0 min 0,000 mm 0,0 UV-I 0 W/m -0,3 C -3,1 C 17,7 km/h (3 Bft) 100,00 %
27.11.2017 04:42 1,4 C 4,4 C 89 % 1026,1 hPa 0,0 l/m 11,0 km/h (2 Bft) SW 227 0 min 0,000 mm 0,0 UV-I 0 W/m -0,2 C -2,7 C 16,1 km/h (3 Bft) 100,00 %
27.11.2017 04:44 1,4 C 4,4 C 89 % 1026,1 hPa 0,0 l/m 13,6 km/h (3 Bft) W 262 0 min 0,000 mm 0,0 UV-I 0 W/m -0,2 C -4,4 C 19,3 km/h (3 Bft) 97,37 %
27.11.2017 04:46 1,4 C 4,4 C 89 % 1026,1 hPa 0,0 l/m 11,7 km/h (2 Bft) W-SW 243 0 min 0,000 mm 0,0 UV-I 0 W/m -0,2 C -3,2 C 16,1 km/h (3 Bft) 100,00 %
27.11.2017 04:48 1,4 C 4,4 C 89 % 1026,1 hPa 0,0 l/m 11,0 km/h (2 Bft) SW 229 0 min 0,000 mm 0,0 UV-I 0 W/m -0,2 C -2,7 C 16,1 km/h (3 Bft) 100,00 %
27.11.2017 04:50 1,4 C 4,4 C 89 % 1026,1 hPa 0,0 l/m 12,0 km/h (2 Bft) W-SW 246 0 min 0,000 mm 0,0 UV-I 0 W/m -0,2 C -3,4 C 19,3 km/h (3 Bft) 98,51 %
27.11.2017 04:52 1,4 C 4,4 C 89 % 1026,1 hPa 0,0 l/m 12,0 km/h (2 Bft) W-SW 254 0 min 0,000 mm 0,0 UV-I 0 W/m -0,2 C -3,4 C 20,9 km/h (4 Bft) 95,74 %
27.11.2017 04:54 1,4 C 4,4 C 89 % 1026,1 hPa 0,0 l/m 10,7 km/h (2 Bft) W 261 0 min 0,000 mm 0,0 UV-I 0 W/m -0,2 C -2,4 C 16,1 km/h (3 Bft) 98,00 %
27.11.2017 04:56 1,4 C 4,4 C 88 % 1026,1 hPa 0,0 l/m 11,0 km/h (2 Bft) SW 235 0 min 0,000 mm 0,0 UV-I 0 W/m -0,4 C -2,7 C 22,5 km/h (4 Bft) 97,87 %
27.11.2017 04:58 1,4 C 4,4 C 88 % 1026,1 hPa 0,0 l/m 11,3 km/h (2 Bft) SW 232 0 min 0,000 mm 0,0 UV-I 0 W/m -0,4 C -2,9 C 14,5 km/h (3 Bft) 97,62 %
27.11.2017 05:00 1,4 C 4,4 C 88 % 1026,1 hPa 0,0 l/m 10,4 km/h (2 Bft) S-SW 208 0 min 0,000 mm 0,0 UV-I 0 W/m -0,4 C -2,2 C 14,5 km/h (3 Bft) 98,11 %
27.11.2017 05:02 1,4 C 4,4 C 88 % 1026,2 hPa 0,0 l/m 11,7 km/h (2 Bft) SW 222 0 min 0,000 mm 0,0 UV-I 0 W/m -0,4 C -3,2 C 20,9 km/h (4 Bft) 97,56 %
27.11.2017 05:04 1,4 C 4,4 C 88 % 1026,2 hPa 0,0 l/m 10,5 km/h (2 Bft) SW 230 0 min 0,000 mm 0,0 UV-I 0 W/m -0,4 C -2,3 C 16,1 km/h (3 Bft) 97,56 %
27.11.2017 05:06 1,4 C 4,4 C 88 % 1026,2 hPa 0,0 l/m 10,6 km/h (2 Bft) W 271 0 min 0,000 mm 0,0 UV-I 0 W/m -0,4 C -2,4 C 17,7 km/h (3 Bft) 98,00 %
27.11.2017 05:08 1,5 C 4,4 C 88 % 1026,2 hPa 0,0 l/m 11,1 km/h (2 Bft) S-SW 207 0 min 0,000 mm 0,0 UV-I 0 W/m -0,3 C -2,6 C 19,3 km/h (3 Bft) 96,23 %
27.11.2017 05:10 1,5 C 4,4 C 88 % 1026,2 hPa 0,0 l/m 11,6 km/h (2 Bft) SW 224 0 min 0,000 mm 0,0 UV-I 0 W/m -0,3 C -3,0 C 19,3 km/h (3 Bft) 98,00 %
27.11.2017 05:12 1,5 C 4,4 C 88 % 1026,3 hPa 0,0 l/m 13,1 km/h (3 Bft) SW 233 0 min 0,000 mm 0,0 UV-I 0 W/m -0,3 C -4,0 C 20,9 km/h (4 Bft) 94,74 %
27.11.2017 05:14 1,5 C 4,4 C 88 % 1026,2 hPa 0,0 l/m 13,2 km/h (3 Bft) W-SW 241 0 min 0,000 mm 0,0 UV-I 0 W/m -0,3 C -4,1 C 19,3 km/h (3 Bft) 97,56 %
27.11.2017 05:16 1,5 C 4,4 C 88 % 1026,2 hPa 0,0 l/m 9,5 km/h (2 Bft) W-SW 244 0 min 0,000 mm 0,0 UV-I 0 W/m -0,3 C -1,4 C 14,5 km/h (3 Bft) 95,12 %
27.11.2017 05:18 1,5 C 4,4 C 88 % 1026,1 hPa 0,0 l/m 8,7 km/h (2 Bft) S-SW 205 0 min 0,000 mm 0,0 UV-I 0 W/m -0,3 C -0,7 C 14,5 km/h (3 Bft) 98,11 %
27.11.2017 05:20 1,4 C 4,4 C 88 % 1026,1 hPa 0,0 l/m 11,4 km/h (2 Bft) S-SW 207 0 min 0,000 mm 0,0 UV-I 0 W/m -0,4 C -3,0 C 22,5 km/h (4 Bft) 98,11 %
27.11.2017 05:22 1,4 C 4,4 C 88 % 1026,1 hPa 0,0 l/m 13,4 km/h (3 Bft) SW 225 0 min 0,000 mm 0,0 UV-I 0 W/m -0,4 C -4,3 C 20,9 km/h (4 Bft) 98,00 %
27.11.2017 05:24 1,4 C 4,4 C 88 % 1026,1 hPa 0,0 l/m 11,3 km/h (2 Bft) SW 231 0 min 0,000 mm 0,0 UV-I 0 W/m -0,4 C -2,9 C 17,7 km/h (3 Bft) 96,00 %
27.11.2017 05:26 1,4 C 4,4 C 88 % 1026,1 hPa 0,0 l/m 15,3 km/h (3 Bft) SW 236 0 min 0,000 mm 0,0 UV-I 0 W/m -0,4 C -5,5 C 22,5 km/h (4 Bft) 97,87 %
27.11.2017 05:28 1,5 C 4,4 C 88 % 1026,1 hPa 0,0 l/m 13,6 km/h (3 Bft) SW 217 0 min 0,000 mm 0,0 UV-I 0 W/m -0,3 C -4,3 C 17,7 km/h (3 Bft) 97,37 %
27.11.2017 05:30 1,5 C 4,4 C 88 % 1026,2 hPa 0,0 l/m 13,6 km/h (3 Bft) W-SW 246 0 min 0,000 mm 0,0 UV-I 0 W/m -0,3 C -4,3 C 19,3 km/h (3 Bft) 98,00 %
27.11.2017 05:32 1,4 C 4,4 C 88 % 1026,2 hPa 0,0 l/m 15,2 km/h (3 Bft) W-SW 250 0 min 0,000 mm 0,0 UV-I 0 W/m -0,4 C -5,4 C 20,9 km/h (4 Bft) 98,11 %
27.11.2017 05:34 1,4 C 4,4 C 89 % 1026,2 hPa 0,0 l/m 13,3 km/h (3 Bft) W-SW 252 0 min 0,000 mm 0,0 UV-I 0 W/m -0,2 C -4,3 C 19,3 km/h (3 Bft) 100,00 %
27.11.2017 05:36 1,4 C 4,4 C 89 % 1026,2 hPa 0,0 l/m 12,5 km/h (3 Bft) SW 224 0 min 0,000 mm 0,0 UV-I 0 W/m -0,2 C -3,7 C 20,9 km/h (4 Bft) 94,00 %
27.11.2017 05:38 1,4 C 4,4 C 88 % 1026,2 hPa 0,0 l/m 10,8 km/h (2 Bft) SW 228 0 min 0,000 mm 0,0 UV-I 0 W/m -0,4 C -2,5 C 19,3 km/h (3 Bft) 97,87 %
27.11.2017 05:40 1,5 C 4,4 C 88 % 1026,3 hPa 0,0 l/m 12,5 km/h (3 Bft) SW 226 0 min 0,000 mm 0,0 UV-I 0 W/m -0,3 C -3,6 C 19,3 km/h (3 Bft) 100,00 %
27.11.2017 05:42 1,5 C 4,4 C 88 % 1026,2 hPa 0,0 l/m 12,1 km/h (2 Bft) W-SW 240 0 min 0,000 mm 0,0 UV-I 0 W/m -0,3 C -3,3 C 20,9 km/h (4 Bft) 100,00 %
27.11.2017 05:44 1,5 C 4,4 C 89 % 1026,3 hPa 0,0 l/m 12,5 km/h (3 Bft) W-SW 239 0 min 0,000 mm 0,0 UV-I 0 W/m -0,1 C -3,6 C 19,3 km/h (3 Bft) 100,00 %
27.11.2017 05:46 1,5 C 4,4 C 89 % 1026,3 hPa 0,0 l/m 13,5 km/h (3 Bft) S-SW 212 0 min 0,000 mm 0,0 UV-I 0 W/m -0,1 C -4,3 C 19,3 km/h (3 Bft) 92,68 %
27.11.2017 05:48 1,5 C 4,4 C 89 % 1026,3 hPa 0,0 l/m 13,0 km/h (3 Bft) SW 231 0 min 0,000 mm 0,0 UV-I 0 W/m -0,1 C -3,9 C 22,5 km/h (4 Bft) 100,00 %
27.11.2017 05:50 1,5 C 4,4 C 88 % 1026,3 hPa 0,0 l/m 11,3 km/h (2 Bft) W-SW 240 0 min 0,000 mm 0,0 UV-I 0 W/m -0,3 C -2,8 C 17,7 km/h (3 Bft) 94,74 %
27.11.2017 05:52 1,5 C 4,4 C 88 % 1026,3 hPa 0,0 l/m 15,4 km/h (3 Bft) S-SW 194 0 min 0,000 mm 0,0 UV-I 0 W/m -0,3 C -5,4 C 22,5 km/h (4 Bft) 100,00 %
27.11.2017 05:54 1,5 C 4,4 C 88 % 1026,3 hPa 0,0 l/m 11,0 km/h (2 Bft) SW 223 0 min 0,000 mm 0,0 UV-I 0 W/m -0,3 C -2,6 C 16,1 km/h (3 Bft) 100,00 %
27.11.2017 05:56 1,5 C 4,4 C 88 % 1026,3 hPa 0,0 l/m 12,4 km/h (3 Bft) W-SW 237 0 min 0,000 mm 0,0 UV-I 0 W/m -0,3 C -3,5 C 19,3 km/h (3 Bft) 100,00 %
27.11.2017 05:58 1,5 C 4,4 C 89 % 1026,4 hPa 0,0 l/m 12,5 km/h (3 Bft) W-SW 258 0 min 0,000 mm 0,0 UV-I 0 W/m -0,1 C -3,6 C 19,3 km/h (3 Bft) 100,00 %
27.11.2017 06:00 1,5 C 4,4 C 89 % 1026,4 hPa 0,0 l/m 13,5 km/h (3 Bft) SW 232 0 min 0,025 mm 0,0 UV-I 0 W/m -0,1 C -4,3 C 20,9 km/h (4 Bft) 97,37 %
27.11.2017 06:02 1,5 C 4,4 C 89 % 1026,4 hPa 0,0 l/m 12,4 km/h (3 Bft) SW 235 0 min 0,000 mm 0,0 UV-I 0 W/m -0,1 C -3,5 C 17,7 km/h (3 Bft) 98,11 %
27.11.2017 06:04 1,5 C 4,4 C 89 % 1026,4 hPa 0,0 l/m 13,0 km/h (3 Bft) SW 230 0 min 0,000 mm 0,0 UV-I 0 W/m -0,1 C -3,9 C 22,5 km/h (4 Bft) 97,56 %
27.11.2017 06:06 1,5 C 4,4 C 89 % 1026,4 hPa 0,0 l/m 14,0 km/h (3 Bft) SW 227 0 min 0,000 mm 0,0 UV-I 0 W/m -0,1 C -4,6 C 20,9 km/h (4 Bft) 95,74 %
27.11.2017 06:08 1,5 C 4,4 C 88 % 1026,5 hPa 0,0 l/m 13,2 km/h (3 Bft) SW 236 0 min 0,000 mm 0,0 UV-I 0 W/m -0,3 C -4,1 C 19,3 km/h (3 Bft) 98,00 %
27.11.2017 06:10 1,6 C 4,4 C 88 % 1026,5 hPa 0,0 l/m 13,2 km/h (3 Bft) W-SW 241 0 min 0,000 mm 0,0 UV-I 0 W/m -0,2 C -4,0 C 19,3 km/h (3 Bft) 94,87 %
27.11.2017 06:12 1,6 C 4,4 C 88 % 1026,4 hPa 0,0 l/m 12,9 km/h (3 Bft) W-SW 238 0 min 0,000 mm 0,0 UV-I 0 W/m -0,2 C -3,8 C 19,3 km/h (3 Bft) 95,00 %
27.11.2017 06:14 1,5 C 4,4 C 88 % 1026,4 hPa 0,0 l/m 12,8 km/h (3 Bft) SW 232 0 min 0,000 mm 0,0 UV-I 0 W/m -0,3 C -3,8 C 17,7 km/h (3 Bft) 100,00 %
27.11.2017 06:16 1,6 C 4,4 C 88 % 1026,4 hPa 0,0 l/m 14,1 km/h (3 Bft) SW 227 0 min 0,000 mm 0,0 UV-I 0 W/m -0,2 C -4,5 C 17,7 km/h (3 Bft) 98,18 %
27.11.2017 06:18 1,6 C 4,4 C 88 % 1026,4 hPa 0,0 l/m 14,9 km/h (3 Bft) W-SW 238 0 min 0,000 mm 0,0 UV-I 0 W/m -0,2 C -5,0 C 20,9 km/h (4 Bft) 97,78 %
27.11.2017 06:20 1,6 C 4,4 C 88 % 1026,4 hPa 0,0 l/m 12,4 km/h (3 Bft) SW 227 0 min 0,000 mm 0,0 UV-I 0 W/m -0,2 C -3,4 C 19,3 km/h (3 Bft) 97,37 %
27.11.2017 06:22 1,6 C 4,4 C 88 % 1026,6 hPa 0,0 l/m 13,7 km/h (3 Bft) SW 226 0 min 0,000 mm 0,0 UV-I 0 W/m -0,2 C -4,3 C 22,5 km/h (4 Bft) 96,08 %
27.11.2017 06:24 1,6 C 4,4 C 88 % 1026,5 hPa 0,0 l/m 12,6 km/h (3 Bft) W-SW 257 0 min 0,000 mm 0,0 UV-I 0 W/m -0,2 C -3,6 C 17,7 km/h (3 Bft) 98,11 %
27.11.2017 06:26 1,5 C 4,4 C 88 % 1026,6 hPa 0,0 l/m 10,1 km/h (2 Bft) SW 221 0 min 0,000 mm 0,0 UV-I 0 W/m -0,3 C -1,9 C 14,5 km/h (3 Bft) 89,47 %
27.11.2017 06:28 1,6 C 4,4 C 88 % 1026,5 hPa 0,0 l/m 11,4 km/h (2 Bft) W-SW 250 0 min 0,000 mm 0,0 UV-I 0 W/m -0,2 C -2,7 C 16,1 km/h (3 Bft) 98,00 %
27.11.2017 06:30 1,6 C 4,4 C 88 % 1026,6 hPa 0,0 l/m 9,4 km/h (2 Bft) SW 226 0 min 0,000 mm 0,0 UV-I 0 W/m -0,2 C -1,2 C 12,9 km/h (3 Bft) 93,62 %
27.11.2017 06:32 1,6 C 4,4 C 88 % 1026,4 hPa 0,0 l/m 12,2 km/h (2 Bft) W-SW 239 0 min 0,000 mm 0,0 UV-I 0 W/m -0,2 C -3,3 C 17,7 km/h (3 Bft) 96,23 %
27.11.2017 06:34 1,6 C 4,4 C 88 % 1026,5 hPa 0,0 l/m 9,8 km/h (2 Bft) SW 226 0 min 0,000 mm 0,0 UV-I 0 W/m -0,2 C -1,5 C 16,1 km/h (3 Bft) 100,00 %
27.11.2017 06:36 1,5 C 4,4 C 88 % 1026,6 hPa 0,0 l/m 8,5 km/h (2 Bft) SW 230 0 min 0,000 mm 0,0 UV-I 0 W/m -0,3 C -0,5 C 12,9 km/h (3 Bft) 96,23 %
27.11.2017 06:38 1,5 C 4,4 C 88 % 1026,6 hPa 0,0 l/m 9,6 km/h (2 Bft) SW 230 0 min 0,000 mm 0,0 UV-I 0 W/m -0,3 C -1,5 C 14,5 km/h (3 Bft) 97,87 %
27.11.2017 06:40 1,5 C 4,4 C 88 % 1026,6 hPa 0,0 l/m 9,0 km/h (2 Bft) SW 232 0 min 0,000 mm 0,0 UV-I 0 W/m -0,3 C -1,0 C 14,5 km/h (3 Bft) 94,74 %
27.11.2017 06:42 1,5 C 4,4 C 88 % 1026,7 hPa 0,0 l/m 7,6 km/h (2 Bft) W-SW 246 0 min 0,000 mm 0,0 UV-I 0 W/m -0,3 C 0,3 C 12,9 km/h (3 Bft) 98,11 %
27.11.2017 06:44 1,5 C 4,4 C 88 % 1026,7 hPa 0,0 l/m 10,1 km/h (2 Bft) W 259 0 min 0,000 mm 0,0 UV-I 0 W/m -0,3 C -1,9 C 17,7 km/h (3 Bft) 97,73 %
27.11.2017 06:46 1,5 C 4,4 C 88 % 1026,7 hPa 0,0 l/m 8,3 km/h (2 Bft) SW 234 0 min 0,000 mm 0,0 UV-I 0 W/m -0,3 C -0,3 C 12,9 km/h (3 Bft) 97,73 %
27.11.2017 06:48 1,5 C 4,4 C 88 % 1026,7 hPa 0,0 l/m 9,6 km/h (2 Bft) SW 226 0 min 0,000 mm 0,0 UV-I 0 W/m -0,3 C -1,5 C 16,1 km/h (3 Bft) 98,21 %
27.11.2017 06:50 1,4 C 4,4 C 88 % 1026,7 hPa 0,0 l/m 12,6 km/h (3 Bft) S-SW 208 0 min 0,000 mm 0,0 UV-I 0 W/m -0,4 C -3,8 C 19,3 km/h (3 Bft) 97,44 %
27.11.2017 06:52 1,4 C 4,4 C 88 % 1026,7 hPa 0,0 l/m 10,1 km/h (2 Bft) SW 225 0 min 0,000 mm 0,0 UV-I 0 W/m -0,4 C -2,0 C 17,7 km/h (3 Bft) 98,18 %
27.11.2017 06:54 1,4 C 4,4 C 88 % 1026,7 hPa 0,0 l/m 9,4 km/h (2 Bft) S-SW 209 0 min 0,000 mm 0,0 UV-I 0 W/m -0,4 C -1,4 C 16,1 km/h (3 Bft) 97,62 %
27.11.2017 06:56 1,4 C 4,4 C 88 % 1026,7 hPa 0,0 l/m 13,1 km/h (3 Bft) S-SW 213 0 min 0,000 mm 0,0 UV-I 0 W/m -0,4 C -4,1 C 20,9 km/h (4 Bft) 97,73 %
27.11.2017 06:58 1,4 C 4,4 C 88 % 1026,7 hPa 0,0 l/m 10,7 km/h (2 Bft) SW 232 0 min 0,000 mm 0,0 UV-I 0 W/m -0,4 C -2,4 C 17,7 km/h (3 Bft) 92,45 %
27.11.2017 07:00 1,4 C 4,4 C 89 % 1026,7 hPa 0,0 l/m 7,4 km/h (2 Bft) W-SW 242 0 min 0,000 mm 0,0 UV-I 0 W/m -0,2 C 0,4 C 12,9 km/h (3 Bft) 90,24 %
27.11.2017 07:02 1,4 C 4,4 C 89 % 1026,7 hPa 0,0 l/m 8,8 km/h (2 Bft) W-SW 242 0 min 0,000 mm 0,0 UV-I 0 W/m -0,2 C -0,9 C 14,5 km/h (3 Bft) 95,45 %
27.11.2017 07:04 1,4 C 4,4 C 89 % 1026,7 hPa 0,0 l/m 10,5 km/h (2 Bft) SW 226 0 min 0,000 mm 0,0 UV-I 0 W/m -0,2 C -2,3 C 14,5 km/h (3 Bft) 95,83 %
27.11.2017 07:06 1,4 C 4,4 C 89 % 1026,7 hPa 0,0 l/m 10,5 km/h (2 Bft) W-SW 238 0 min 0,000 mm 0,0 UV-I 0 W/m -0,2 C -2,3 C 16,1 km/h (3 Bft) 96,00 %
27.11.2017 07:08 1,3 C 4,4 C 89 % 1026,7 hPa 0,0 l/m 10,1 km/h (2 Bft) SW 236 0 min 0,000 mm 0,0 UV-I 0 W/m -0,3 C -2,1 C 16,1 km/h (3 Bft) 92,00 %
27.11.2017 07:10 1,3 C 4,4 C 89 % 1026,7 hPa 0,0 l/m 10,1 km/h (2 Bft) W-SW 245 0 min 0,000 mm 0,0 UV-I 0 W/m -0,3 C -2,1 C 16,1 km/h (3 Bft) 97,56 %
27.11.2017 07:12 1,3 C 4,4 C 89 % 1026,8 hPa 0,0 l/m 9,8 km/h (2 Bft) SW 229 0 min 0,000 mm 0,0 UV-I 0 W/m -0,3 C -1,9 C 16,1 km/h (3 Bft) 98,00 %
27.11.2017 07:14 1,3 C 4,4 C 89 % 1026,8 hPa 0,0 l/m 7,2 km/h (2 Bft) W-SW 252 0 min 0,000 mm 0,0 UV-I 0 W/m -0,3 C 0,5 C 12,9 km/h (3 Bft) 94,34 %
27.11.2017 07:16 1,3 C 4,4 C 89 % 1026,8 hPa 0,0 l/m 9,3 km/h (2 Bft) SW 233 0 min 0,000 mm 0,0 UV-I 0 W/m -0,3 C -1,4 C 12,9 km/h (3 Bft) 97,37 %
27.11.2017 07:18 1,3 C 4,4 C 89 % 1026,8 hPa 0,0 l/m 8,8 km/h (2 Bft) S-SW 211 0 min 0,000 mm 0,0 UV-I 0 W/m -0,3 C -1,0 C 12,9 km/h (3 Bft) 98,11 %
27.11.2017 07:20 1,3 C 4,4 C 89 % 1026,8 hPa 0,0 l/m 7,5 km/h (2 Bft) W-SW 246 0 min 0,000 mm 0,0 UV-I 0 W/m -0,3 C 0,2 C 11,3 km/h (2 Bft) 95,74 %
27.11.2017 07:22 1,3 C 4,4 C 89 % 1026,8 hPa 0,0 l/m 8,2 km/h (2 Bft) SW 229 0 min 0,000 mm 0,0 UV-I 3 W/m -0,3 C -0,5 C 11,3 km/h (2 Bft) 97,37 %
27.11.2017 07:24 1,4 C 4,4 C 89 % 1026,7 hPa 0,0 l/m 9,6 km/h (2 Bft) S-SW 209 0 min 0,000 mm 0,0 UV-I 5 W/m -0,2 C -1,6 C 14,5 km/h (3 Bft) 97,87 %
27.11.2017 07:26 1,4 C 4,4 C 89 % 1026,7 hPa 0,0 l/m 8,8 km/h (2 Bft) W-SW 244 0 min 0,000 mm 0,0 UV-I 5 W/m -0,2 C -0,9 C 12,9 km/h (3 Bft) 96,00 %
27.11.2017 07:28 1,4 C 4,4 C 89 % 1026,7 hPa 0,0 l/m 10,3 km/h (2 Bft) SW 236 0 min 0,000 mm 0,0 UV-I 5 W/m -0,2 C -2,1 C 14,5 km/h (3 Bft) 98,11 %
27.11.2017 07:30 1,4 C 4,4 C 89 % 1026,8 hPa 0,0 l/m 8,3 km/h (2 Bft) W-SW 244 0 min 0,000 mm 0,0 UV-I 5 W/m -0,2 C -0,5 C 12,9 km/h (3 Bft) 97,56 %
27.11.2017 07:32 1,4 C 4,4 C 89 % 1026,8 hPa 0,0 l/m 11,1 km/h (2 Bft) SW 225 0 min 0,000 mm 0,0 UV-I 5 W/m -0,2 C -2,7 C 17,7 km/h (3 Bft) 98,11 %
27.11.2017 07:34 1,4 C 4,4 C 89 % 1026,8 hPa 0,0 l/m 8,9 km/h (2 Bft) SW 232 0 min 0,000 mm 0,0 UV-I 5 W/m -0,2 C -1,0 C 14,5 km/h (3 Bft) 97,22 %
27.11.2017 07:36 1,4 C 4,4 C 89 % 1026,8 hPa 0,0 l/m 8,0 km/h (2 Bft) SW 218 0 min 0,000 mm 0,0 UV-I 5 W/m -0,2 C -0,2 C 12,9 km/h (3 Bft) 100,00 %
27.11.2017 07:38 1,4 C 4,4 C 89 % 1026,8 hPa 0,0 l/m 7,2 km/h (2 Bft) SW 223 0 min 0,000 mm 0,0 UV-I 5 W/m -0,2 C 0,6 C 11,3 km/h (2 Bft) 97,87 %
27.11.2017 07:40 1,4 C 4,4 C 89 % 1026,8 hPa 0,0 l/m 9,0 km/h (2 Bft) S-SW 193 0 min 0,000 mm 0,0 UV-I 5 W/m -0,2 C -1,1 C 14,5 km/h (3 Bft) 100,00 %
27.11.2017 07:42 1,5 C 4,4 C 88 % 1026,8 hPa 0,0 l/m 10,1 km/h (2 Bft) W-SW 248 0 min 0,000 mm 0,0 UV-I 5 W/m -0,3 C -1,9 C 17,7 km/h (3 Bft) 100,00 %
27.11.2017 07:44 1,5 C 4,4 C 88 % 1026,8 hPa 0,0 l/m 8,5 km/h (2 Bft) W-SW 252 0 min 0,000 mm 0,0 UV-I 5 W/m -0,3 C -0,5 C 12,9 km/h (3 Bft) 100,00 %
27.11.2017 07:46 1,5 C 4,4 C 88 % 1026,8 hPa 0,0 l/m 8,5 km/h (2 Bft) W 273 0 min 0,000 mm 0,0 UV-I 5 W/m -0,3 C -0,5 C 14,5 km/h (3 Bft) 97,37 %
27.11.2017 07:48 1,5 C 4,4 C 88 % 1026,9 hPa 0,0 l/m 9,9 km/h (2 Bft) W-SW 241 0 min 0,000 mm 0,0 UV-I 5 W/m -0,3 C -1,7 C 17,7 km/h (3 Bft) 100,00 %
27.11.2017 07:50 1,5 C 4,4 C 88 % 1026,8 hPa 0,0 l/m 9,9 km/h (2 Bft) SW 232 0 min 0,000 mm 0,0 UV-I 5 W/m -0,3 C -1,7 C 14,5 km/h (3 Bft) 100,00 %
27.11.2017 07:52 1,5 C 4,4 C 88 % 1026,9 hPa 0,0 l/m 8,8 km/h (2 Bft) W-SW 243 0 min 0,000 mm 0,0 UV-I 6 W/m -0,3 C -0,8 C 12,9 km/h (3 Bft) 100,00 %
27.11.2017 07:54 1,5 C 4,4 C 88 % 1026,9 hPa 0,0 l/m 11,3 km/h (2 Bft) W-SW 258 0 min 0,000 mm 0,0 UV-I 7 W/m -0,3 C -2,8 C 14,5 km/h (3 Bft) 100,00 %
27.11.2017 07:56 1,5 C 4,4 C 89 % 1026,8 hPa 0,0 l/m 11,2 km/h (2 Bft) W 265 0 min 0,000 mm 0,0 UV-I 7 W/m -0,1 C -2,7 C 16,1 km/h (3 Bft) 100,00 %
27.11.2017 07:58 1,5 C 4,4 C 88 % 1026,9 hPa 0,0 l/m 11,1 km/h (2 Bft) S-SW 200 0 min 0,000 mm 0,0 UV-I 9 W/m -0,3 C -2,6 C 14,5 km/h (3 Bft) 100,00 %
27.11.2017 08:00 1,5 C 4,4 C 88 % 1026,9 hPa 0,0 l/m 9,3 km/h (2 Bft) W 263 0 min 0,000 mm 0,0 UV-I 10 W/m -0,3 C -1,2 C 14,5 km/h (3 Bft) 98,00 %
27.11.2017 08:02 1,5 C 4,4 C 88 % 1026,9 hPa 0,0 l/m 9,4 km/h (2 Bft) W-SW 250 0 min 0,000 mm 0,0 UV-I 11 W/m -0,3 C -1,3 C 12,9 km/h (3 Bft) 100,00 %
27.11.2017 08:04 1,5 C 4,4 C 88 % 1027,0 hPa 0,0 l/m 10,9 km/h (2 Bft) W-SW 244 0 min 0,000 mm 0,0 UV-I 11 W/m -0,3 C -2,5 C 14,5 km/h (3 Bft) 100,00 %
27.11.2017 08:06 1,5 C 4,4 C 88 % 1026,9 hPa 0,0 l/m 10,0 km/h (2 Bft) SW 225 0 min 0,000 mm 0,0 UV-I 12 W/m -0,3 C -1,8 C 14,5 km/h (3 Bft) 97,87 %
27.11.2017 08:08 1,6 C 4,4 C 88 % 1026,9 hPa 0,0 l/m 12,9 km/h (3 Bft) W-SW 254 0 min 0,000 mm 0,0 UV-I 16 W/m -0,2 C -3,8 C 20,9 km/h (4 Bft) 98,00 %
27.11.2017 08:10 1,6 C 4,4 C 88 % 1026,9 hPa 0,0 l/m 13,2 km/h (3 Bft) SW 227 0 min 0,000 mm 0,0 UV-I 19 W/m -0,2 C -4,0 C 20,9 km/h (4 Bft) 100,00 %
27.11.2017 08:12 1,6 C 4,4 C 88 % 1027,0 hPa 0,0 l/m 12,3 km/h (3 Bft) W-SW 243 0 min 0,000 mm 0,0 UV-I 24 W/m -0,2 C -3,4 C 20,9 km/h (4 Bft) 98,00 %
27.11.2017 08:14 1,6 C 4,4 C 88 % 1027,0 hPa 0,0 l/m 13,1 km/h (3 Bft) SW 232 0 min 0,000 mm 0,0 UV-I 25 W/m -0,2 C -3,9 C 19,3 km/h (3 Bft) 100,00 %
27.11.2017 08:16 1,6 C 4,4 C 88 % 1027,0 hPa 0,0 l/m 14,5 km/h (3 Bft) S-SW 211 0 min 0,000 mm 0,0 UV-I 25 W/m -0,2 C -4,8 C 19,3 km/h (3 Bft) 100,00 %
27.11.2017 08:18 1,6 C 4,4 C 88 % 1027,0 hPa 0,0 l/m 10,5 km/h (2 Bft) SW 232 0 min 0,000 mm 0,0 UV-I 28 W/m -0,2 C -2,1 C 14,5 km/h (3 Bft) 97,87 %
27.11.2017 08:20 1,6 C 4,4 C 88 % 1027,0 hPa 0,0 l/m 11,0 km/h (2 Bft) W-SW 240 0 min 0,000 mm 0,0 UV-I 30 W/m -0,2 C -2,4 C 16,1 km/h (3 Bft) 98,00 %
27.11.2017 08:22 1,6 C 4,4 C 88 % 1027,0 hPa 0,0 l/m 12,4 km/h (3 Bft) SW 215 0 min 0,000 mm 0,0 UV-I 30 W/m -0,2 C -3,4 C 19,3 km/h (3 Bft) 97,87 %
27.11.2017 08:24 1,6 C 4,4 C 88 % 1027,0 hPa 0,0 l/m 12,5 km/h (3 Bft) SW 225 0 min 0,000 mm 0,0 UV-I 32 W/m -0,2 C -3,5 C 19,3 km/h (3 Bft) 100,00 %
27.11.2017 08:26 1,6 C 4,4 C 88 % 1027,0 hPa 0,0 l/m 12,9 km/h (3 Bft) S-SW 196 0 min 0,000 mm 0,0 UV-I 35 W/m -0,2 C -3,8 C 19,3 km/h (3 Bft) 100,00 %
27.11.2017 08:28 1,6 C 4,4 C 88 % 1027,0 hPa 0,0 l/m 14,0 km/h (3 Bft) SW 236 0 min 0,000 mm 0,0 UV-I 37 W/m -0,2 C -4,5 C 22,5 km/h (4 Bft) 97,56 %
27.11.2017 08:30 1,7 C 4,4 C 88 % 1027,0 hPa 0,0 l/m 12,8 km/h (3 Bft) W-SW 240 0 min 0,000 mm 0,0 UV-I 39 W/m -0,1 C -3,6 C 17,7 km/h (3 Bft) 100,00 %
27.11.2017 08:32 1,7 C 4,4 C 88 % 1027,0 hPa 0,0 l/m 11,4 km/h (2 Bft) W-SW 238 0 min 0,000 mm 0,0 UV-I 46 W/m -0,1 C -2,6 C 16,1 km/h (3 Bft) 97,37 %
27.11.2017 08:34 1,7 C 4,4 C 88 % 1027,0 hPa 0,0 l/m 9,8 km/h (2 Bft) SW 215 0 min 0,000 mm 0,0 UV-I 51 W/m -0,1 C -1,4 C 12,9 km/h (3 Bft) 100,00 %
27.11.2017 08:36 1,7 C 4,4 C 88 % 1026,9 hPa 0,0 l/m 13,6 km/h (3 Bft) SW 236 0 min 0,000 mm 0,0 UV-I 56 W/m -0,1 C -4,1 C 17,7 km/h (3 Bft) 100,00 %
27.11.2017 08:38 1,7 C 4,4 C 88 % 1026,9 hPa 0,0 l/m 8,3 km/h (2 Bft) W-SW 238 0 min 0,000 mm 0,0 UV-I 56 W/m -0,1 C -0,1 C 12,9 km/h (3 Bft) 100,00 %
27.11.2017 08:40 1,7 C 4,4 C 88 % 1026,9 hPa 0,0 l/m 12,5 km/h (3 Bft) S-SW 210 0 min 0,000 mm 0,0 UV-I 55 W/m -0,1 C -3,4 C 17,7 km/h (3 Bft) 100,00 %
27.11.2017 08:42 1,7 C 4,4 C 88 % 1026,9 hPa 0,0 l/m 11,8 km/h (2 Bft) SW 236 0 min 0,000 mm 0,0 UV-I 56 W/m -0,1 C -2,9 C 16,1 km/h (3 Bft) 100,00 %
27.11.2017 08:44 1,7 C 4,4 C 88 % 1026,9 hPa 0,0 l/m 10,8 km/h (2 Bft) SW 229 0 min 0,000 mm 0,0 UV-I 59 W/m -0,1 C -2,2 C 16,1 km/h (3 Bft) 100,00 %
27.11.2017 08:46 1,7 C 4,4 C 88 % 1026,9 hPa 0,0 l/m 11,9 km/h (2 Bft) SW 215 0 min 0,000 mm 0,0 UV-I 60 W/m -0,1 C -3,0 C 19,3 km/h (3 Bft) 100,00 %
27.11.2017 08:48 1,7 C 4,4 C 88 % 1026,8 hPa 0,0 l/m 11,3 km/h (2 Bft) SW 221 0 min 0,000 mm 0,0 UV-I 60 W/m -0,1 C -2,6 C 17,7 km/h (3 Bft) 100,00 %
27.11.2017 08:50 1,7 C 4,4 C 88 % 1026,8 hPa 0,0 l/m 9,9 km/h (2 Bft) W-SW 242 0 min 0,000 mm 0,0 UV-I 60 W/m -0,1 C -1,5 C 14,5 km/h (3 Bft) 100,00 %
27.11.2017 08:52 1,7 C 4,4 C 88 % 1026,8 hPa 0,0 l/m 11,3 km/h (2 Bft) SW 234 0 min 0,000 mm 0,0 UV-I 61 W/m -0,1 C -2,6 C 19,3 km/h (3 Bft) 98,18 %
27.11.2017 08:54 1,8 C 4,4 C 88 % 1026,8 hPa 0,0 l/m 10,9 km/h (2 Bft) SW 225 0 min 0,000 mm 0,0 UV-I 64 W/m 0,0 C -2,1 C 16,1 km/h (3 Bft) 97,44 %
27.11.2017 08:56 1,8 C 4,4 C 88 % 1026,8 hPa 0,0 l/m 11,8 km/h (2 Bft) SW 223 0 min 0,000 mm 0,0 UV-I 67 W/m 0,0 C -2,8 C 19,3 km/h (3 Bft) 100,00 %
27.11.2017 08:58 1,8 C 4,4 C 88 % 1026,8 hPa 0,0 l/m 10,3 km/h (2 Bft) SW 230 0 min 0,000 mm 0,0 UV-I 65 W/m 0,0 C -1,7 C 16,1 km/h (3 Bft) 100,00 %
27.11.2017 09:00 1,8 C 4,4 C 88 % 1026,8 hPa 0,0 l/m 12,2 km/h (2 Bft) SW 217 0 min 0,026 mm 0,0 UV-I 63 W/m 0,0 C -3,1 C 19,3 km/h (3 Bft) 100,00 %
27.11.2017 09:02 1,8 C 4,4 C 88 % 1026,8 hPa 0,0 l/m 11,0 km/h (2 Bft) SW 217 0 min 0,000 mm 0,0 UV-I 63 W/m 0,0 C -2,2 C 17,7 km/h (3 Bft) 100,00 %
27.11.2017 09:04 1,8 C 4,4 C 87 % 1026,8 hPa 0,0 l/m 12,0 km/h (2 Bft) W-SW 237 0 min 0,000 mm 0,0 UV-I 68 W/m -0,1 C -2,9 C 17,7 km/h (3 Bft) 100,00 %
27.11.2017 09:06 1,8 C 4,4 C 87 % 1026,8 hPa 0,0 l/m 10,8 km/h (2 Bft) SW 218 0 min 0,000 mm 0,0 UV-I 71 W/m -0,1 C -2,1 C 16,1 km/h (3 Bft) 97,73 %
27.11.2017 09:08 1,9 C 4,4 C 87 % 1026,8 hPa 0,0 l/m 10,1 km/h (2 Bft) SW 233 0 min 0,000 mm 0,0 UV-I 76 W/m -0,0 C -1,4 C 16,1 km/h (3 Bft) 97,56 %
27.11.2017 09:10 1,9 C 4,4 C 87 % 1026,8 hPa 0,0 l/m 10,2 km/h (2 Bft) S-SW 208 0 min 0,000 mm 0,0 UV-I 82 W/m -0,0 C -1,5 C 16,1 km/h (3 Bft) 96,23 %
27.11.2017 09:12 1,9 C 4,4 C 87 % 1026,9 hPa 0,0 l/m 12,1 km/h (2 Bft) W-SW 240 0 min 0,000 mm 0,0 UV-I 85 W/m -0,0 C -2,9 C 16,1 km/h (3 Bft) 97,73 %
27.11.2017 09:14 1,9 C 4,4 C 87 % 1026,9 hPa 0,0 l/m 11,8 km/h (2 Bft) S-SW 211 0 min 0,000 mm 0,0 UV-I 85 W/m -0,0 C -2,7 C 19,3 km/h (3 Bft) 96,00 %
27.11.2017 09:16 1,9 C 4,4 C 87 % 1026,9 hPa 0,0 l/m 11,5 km/h (2 Bft) W-SW 242 0 min 0,000 mm 0,0 UV-I 81 W/m -0,0 C -2,5 C 16,1 km/h (3 Bft) 97,56 %
27.11.2017 09:18 2,0 C 4,4 C 87 % 1026,9 hPa 0,0 l/m 9,6 km/h (2 Bft) SW 226 0 min 0,000 mm 0,0 UV-I 82 W/m 0,1 C -0,9 C 14,5 km/h (3 Bft) 98,00 %
27.11.2017 09:20 2,1 C 4,4 C 87 % 1026,9 hPa 0,0 l/m 10,8 km/h (2 Bft) W-SW 238 0 min 0,000 mm 0,0 UV-I 85 W/m 0,2 C -1,7 C 16,1 km/h (3 Bft) 98,00 %
27.11.2017 09:22 2,0 C 4,4 C 87 % 1026,9 hPa 0,0 l/m 10,5 km/h (2 Bft) W-SW 239 0 min 0,000 mm 0,0 UV-I 94 W/m 0,1 C -1,6 C 17,7 km/h (3 Bft) 97,56 %
27.11.2017 09:24 2,1 C 4,4 C 87 % 1026,9 hPa 0,0 l/m 9,5 km/h (2 Bft) W-SW 250 0 min 0,000 mm 0,0 UV-I 100 W/m 0,2 C -0,7 C 14,5 km/h (3 Bft) 98,11 %
27.11.2017 09:26 2,1 C 4,4 C 87 % 1026,9 hPa 0,0 l/m 9,9 km/h (2 Bft) W-SW 247 0 min 0,000 mm 0,0 UV-I 105 W/m 0,2 C -1,1 C 14,5 km/h (3 Bft) 97,37 %
27.11.2017 09:28 2,1 C 4,4 C 87 % 1026,9 hPa 0,0 l/m 8,7 km/h (2 Bft) W-SW 256 0 min 0,000 mm 0,0 UV-I 113 W/m 0,2 C -0,1 C 14,5 km/h (3 Bft) 96,43 %
27.11.2017 09:30 2,2 C 4,4 C 87 % 1026,9 hPa 0,0 l/m 16,1 km/h (3 Bft) SW 234 0 min 0,000 mm 0,0 UV-I 131 W/m 0,3 C -4,9 C 24,1 km/h (4 Bft) 97,56 %
27.11.2017 09:32 2,2 C 4,4 C 87 % 1026,9 hPa 0,0 l/m 12,7 km/h (3 Bft) SW 229 2 min 0,000 mm 0,0 UV-I 142 W/m 0,3 C -2,9 C 19,3 km/h (3 Bft) 98,00 %
27.11.2017 09:34 2,2 C 4,4 C 87 % 1026,8 hPa 0,0 l/m 11,5 km/h (2 Bft) SW 214 2 min 0,000 mm 0,0 UV-I 146 W/m 0,3 C -2,1 C 14,5 km/h (3 Bft) 97,78 %
27.11.2017 09:36 2,3 C 4,4 C 87 % 1026,8 hPa 0,0 l/m 11,6 km/h (2 Bft) W-SW 240 2 min 0,000 mm 0,0 UV-I 145 W/m 0,4 C -2,1 C 16,1 km/h (3 Bft) 98,11 %
27.11.2017 09:38 2,3 C 4,4 C 87 % 1026,8 hPa 0,2 l/m 11,9 km/h (2 Bft) W-SW 242 0 min 0,000 mm 0,0 UV-I 139 W/m 0,4 C -2,3 C 19,3 km/h (3 Bft) 97,56 %
27.11.2017 09:40 2,3 C 4,4 C 87 % 1026,9 hPa 0,0 l/m 8,6 km/h (2 Bft) S-SW 205 0 min 0,000 mm 0,0 UV-I 135 W/m 0,4 C 0,2 C 14,5 km/h (3 Bft) 96,23 %
27.11.2017 09:42 2,3 C 4,4 C 87 % 1026,9 hPa 0,0 l/m 11,6 km/h (2 Bft) W-SW 254 0 min 0,000 mm 0,0 UV-I 136 W/m 0,4 C -2,1 C 19,3 km/h (3 Bft) 100,00 %
27.11.2017 09:44 2,4 C 4,4 C 86 % 1026,8 hPa 0,0 l/m 15,8 km/h (3 Bft) W-SW 254 0 min 0,000 mm 0,0 UV-I 135 W/m 0,3 C -4,5 C 22,5 km/h (4 Bft) 98,11 %
27.11.2017 09:46 2,4 C 4,4 C 86 % 1026,9 hPa 0,0 l/m 13,1 km/h (3 Bft) W 262 0 min 0,000 mm 0,0 UV-I 134 W/m 0,3 C -3,0 C 19,3 km/h (3 Bft) 100,00 %
27.11.2017 09:48 2,4 C 4,4 C 86 % 1026,8 hPa 0,0 l/m 13,9 km/h (3 Bft) SW 224 0 min 0,000 mm 0,0 UV-I 129 W/m 0,3 C -3,4 C 20,9 km/h (4 Bft) 100,00 %
27.11.2017 09:50 2,4 C 4,4 C 86 % 1026,8 hPa 0,0 l/m 11,5 km/h (2 Bft) SW 226 0 min 0,000 mm 0,0 UV-I 125 W/m 0,3 C -1,9 C 16,1 km/h (3 Bft) 97,56 %
27.11.2017 09:52 2,4 C 4,4 C 87 % 1026,8 hPa 0,0 l/m 12,1 km/h (2 Bft) W-SW 244 0 min 0,000 mm 0,0 UV-I 121 W/m 0,5 C -2,3 C 17,7 km/h (3 Bft) 98,46 %
27.11.2017 09:54 2,5 C 4,4 C 86 % 1026,8 hPa 0,0 l/m 10,5 km/h (2 Bft) W-SW 246 0 min 0,000 mm 0,0 UV-I 121 W/m 0,4 C -1,1 C 17,7 km/h (3 Bft) 100,00 %
27.11.2017 09:56 2,5 C 4,4 C 86 % 1026,8 hPa 0,0 l/m 14,7 km/h (3 Bft) SW 235 0 min 0,000 mm 0,0 UV-I 118 W/m 0,4 C -3,8 C 20,9 km/h (4 Bft) 98,11 %
27.11.2017 09:58 2,5 C 4,4 C 86 % 1026,8 hPa 0,0 l/m 15,1 km/h (3 Bft) W-SW 254 0 min 0,000 mm 0,0 UV-I 114 W/m 0,4 C -4,0 C 25,7 km/h (4 Bft) 97,14 %
27.11.2017 10:00 2,5 C 4,4 C 86 % 1026,8 hPa 0,0 l/m 12,4 km/h (3 Bft) W 267 0 min 0,000 mm 0,0 UV-I 113 W/m 0,4 C -2,4 C 17,7 km/h (3 Bft) 98,21 %
27.11.2017 10:02 2,6 C 4,4 C 86 % 1026,8 hPa 0,0 l/m 13,4 km/h (3 Bft) SW 233 0 min 0,051 mm 0,0 UV-I 111 W/m 0,5 C -2,9 C 17,7 km/h (3 Bft) 97,73 %
27.11.2017 10:04 2,5 C 4,4 C 85 % 1026,8 hPa 0,0 l/m 15,7 km/h (3 Bft) W-SW 240 0 min 0,000 mm 0,0 UV-I 106 W/m 0,2 C -4,3 C 20,9 km/h (4 Bft) 98,00 %
27.11.2017 10:06 2,5 C 4,4 C 86 % 1026,7 hPa 0,0 l/m 11,6 km/h (2 Bft) SW 232 0 min 0,000 mm 0,0 UV-I 104 W/m 0,4 C -1,9 C 16,1 km/h (3 Bft) 97,87 %
27.11.2017 10:08 2,6 C 4,4 C 85 % 1026,8 hPa 0,0 l/m 12,3 km/h (3 Bft) W-SW 240 0 min 0,000 mm 0,0 UV-I 105 W/m 0,3 C -2,2 C 16,1 km/h (3 Bft) 95,74 %
27.11.2017 10:10 2,6 C 4,4 C 85 % 1026,8 hPa 0,0 l/m 13,9 km/h (3 Bft) W-SW 245 0 min 0,000 mm 0,0 UV-I 105 W/m 0,3 C -3,2 C 19,3 km/h (3 Bft) 97,62 %
27.11.2017 10:12 2,6 C 4,4 C 85 % 1026,8 hPa 0,0 l/m 11,3 km/h (2 Bft) SW 227 0 min 0,000 mm 0,0 UV-I 103 W/m 0,3 C -1,5 C 17,7 km/h (3 Bft) 98,08 %
27.11.2017 10:14 2,6 C 4,4 C 85 % 1026,8 hPa 0,0 l/m 13,7 km/h (3 Bft) W-SW 238 0 min 0,000 mm 0,0 UV-I 100 W/m 0,3 C -3,1 C 24,1 km/h (4 Bft) 97,87 %
27.11.2017 10:16 2,6 C 4,4 C 85 % 1026,8 hPa 0,0 l/m 14,6 km/h (3 Bft) SW 224 0 min 0,000 mm 0,0 UV-I 103 W/m 0,3 C -3,6 C 20,9 km/h (4 Bft) 94,44 %
27.11.2017 10:18 2,6 C 4,4 C 85 % 1026,7 hPa 0,0 l/m 14,1 km/h (3 Bft) W 267 0 min 0,000 mm 0,0 UV-I 107 W/m 0,3 C -3,3 C 24,1 km/h (4 Bft) 98,21 %
27.11.2017 10:20 2,6 C 4,4 C 84 % 1026,7 hPa 0,0 l/m 13,6 km/h (3 Bft) W 274 0 min 0,000 mm 0,0 UV-I 109 W/m 0,2 C -3,0 C 22,5 km/h (4 Bft) 97,87 %
27.11.2017 10:22 2,6 C 4,4 C 85 % 1026,8 hPa 0,0 l/m 9,7 km/h (2 Bft) SW 228 0 min 0,000 mm 0,0 UV-I 107 W/m 0,3 C -0,3 C 16,1 km/h (3 Bft) 88,64 %
27.11.2017 10:24 2,6 C 4,4 C 85 % 1026,8 hPa 0,2 l/m 15,2 km/h (3 Bft) W-SW 257 0 min 0,000 mm 0,0 UV-I 107 W/m 0,3 C -3,9 C 20,9 km/h (4 Bft) 84,91 %
27.11.2017 10:26 2,6 C 4,4 C 84 % 1026,8 hPa 0,0 l/m 12,0 km/h (2 Bft) S-SW 204 0 min 0,000 mm 0,0 UV-I 104 W/m 0,2 C -2,0 C 19,3 km/h (3 Bft) 92,11 %
27.11.2017 10:28 2,6 C 4,4 C 84 % 1026,8 hPa 0,0 l/m 14,1 km/h (3 Bft) W-SW 238 0 min 0,000 mm 0,0 UV-I 106 W/m 0,2 C -3,3 C 20,9 km/h (4 Bft) 87,23 %
27.11.2017 10:30 2,6 C 4,4 C 84 % 1026,7 hPa 0,0 l/m 13,6 km/h (3 Bft) SW 234 0 min 0,000 mm 0,0 UV-I 111 W/m 0,2 C -3,0 C 19,3 km/h (3 Bft) 77,36 %
27.11.2017 10:32 2,6 C 4,4 C 84 % 1026,7 hPa 0,0 l/m 15,1 km/h (3 Bft) W-SW 252 0 min 0,000 mm 0,0 UV-I 114 W/m 0,2 C -3,9 C 24,1 km/h (4 Bft) 76,60 %
27.11.2017 10:34 2,6 C 4,4 C 84 % 1026,7 hPa 0,0 l/m 15,6 km/h (3 Bft) W 261 0 min 0,000 mm 0,0 UV-I 113 W/m 0,2 C -4,2 C 22,5 km/h (4 Bft) 93,62 %
27.11.2017 10:36 2,6 C 4,4 C 84 % 1026,7 hPa 0,0 l/m 15,8 km/h (3 Bft) W-SW 251 0 min 0,000 mm 0,0 UV-I 113 W/m 0,2 C -4,3 C 22,5 km/h (4 Bft) 76,00 %
27.11.2017 10:38 2,7 C 4,4 C 84 % 1026,7 hPa 0,0 l/m 13,4 km/h (3 Bft) SW 229 0 min 0,000 mm 0,0 UV-I 112 W/m 0,3 C -2,8 C 19,3 km/h (3 Bft) 87,80 %
27.11.2017 10:40 2,7 C 4,4 C 83 % 1026,6 hPa 0,0 l/m 14,6 km/h (3 Bft) W-SW 251 0 min 0,000 mm 0,0 UV-I 113 W/m 0,1 C -3,5 C 20,9 km/h (4 Bft) 79,25 %
27.11.2017 10:42 2,7 C 4,4 C 83 % 1026,6 hPa 0,0 l/m 11,7 km/h (2 Bft) SW 218 0 min 0,000 mm 0,0 UV-I 113 W/m 0,1 C -1,7 C 20,9 km/h (4 Bft) 84,21 %
27.11.2017 10:44 2,7 C 4,4 C 83 % 1026,6 hPa 0,0 l/m 11,1 km/h (2 Bft) SW 230 0 min 0,000 mm 0,0 UV-I 115 W/m 0,1 C -1,3 C 17,7 km/h (3 Bft) 71,70 %
27.11.2017 10:46 2,7 C 4,4 C 84 % 1026,6 hPa 0,0 l/m 10,7 km/h (2 Bft) SW 235 0 min 0,000 mm 0,0 UV-I 121 W/m 0,3 C -1,0 C 16,1 km/h (3 Bft) 82,00 %
27.11.2017 10:48 2,8 C 4,4 C 83 % 1026,6 hPa 0,0 l/m 9,7 km/h (2 Bft) SW 229 0 min 0,000 mm 0,0 UV-I 128 W/m 0,2 C -0,1 C 16,1 km/h (3 Bft) 88,89 %
27.11.2017 10:50 2,8 C 4,4 C 83 % 1026,5 hPa 0,0 l/m 12,6 km/h (3 Bft) SW 235 0 min 0,000 mm 0,0 UV-I 133 W/m 0,2 C -2,2 C 22,5 km/h (4 Bft) 96,88 %
27.11.2017 10:52 2,8 C 4,4 C 82 % 1026,4 hPa 0,0 l/m 15,6 km/h (3 Bft) W 271 0 min 0,000 mm 0,0 UV-I 136 W/m 0,0 C -3,9 C 20,9 km/h (4 Bft) 95,24 %
27.11.2017 10:56 2,8 C 4,4 C 82 % 1026,3 hPa 0,0 l/m 12,8 km/h (3 Bft) SW 227 0 min 0,000 mm 0,0 UV-I 145 W/m 0,0 C -2,3 C 19,3 km/h (3 Bft) 94,38 %
27.11.2017 10:58 2,9 C 4,4 C 82 % 1026,3 hPa 0,0 l/m 13,9 km/h (3 Bft) W-SW 257 0 min 0,000 mm 0,0 UV-I 153 W/m 0,1 C -2,8 C 22,5 km/h (4 Bft) 96,23 %
27.11.2017 11:00 2,9 C 4,4 C 82 % 1026,3 hPa 0,0 l/m 12,9 km/h (3 Bft) W 264 0 min 0,050 mm 0,0 UV-I 158 W/m 0,1 C -2,2 C 19,3 km/h (3 Bft) 98,00 %
27.11.2017 11:02 2,9 C 4,4 C 81 % 1026,3 hPa 0,0 l/m 15,0 km/h (3 Bft) W 277 0 min 0,000 mm 0,0 UV-I 157 W/m -0,0 C -3,5 C 24,1 km/h (4 Bft) 94,74 %
27.11.2017 11:04 3,0 C 4,4 C 82 % 1026,2 hPa 0,0 l/m 12,4 km/h (3 Bft) SW 235 0 min 0,000 mm 0,0 UV-I 155 W/m 0,2 C -1,8 C 20,9 km/h (4 Bft) 98,31 %
27.11.2017 11:06 3,0 C 4,4 C 82 % 1026,2 hPa 0,0 l/m 9,2 km/h (2 Bft) SW 227 0 min 0,000 mm 0,0 UV-I 158 W/m 0,2 C 0,5 C 14,5 km/h (3 Bft) 97,73 %
27.11.2017 11:08 3,1 C 4,4 C 82 % 1026,1 hPa 0,0 l/m 11,0 km/h (2 Bft) S-SW 202 0 min 0,000 mm 0,0 UV-I 166 W/m 0,3 C -0,8 C 17,7 km/h (3 Bft) 97,73 %
27.11.2017 11:10 3,1 C 4,4 C 82 % 1026,2 hPa 0,0 l/m 12,2 km/h (2 Bft) SW 225 0 min 0,000 mm 0,0 UV-I 178 W/m 0,3 C -1,6 C 17,7 km/h (3 Bft) 95,12 %
27.11.2017 11:12 3,2 C 4,4 C 81 % 1026,1 hPa 0,0 l/m 10,6 km/h (2 Bft) W-SW 240 0 min 0,000 mm 0,5 UV-I 184 W/m 0,3 C -0,4 C 14,5 km/h (3 Bft) 94,34 %
27.11.2017 11:14 3,2 C 4,4 C 81 % 1026,2 hPa 0,0 l/m 11,6 km/h (2 Bft) SW 234 0 min 0,000 mm 0,5 UV-I 184 W/m 0,3 C -1,1 C 17,7 km/h (3 Bft) 95,12 %
27.11.2017 11:16 3,2 C 4,4 C 81 % 1026,0 hPa 0,0 l/m 10,5 km/h (2 Bft) W-SW 255 0 min 0,000 mm 0,5 UV-I 179 W/m 0,3 C -0,3 C 16,1 km/h (3 Bft) 98,00 %
27.11.2017 11:18 3,2 C 4,4 C 81 % 1026,0 hPa 0,0 l/m 9,1 km/h (2 Bft) W 260 0 min 0,000 mm 0,5 UV-I 180 W/m 0,3 C 0,8 C 16,1 km/h (3 Bft) 96,00 %
27.11.2017 11:20 3,3 C 4,4 C 81 % 1026,0 hPa 0,0 l/m 9,2 km/h (2 Bft) W-SW 253 0 min 0,000 mm 0,5 UV-I 183 W/m 0,4 C 0,8 C 16,1 km/h (3 Bft) 95,45 %
27.11.2017 11:22 3,3 C 4,4 C 81 % 1026,0 hPa 0,0 l/m 14,2 km/h (3 Bft) W-SW 243 0 min 0,000 mm 0,5 UV-I 192 W/m 0,4 C -2,5 C 19,3 km/h (3 Bft) 95,24 %
27.11.2017 11:24 3,3 C 4,4 C 80 % 1026,0 hPa 0,0 l/m 8,8 km/h (2 Bft) SW 229 2 min 0,000 mm 0,6 UV-I 211 W/m 0,2 C 1,1 C 14,5 km/h (3 Bft) 96,23 %
27.11.2017 11:26 3,3 C 4,4 C 81 % 1025,9 hPa 0,0 l/m 9,5 km/h (2 Bft) SW 225 2 min 0,000 mm 0,6 UV-I 295 W/m 0,4 C 0,6 C 16,1 km/h (3 Bft) 94,23 %
27.11.2017 11:28 3,4 C 4,4 C 80 % 1025,9 hPa 0,0 l/m 12,9 km/h (3 Bft) W-SW 246 2 min 0,000 mm 0,6 UV-I 341 W/m 0,3 C -1,7 C 17,7 km/h (3 Bft) 94,87 %
27.11.2017 11:30 3,6 C 4,4 C 79 % 1025,9 hPa 0,0 l/m 12,8 km/h (3 Bft) W 269 2 min 0,000 mm 0,7 UV-I 346 W/m 0,3 C -1,4 C 22,5 km/h (4 Bft) 98,00 %
27.11.2017 11:32 3,8 C 4,4 C 79 % 1025,9 hPa 0,0 l/m 15,3 km/h (3 Bft) W-SW 258 2 min 0,000 mm 0,7 UV-I 411 W/m 0,5 C -2,5 C 20,9 km/h (4 Bft) 97,87 %
27.11.2017 11:34 3,8 C 4,4 C 78 % 1025,9 hPa 0,0 l/m 14,4 km/h (3 Bft) W 263 2 min 0,000 mm 0,7 UV-I 457 W/m 0,3 C -2,1 C 25,7 km/h (4 Bft) 97,56 %
27.11.2017 11:36 3,9 C 4,4 C 77 % 1025,8 hPa 0,0 l/m 10,4 km/h (2 Bft) W-SW 252 2 min 0,000 mm 0,7 UV-I 425 W/m 0,2 C 0,6 C 19,3 km/h (3 Bft) 98,21 %
27.11.2017 11:38 4,1 C 4,4 C 78 % 1025,7 hPa 0,0 l/m 8,9 km/h (2 Bft) SW 225 2 min 0,000 mm 0,7 UV-I 385 W/m 0,6 C 1,9 C 17,7 km/h (3 Bft) 95,65 %
27.11.2017 11:40 4,1 C 4,4 C 76 % 1025,7 hPa 0,0 l/m 16,5 km/h (3 Bft) SW 214 2 min 0,000 mm 0,7 UV-I 372 W/m 0,3 C -2,8 C 30,6 km/h (5 Bft) 96,97 %
27.11.2017 11:42 4,1 C 4,4 C 75 % 1025,6 hPa 0,0 l/m 13,2 km/h (3 Bft) S-SW 211 2 min 0,000 mm 0,7 UV-I 372 W/m 0,1 C -1,0 C 19,3 km/h (3 Bft) 100,00 %
27.11.2017 11:44 4,2 C 4,4 C 75 % 1025,7 hPa 0,0 l/m 14,7 km/h (3 Bft) W 264 2 min 0,000 mm 0,7 UV-I 371 W/m 0,2 C -1,7 C 20,9 km/h (4 Bft) 100,00 %
27.11.2017 11:46 4,2 C 4,4 C 75 % 1025,6 hPa 0,0 l/m 11,4 km/h (2 Bft) W-SW 243 2 min 0,000 mm 0,7 UV-I 372 W/m 0,2 C 0,2 C 16,1 km/h (3 Bft) 100,00 %
27.11.2017 11:48 4,3 C 4,4 C 74 % 1025,5 hPa 0,0 l/m 13,8 km/h (3 Bft) W 262 2 min 0,000 mm 0,7 UV-I 367 W/m 0,1 C -1,1 C 22,5 km/h (4 Bft) 100,00 %
27.11.2017 11:50 4,2 C 4,4 C 74 % 1025,5 hPa 0,0 l/m 16,0 km/h (3 Bft) W-SW 250 2 min 0,000 mm 0,7 UV-I 366 W/m -0,0 C -2,4 C 22,5 km/h (4 Bft) 100,00 %
27.11.2017 11:52 4,2 C 4,4 C 73 % 1025,5 hPa 0,0 l/m 17,2 km/h (3 Bft) W-SW 257 2 min 0,000 mm 0,7 UV-I 366 W/m -0,2 C -3,0 C 25,7 km/h (4 Bft) 100,00 %
27.11.2017 11:54 4,2 C 4,4 C 73 % 1025,5 hPa 0,0 l/m 19,1 km/h (3 Bft) SW 233 2 min 0,000 mm 0,7 UV-I 368 W/m -0,2 C -3,8 C 25,7 km/h (4 Bft) 100,00 %
27.11.2017 11:56 4,1 C 4,4 C 73 % 1025,5 hPa 0,0 l/m 17,5 km/h (3 Bft) W-SW 239 2 min 0,000 mm 0,7 UV-I 374 W/m -0,3 C -3,2 C 24,1 km/h (4 Bft) 97,73 %
27.11.2017 11:58 4,2 C 4,4 C 73 % 1025,5 hPa 0,0 l/m 16,8 km/h (3 Bft) W-NW 284 2 min 0,000 mm 0,7 UV-I 387 W/m -0,2 C -2,8 C 20,9 km/h (4 Bft) 100,00 %
27.11.2017 12:00 4,2 C 4,4 C 74 % 1025,4 hPa 0,0 l/m 16,8 km/h (3 Bft) W-SW 249 2 min 0,127 mm 0,7 UV-I 392 W/m -0,0 C -2,8 C 22,5 km/h (4 Bft) 100,00 %
27.11.2017 12:02 4,2 C 4,4 C 72 % 1025,4 hPa 0,0 l/m 13,4 km/h (3 Bft) W-SW 246 2 min 0,000 mm 0,7 UV-I 431 W/m -0,4 C -1,0 C 19,3 km/h (3 Bft) 100,00 %
27.11.2017 12:04 4,3 C 4,4 C 73 % 1025,3 hPa 0,0 l/m 9,6 km/h (2 Bft) W-SW 240 2 min 0,000 mm 0,6 UV-I 452 W/m -0,1 C 1,6 C 16,1 km/h (3 Bft) 98,00 %
27.11.2017 12:06 4,3 C 4,4 C 73 % 1025,3 hPa 0,0 l/m 14,5 km/h (3 Bft) W-SW 246 2 min 0,000 mm 0,5 UV-I 236 W/m -0,1 C -1,5 C 24,1 km/h (4 Bft) 100,00 %
27.11.2017 12:08 4,3 C 4,4 C 73 % 1025,3 hPa 0,0 l/m 16,6 km/h (3 Bft) W 263 2 min 0,000 mm 0,6 UV-I 198 W/m -0,1 C -2,6 C 22,5 km/h (4 Bft) 100,00 %
27.11.2017 12:10 4,3 C 4,4 C 73 % 1025,2 hPa 0,0 l/m 12,4 km/h (3 Bft) W 267 2 min 0,000 mm 0,5 UV-I 238 W/m -0,1 C -0,3 C 19,3 km/h (3 Bft) 100,00 %
27.11.2017 12:12 4,3 C 4,4 C 73 % 1025,2 hPa 0,0 l/m 11,1 km/h (2 Bft) W-SW 251 2 min 0,000 mm 0,5 UV-I 213 W/m -0,1 C 0,5 C 19,3 km/h (3 Bft) 100,00 %
27.11.2017 12:14 4,3 C 4,4 C 72 % 1025,1 hPa 0,0 l/m 16,5 km/h (3 Bft) W 269 2 min 0,000 mm 0,5 UV-I 202 W/m -0,3 C -2,5 C 25,7 km/h (4 Bft) 100,00 %
27.11.2017 12:16 4,3 C 4,4 C 72 % 1025,1 hPa 0,0 l/m 12,6 km/h (3 Bft) W-SW 257 0 min 0,000 mm 0,0 UV-I 163 W/m -0,3 C -0,4 C 19,3 km/h (3 Bft) 98,00 %
27.11.2017 12:18 4,3 C 4,4 C 73 % 1025,1 hPa 0,0 l/m 12,6 km/h (3 Bft) W 267 0 min 0,000 mm 0,0 UV-I 136 W/m -0,1 C -0,4 C 22,5 km/h (4 Bft) 100,00 %
27.11.2017 12:20 4,4 C 4,4 C 72 % 1025,1 hPa 0,0 l/m 11,2 km/h (2 Bft) W-SW 246 0 min 0,000 mm 0,4 UV-I 142 W/m -0,2 C 0,6 C 20,9 km/h (4 Bft) 100,00 %
27.11.2017 12:22 4,5 C 4,4 C 70 % 1025,0 hPa 0,0 l/m 8,8 km/h (2 Bft) W 272 0 min 0,000 mm 0,0 UV-I 168 W/m -0,5 C 2,4 C 16,1 km/h (3 Bft) 95,59 %
27.11.2017 12:24 4,5 C 4,4 C 69 % 1024,9 hPa 0,0 l/m 11,9 km/h (2 Bft) W 262 0 min 0,000 mm 0,0 UV-I 172 W/m -0,7 C 0,2 C 17,7 km/h (3 Bft) 100,00 %
27.11.2017 12:26 4,4 C 4,4 C 70 % 1024,9 hPa 0,0 l/m 10,2 km/h (2 Bft) W 259 0 min 0,000 mm 0,0 UV-I 150 W/m -0,6 C 1,3 C 14,5 km/h (3 Bft) 96,23 %
27.11.2017 12:28 4,4 C 4,4 C 71 % 1024,9 hPa 0,0 l/m 6,4 km/h (2 Bft) NW 305 0 min 0,000 mm 0,0 UV-I 189 W/m -0,4 C 4,4 C 11,3 km/h (2 Bft) 100,00 %
27.11.2017 12:30 4,4 C 4,4 C 72 % 1024,9 hPa 0,0 l/m 7,3 km/h (2 Bft) W-SW 248 2 min 0,000 mm 0,0 UV-I 200 W/m -0,2 C 3,6 C 9,7 km/h (2 Bft) 100,00 %
27.11.2017 12:32 4,6 C 4,4 C 73 % 1024,8 hPa 0,0 l/m 11,9 km/h (2 Bft) W-SW 258 2 min 0,000 mm 0,0 UV-I 209 W/m 0,2 C 0,4 C 17,7 km/h (3 Bft) 100,00 %
27.11.2017 12:34 4,6 C 4,4 C 71 % 1024,8 hPa 0,0 l/m 11,0 km/h (2 Bft) W 265 2 min 0,000 mm 0,0 UV-I 202 W/m -0,2 C 0,9 C 19,3 km/h (3 Bft) 98,00 %
27.11.2017 12:36 4,6 C 4,4 C 71 % 1024,8 hPa 0,0 l/m 9,7 km/h (2 Bft) W 280 2 min 0,000 mm 0,0 UV-I 200 W/m -0,2 C 1,8 C 19,3 km/h (3 Bft) 97,37 %
27.11.2017 12:38 4,7 C 4,4 C 72 % 1024,8 hPa 0,0 l/m 11,2 km/h (2 Bft) W-SW 255 2 min 0,000 mm 0,0 UV-I 206 W/m 0,1 C 0,9 C 19,3 km/h (3 Bft) 98,00 %
27.11.2017 12:40 4,7 C 4,4 C 70 % 1024,7 hPa 0,0 l/m 17,1 km/h (3 Bft) W 259 2 min 0,000 mm 0,5 UV-I 220 W/m -0,3 C -2,3 C 20,9 km/h (4 Bft) 96,23 %
27.11.2017 12:42 4,9 C 4,4 C 70 % 1024,7 hPa 0,0 l/m 11,8 km/h (2 Bft) SW 223 2 min 0,000 mm 0,5 UV-I 354 W/m -0,1 C 0,8 C 16,1 km/h (3 Bft) 97,73 %
27.11.2017 12:44 5,0 C 4,4 C 69 % 1024,7 hPa 0,0 l/m 11,0 km/h (2 Bft) W 261 2 min 0,000 mm 0,0 UV-I 364 W/m -0,2 C 1,4 C 19,3 km/h (3 Bft) 97,22 %
27.11.2017 12:46 5,2 C 4,4 C 70 % 1024,6 hPa 0,0 l/m 10,4 km/h (2 Bft) W-SW 254 2 min 0,000 mm 0,0 UV-I 433 W/m 0,2 C 2,0 C 16,1 km/h (3 Bft) 98,00 %
27.11.2017 12:48 5,3 C 4,4 C 69 % 1024,6 hPa 0,0 l/m 9,5 km/h (2 Bft) W 281 2 min 0,000 mm 0,0 UV-I 425 W/m 0,1 C 2,8 C 14,5 km/h (3 Bft) 97,87 %
27.11.2017 12:50 5,5 C 4,4 C 69 % 1024,5 hPa 0,0 l/m 11,1 km/h (2 Bft) W 261 2 min 0,000 mm 0,0 UV-I 425 W/m 0,3 C 1,9 C 20,9 km/h (4 Bft) 98,11 %
27.11.2017 12:52 5,5 C 4,4 C 66 % 1024,5 hPa 0,0 l/m 15,7 km/h (3 Bft) W-SW 253 2 min 0,000 mm 0,0 UV-I 423 W/m -0,3 C -0,7 C 27,4 km/h (4 Bft) 97,56 %
27.11.2017 12:54 5,4 C 4,4 C 66 % 1024,5 hPa 0,0 l/m 14,5 km/h (3 Bft) W-SW 254 2 min 0,000 mm 0,0 UV-I 308 W/m -0,4 C -0,2 C 20,9 km/h (4 Bft) 95,12 %
27.11.2017 12:56 5,3 C 4,4 C 68 % 1024,5 hPa 0,0 l/m 13,8 km/h (3 Bft) W-NW 286 2 min 0,000 mm 0,0 UV-I 286 W/m -0,1 C 0,1 C 24,1 km/h (4 Bft) 94,64 %
27.11.2017 12:58 5,2 C 4,4 C 66 % 1024,5 hPa 0,0 l/m 22,7 km/h (4 Bft) W 259 2 min 0,000 mm 0,0 UV-I 372 W/m -0,6 C -3,9 C 29,0 km/h (5 Bft) 96,00 %
27.11.2017 13:00 5,2 C 4,4 C 66 % 1024,3 hPa 0,0 l/m 11,6 km/h (2 Bft) W 273 2 min 0,153 mm 0,0 UV-I 369 W/m -0,6 C 1,2 C 24,1 km/h (4 Bft) 98,00 %
27.11.2017 13:02 5,3 C 4,4 C 67 % 1024,3 hPa 0,0 l/m 12,6 km/h (3 Bft) W 281 2 min 0,000 mm 0,0 UV-I 365 W/m -0,3 C 0,7 C 27,4 km/h (4 Bft) 97,14 %
27.11.2017 13:04 5,3 C 4,4 C 65 % 1024,3 hPa 0,0 l/m 16,7 km/h (3 Bft) W-SW 255 2 min 0,000 mm 0,0 UV-I 359 W/m -0,7 C -1,4 C 27,4 km/h (4 Bft) 98,31 %
27.11.2017 13:06 5,3 C 4,4 C 66 % 1024,3 hPa 0,0 l/m 15,0 km/h (3 Bft) W-SW 246 2 min 0,000 mm 0,0 UV-I 357 W/m -0,5 C -0,6 C 20,9 km/h (4 Bft) 92,11 %
27.11.2017 13:08 5,2 C 4,4 C 66 % 1024,3 hPa 0,0 l/m 18,4 km/h (3 Bft) W-SW 254 0 min 0,000 mm 0,0 UV-I 167 W/m -0,6 C -2,3 C 27,4 km/h (4 Bft) 98,00 %
27.11.2017 13:10 5,1 C 4,4 C 66 % 1024,5 hPa 0,0 l/m 21,5 km/h (4 Bft) W-SW 242 2 min 0,000 mm 0,0 UV-I 207 W/m -0,7 C -3,6 C 33,8 km/h (5 Bft) 96,00 %
27.11.2017 13:13 5,1 C 4,4 C 66 % 1024,2 hPa 0,0 l/m 21,4 km/h (4 Bft) W-SW 240 3 min 0,000 mm 0,1 UV-I 391 W/m -0,7 C -3,6 C 32,2 km/h (5 Bft) 100,00 %
27.11.2017 13:14 5,1 C 4,4 C 66 % 1024,2 hPa 0,0 l/m 17,5 km/h (3 Bft) W-SW 258 1 min 0,000 mm 0,5 UV-I 422 W/m -0,7 C -2,0 C 22,5 km/h (4 Bft) 100,00 %
27.11.2017 13:16 5,2 C 4,4 C 66 % 1024,2 hPa 0,0 l/m 23,8 km/h (4 Bft) SW 224 2 min 0,000 mm 0,5 UV-I 420 W/m -0,6 C -4,3 C 35,4 km/h (5 Bft) 100,00 %
27.11.2017 13:18 5,2 C 4,4 C 65 % 1024,1 hPa 0,0 l/m 20,6 km/h (4 Bft) W-SW 253 2 min 0,000 mm 0,5 UV-I 398 W/m -0,8 C -3,1 C 29,0 km/h (5 Bft) 100,00 %
27.11.2017 13:20 5,2 C 4,4 C 65 % 1024,2 hPa 0,0 l/m 20,9 km/h (4 Bft) SW 233 2 min 0,000 mm 0,3 UV-I 378 W/m -0,8 C -3,3 C 27,4 km/h (4 Bft) 100,00 %
27.11.2017 13:22 5,2 C 4,4 C 65 % 1024,1 hPa 0,0 l/m 19,5 km/h (3 Bft) W-SW 249 2 min 0,000 mm 0,5 UV-I 333 W/m -0,8 C -2,7 C 27,4 km/h (4 Bft) 97,62 %
27.11.2017 13:24 5,1 C 4,4 C 64 % 1024,0 hPa 0,0 l/m 19,2 km/h (3 Bft) W-SW 246 2 min 0,000 mm 0,5 UV-I 349 W/m -1,1 C -2,7 C 30,6 km/h (5 Bft) 100,00 %
27.11.2017 13:26 5,1 C 4,4 C 64 % 1024,0 hPa 0,0 l/m 21,3 km/h (4 Bft) SW 235 2 min 0,000 mm 0,4 UV-I 382 W/m -1,1 C -3,5 C 35,4 km/h (5 Bft) 100,00 %
27.11.2017 13:28 5,1 C 4,4 C 66 % 1024,0 hPa 0,0 l/m 21,5 km/h (4 Bft) SW 230 2 min 0,000 mm 0,0 UV-I 392 W/m -0,7 C -3,6 C 27,4 km/h (4 Bft) 100,00 %
27.11.2017 13:30 5,2 C 4,4 C 68 % 1024,0 hPa 0,0 l/m 16,6 km/h (3 Bft) W-NW 294 2 min 0,000 mm 0,0 UV-I 386 W/m -0,2 C -1,5 C 25,7 km/h (4 Bft) 100,00 %
27.11.2017 13:32 5,3 C 4,4 C 68 % 1024,0 hPa 0,0 l/m 17,3 km/h (3 Bft) W-SW 246 2 min 0,000 mm 0,0 UV-I 383 W/m -0,1 C -1,7 C 27,4 km/h (4 Bft) 100,00 %
27.11.2017 13:34 5,3 C 4,4 C 66 % 1023,9 hPa 0,0 l/m 23,6 km/h (4 Bft) W 267 2 min 0,000 mm 0,0 UV-I 342 W/m -0,5 C -4,1 C 33,8 km/h (5 Bft) 97,87 %
27.11.2017 13:36 5,1 C 4,4 C 66 % 1023,9 hPa 0,0 l/m 20,3 km/h (4 Bft) S-SW 209 2 min 0,000 mm 0,0 UV-I 302 W/m -0,7 C -3,2 C 29,0 km/h (5 Bft) 100,00 %
27.11.2017 13:38 4,9 C 4,4 C 67 % 1023,9 hPa 0,0 l/m 19,6 km/h (3 Bft) SW 218 2 min 0,000 mm 0,2 UV-I 289 W/m -0,7 C -3,1 C 29,0 km/h (5 Bft) 100,00 %
27.11.2017 13:40 4,9 C 4,4 C 67 % 1023,9 hPa 0,0 l/m 19,3 km/h (3 Bft) S-SW 200 2 min 0,000 mm 0,0 UV-I 288 W/m -0,7 C -3,0 C 29,0 km/h (5 Bft) 100,00 %
27.11.2017 13:43 4,8 C 4,4 C 66 % 1023,8 hPa 0,0 l/m 20,0 km/h (4 Bft) SW 214 3 min 0,000 mm 0,0 UV-I 294 W/m -1,0 C -3,4 C 33,8 km/h (5 Bft) 100,00 %
27.11.2017 13:44 4,8 C 4,4 C 67 % 1023,8 hPa 0,0 l/m 20,0 km/h (4 Bft) SW 232 1 min 0,000 mm 0,0 UV-I 294 W/m -0,8 C -3,4 C 29,0 km/h (5 Bft) 100,00 %
27.11.2017 13:46 4,8 C 4,4 C 68 % 1023,9 hPa 0,0 l/m 19,2 km/h (3 Bft) SW 221 2 min 0,000 mm 0,0 UV-I 301 W/m -0,6 C -3,1 C 30,6 km/h (5 Bft) 100,00 %
27.11.2017 13:48 4,8 C 4,4 C 68 % 1023,8 hPa 0,0 l/m 18,3 km/h (3 Bft) W-SW 246 2 min 0,000 mm 0,0 UV-I 317 W/m -0,6 C -2,7 C 27,4 km/h (4 Bft) 100,00 %
27.11.2017 13:50 4,9 C 4,4 C 68 % 1023,8 hPa 0,0 l/m 15,2 km/h (3 Bft) W-SW 244 2 min 0,000 mm 0,0 UV-I 315 W/m -0,5 C -1,1 C 20,9 km/h (4 Bft) 98,00 %
27.11.2017 13:52 4,9 C 4,4 C 68 % 1023,7 hPa 0,0 l/m 18,3 km/h (3 Bft) SW 226 2 min 0,000 mm 0,0 UV-I 310 W/m -0,5 C -2,6 C 29,0 km/h (5 Bft) 100,00 %
27.11.2017 13:54 5,0 C 4,4 C 68 % 1023,7 hPa 0,0 l/m 17,3 km/h (3 Bft) W-SW 254 2 min 0,000 mm 0,0 UV-I 307 W/m -0,4 C -2,0 C 24,1 km/h (4 Bft) 100,00 %
27.11.2017 13:56 5,1 C 4,4 C 68 % 1023,7 hPa 0,0 l/m 17,3 km/h (3 Bft) S-SW 201 2 min 0,000 mm 0,0 UV-I 285 W/m -0,3 C -1,9 C 25,7 km/h (4 Bft) 100,00 %
27.11.2017 13:58 5,0 C 4,4 C 66 % 1023,7 hPa 0,0 l/m 16,1 km/h (3 Bft) W-SW 241 2 min 0,000 mm 0,0 UV-I 251 W/m -0,8 C -1,5 C 22,5 km/h (4 Bft) 100,00 %
27.11.2017 14:00 4,9 C 4,4 C 67 % 1023,6 hPa 0,0 l/m 18,4 km/h (3 Bft) W-SW 255 2 min 0,178 mm 0,0 UV-I 238 W/m -0,7 C -2,6 C 25,7 km/h (4 Bft) 100,00 %
27.11.2017 14:02 4,9 C 4,4 C 66 % 1023,7 hPa 0,0 l/m 20,5 km/h (4 Bft) S-SW 210 2 min 0,000 mm 0,0 UV-I 257 W/m -0,9 C -3,5 C 30,6 km/h (5 Bft) 98,00 %
27.11.2017 14:04 4,9 C 4,4 C 67 % 1023,6 hPa 0,0 l/m 15,6 km/h (3 Bft) W-SW 237 2 min 0,000 mm 0,0 UV-I 268 W/m -0,7 C -1,3 C 27,4 km/h (4 Bft) 100,00 %
27.11.2017 14:06 4,9 C 4,4 C 67 % 1023,6 hPa 0,0 l/m 17,8 km/h (3 Bft) W-SW 248 2 min 0,000 mm 0,0 UV-I 264 W/m -0,7 C -2,4 C 27,4 km/h (4 Bft) 98,00 %
27.11.2017 14:08 4,9 C 4,4 C 67 % 1023,6 hPa 0,0 l/m 15,3 km/h (3 Bft) SW 227 2 min 0,000 mm 0,0 UV-I 264 W/m -0,7 C -1,2 C 25,7 km/h (4 Bft) 95,74 %
27.11.2017 14:10 4,9 C 4,4 C 66 % 1023,6 hPa 0,0 l/m 15,0 km/h (3 Bft) SW 222 2 min 0,000 mm 0,0 UV-I 233 W/m -0,9 C -1,0 C 27,4 km/h (4 Bft) 97,87 %
27.11.2017 14:12 4,9 C 4,4 C 66 % 1023,6 hPa 0,0 l/m 16,1 km/h (3 Bft) W-SW 240 2 min 0,000 mm 0,0 UV-I 225 W/m -0,9 C -1,6 C 24,1 km/h (4 Bft) 97,56 %
27.11.2017 14:14 4,8 C 4,4 C 67 % 1023,6 hPa 0,0 l/m 17,3 km/h (3 Bft) S-SW 211 2 min 0,000 mm 0,0 UV-I 220 W/m -0,8 C -2,3 C 30,6 km/h (5 Bft) 98,00 %
27.11.2017 14:16 4,7 C 4,4 C 65 % 1023,5 hPa 0,0 l/m 21,1 km/h (4 Bft) W 267 0 min 0,000 mm 0,0 UV-I 90 W/m -1,3 C -4,0 C 29,0 km/h (5 Bft) 97,87 %
27.11.2017 14:18 4,6 C 4,4 C 66 % 1023,5 hPa 0,0 l/m 20,0 km/h (4 Bft) S-SW 209 0 min 0,000 mm 0,0 UV-I 91 W/m -1,2 C -3,7 C 30,6 km/h (5 Bft) 95,74 %
27.11.2017 14:20 4,6 C 4,4 C 66 % 1023,6 hPa 0,0 l/m 17,6 km/h (3 Bft) W-SW 244 0 min 0,000 mm 0,0 UV-I 82 W/m -1,2 C -2,7 C 22,5 km/h (4 Bft) 95,74 %
27.11.2017 14:22 4,5 C 4,4 C 67 % 1023,6 hPa 0,0 l/m 13,7 km/h (3 Bft) SW 220 2 min 0,000 mm 0,0 UV-I 136 W/m -1,1 C -0,8 C 20,9 km/h (4 Bft) 97,87 %
27.11.2017 14:24 4,5 C 4,4 C 68 % 1023,5 hPa 0,0 l/m 12,3 km/h (3 Bft) W-SW 256 2 min 0,000 mm 0,0 UV-I 207 W/m -0,9 C -0,0 C 25,7 km/h (4 Bft) 97,87 %
27.11.2017 14:26 4,5 C 4,4 C 67 % 1023,5 hPa 0,0 l/m 16,5 km/h (3 Bft) W 265 2 min 0,000 mm 0,0 UV-I 205 W/m -1,1 C -2,3 C 20,9 km/h (4 Bft) 95,92 %
27.11.2017 14:28 4,5 C 4,4 C 67 % 1023,5 hPa 0,0 l/m 16,4 km/h (3 Bft) W 259 2 min 0,000 mm 0,0 UV-I 190 W/m -1,1 C -2,2 C 24,1 km/h (4 Bft) 97,37 %
27.11.2017 14:30 4,6 C 4,4 C 67 % 1023,5 hPa 0,0 l/m 11,8 km/h (2 Bft) W-SW 248 2 min 0,000 mm 0,0 UV-I 186 W/m -1,0 C 0,4 C 16,1 km/h (3 Bft) 97,87 %
27.11.2017 14:32 4,5 C 4,4 C 69 % 1023,4 hPa 0,0 l/m 11,8 km/h (2 Bft) W-SW 256 2 min 0,000 mm 0,0 UV-I 187 W/m -0,7 C 0,3 C 16,1 km/h (3 Bft) 92,00 %
27.11.2017 14:34 4,6 C 4,4 C 69 % 1023,4 hPa 0,0 l/m 12,5 km/h (3 Bft) W 261 2 min 0,000 mm 0,0 UV-I 169 W/m -0,6 C -0,0 C 19,3 km/h (3 Bft) 95,92 %
27.11.2017 14:36 4,6 C 4,4 C 69 % 1023,3 hPa 0,0 l/m 8,8 km/h (2 Bft) W-SW 258 2 min 0,000 mm 0,0 UV-I 163 W/m -0,6 C 2,5 C 12,9 km/h (3 Bft) 95,74 %
27.11.2017 14:38 4,6 C 4,4 C 69 % 1023,3 hPa 0,0 l/m 11,0 km/h (2 Bft) W-SW 255 2 min 0,000 mm 0,0 UV-I 129 W/m -0,6 C 0,9 C 19,3 km/h (3 Bft) 95,74 %
27.11.2017 14:40 4,4 C 4,4 C 68 % 1023,3 hPa 0,0 l/m 14,8 km/h (3 Bft) W-SW 255 0 min 0,000 mm 0,0 UV-I 66 W/m -1,0 C -1,5 C 22,5 km/h (4 Bft) 98,00 %
27.11.2017 14:42 4,4 C 4,4 C 69 % 1023,3 hPa 0,0 l/m 12,3 km/h (3 Bft) W 261 0 min 0,000 mm 0,0 UV-I 63 W/m -0,8 C -0,1 C 22,5 km/h (4 Bft) 100,00 %
27.11.2017 14:44 4,3 C 4,4 C 69 % 1023,3 hPa 0,0 l/m 15,3 km/h (3 Bft) W-SW 238 0 min 0,000 mm 0,0 UV-I 60 W/m -0,9 C -1,9 C 20,9 km/h (4 Bft) 97,44 %
27.11.2017 14:46 4,3 C 4,4 C 69 % 1023,3 hPa 0,0 l/m 12,0 km/h (2 Bft) W-SW 258 0 min 0,000 mm 0,0 UV-I 63 W/m -0,9 C -0,0 C 17,7 km/h (3 Bft) 100,00 %
27.11.2017 14:48 4,2 C 4,4 C 70 % 1023,2 hPa 0,0 l/m 10,8 km/h (2 Bft) W-SW 240 0 min 0,000 mm 0,0 UV-I 64 W/m -0,8 C 0,6 C 17,7 km/h (3 Bft) 97,87 %
27.11.2017 14:50 4,2 C 4,4 C 70 % 1023,2 hPa 0,0 l/m 10,6 km/h (2 Bft) SW 236 0 min 0,000 mm 0,0 UV-I 61 W/m -0,8 C 0,8 C 14,5 km/h (3 Bft) 100,00 %
27.11.2017 14:52 4,1 C 4,4 C 70 % 1023,2 hPa 0,0 l/m 10,6 km/h (2 Bft) W 263 0 min 0,000 mm 0,0 UV-I 55 W/m -0,9 C 0,7 C 17,7 km/h (3 Bft) 100,00 %
27.11.2017 14:54 4,1 C 4,4 C 71 % 1023,1 hPa 0,0 l/m 9,2 km/h (2 Bft) W-SW 242 0 min 0,000 mm 0,0 UV-I 58 W/m -0,7 C 1,7 C 16,1 km/h (3 Bft) 100,00 %
27.11.2017 14:56 4,0 C 4,4 C 71 % 1023,2 hPa 0,0 l/m 11,2 km/h (2 Bft) SW 234 0 min 0,000 mm 0,0 UV-I 62 W/m -0,8 C 0,1 C 19,3 km/h (3 Bft) 97,87 %
27.11.2017 14:58 3,9 C 4,4 C 71 % 1023,2 hPa 0,0 l/m 8,0 km/h (2 Bft) W-SW 247 0 min 0,000 mm 0,0 UV-I 65 W/m -0,9 C 2,4 C 12,9 km/h (3 Bft) 95,74 %
27.11.2017 15:00 3,9 C 4,4 C 72 % 1023,2 hPa 0,0 l/m 9,1 km/h (2 Bft) W-SW 250 0 min 0,000 mm 0,0 UV-I 60 W/m -0,7 C 1,5 C 12,9 km/h (3 Bft) 100,00 %
27.11.2017 15:02 3,9 C 4,4 C 72 % 1023,1 hPa 0,0 l/m 9,4 km/h (2 Bft) SW 217 0 min 0,101 mm 0,0 UV-I 54 W/m -0,7 C 1,3 C 12,9 km/h (3 Bft) 100,00 %
27.11.2017 15:04 3,9 C 4,4 C 72 % 1023,1 hPa 0,0 l/m 9,6 km/h (2 Bft) W-SW 252 0 min 0,000 mm 0,0 UV-I 49 W/m -0,7 C 1,2 C 14,5 km/h (3 Bft) 95,74 %
27.11.2017 15:06 3,9 C 4,4 C 71 % 1023,0 hPa 0,0 l/m 12,5 km/h (3 Bft) SW 231 0 min 0,000 mm 0,0 UV-I 44 W/m -0,9 C -0,8 C 19,3 km/h (3 Bft) 97,87 %
27.11.2017 15:08 3,8 C 4,4 C 71 % 1023,0 hPa 0,0 l/m 10,7 km/h (2 Bft) W-SW 252 0 min 0,000 mm 0,0 UV-I 42 W/m -1,0 C 0,2 C 17,7 km/h (3 Bft) 97,87 %
27.11.2017 15:10 3,8 C 4,4 C 72 % 1023,0 hPa 0,0 l/m 9,1 km/h (2 Bft) SW 225 0 min 0,000 mm 0,0 UV-I 43 W/m -0,8 C 1,4 C 14,5 km/h (3 Bft) 98,00 %
27.11.2017 15:12 3,8 C 4,4 C 72 % 1022,9 hPa 0,0 l/m 8,6 km/h (2 Bft) SW 234 0 min 0,000 mm 0,0 UV-I 46 W/m -0,8 C 1,8 C 14,5 km/h (3 Bft) 95,74 %
27.11.2017 15:14 3,7 C 4,4 C 72 % 1022,9 hPa 0,0 l/m 6,6 km/h (2 Bft) SW 221 0 min 0,000 mm 0,0 UV-I 55 W/m -0,9 C 3,5 C 12,9 km/h (3 Bft) 100,00 %
27.11.2017 15:16 3,7 C 4,4 C 72 % 1022,9 hPa 0,0 l/m 10,8 km/h (2 Bft) SW 220 0 min 0,000 mm 0,0 UV-I 49 W/m -0,9 C 0,1 C 19,3 km/h (3 Bft) 100,00 %
27.11.2017 15:18 3,7 C 4,4 C 72 % 1022,8 hPa 0,0 l/m 9,4 km/h (2 Bft) SW 231 0 min 0,000 mm 0,0 UV-I 47 W/m -0,9 C 1,1 C 14,5 km/h (3 Bft) 100,00 %
27.11.2017 15:20 3,7 C 4,4 C 72 % 1022,8 hPa 0,0 l/m 10,4 km/h (2 Bft) W-SW 238 0 min 0,000 mm 0,0 UV-I 43 W/m -0,9 C 0,3 C 14,5 km/h (3 Bft) 100,00 %
27.11.2017 15:22 3,7 C 4,4 C 72 % 1022,8 hPa 0,0 l/m 9,0 km/h (2 Bft) W-SW 240 0 min 0,000 mm 0,0 UV-I 40 W/m -0,9 C 1,4 C 14,5 km/h (3 Bft) 98,08 %
27.11.2017 15:24 3,6 C 4,4 C 73 % 1022,7 hPa 0,0 l/m 8,7 km/h (2 Bft) W-SW 243 0 min 0,000 mm 0,0 UV-I 39 W/m -0,8 C 1,5 C 11,3 km/h (2 Bft) 100,00 %
27.11.2017 15:26 3,6 C 4,4 C 73 % 1022,7 hPa 0,0 l/m 8,2 km/h (2 Bft) S-SW 198 0 min 0,000 mm 0,0 UV-I 39 W/m -0,8 C 2,0 C 12,9 km/h (3 Bft) 100,00 %
27.11.2017 15:28 3,6 C 4,4 C 72 % 1022,7 hPa 0,0 l/m 11,3 km/h (2 Bft) SW 232 0 min 0,000 mm 0,0 UV-I 39 W/m -1,0 C -0,4 C 16,1 km/h (3 Bft) 98,00 %
27.11.2017 15:30 3,6 C 4,4 C 73 % 1022,7 hPa 0,0 l/m 9,3 km/h (2 Bft) S-SW 211 0 min 0,000 mm 0,0 UV-I 40 W/m -0,8 C 1,1 C 14,5 km/h (3 Bft) 100,00 %
27.11.2017 15:32 3,6 C 4,4 C 73 % 1022,7 hPa 0,0 l/m 9,0 km/h (2 Bft) W-SW 249 0 min 0,000 mm 0,0 UV-I 40 W/m -0,8 C 1,3 C 14,5 km/h (3 Bft) 100,00 %
27.11.2017 15:34 3,6 C 4,4 C 73 % 1022,6 hPa 0,0 l/m 9,4 km/h (2 Bft) SW 219 0 min 0,000 mm 0,0 UV-I 39 W/m -0,8 C 1,0 C 12,9 km/h (3 Bft) 97,87 %
27.11.2017 15:36 3,6 C 4,4 C 73 % 1022,6 hPa 0,0 l/m 9,1 km/h (2 Bft) S-SW 211 0 min 0,000 mm 0,0 UV-I 37 W/m -0,8 C 1,2 C 12,9 km/h (3 Bft) 100,00 %
27.11.2017 15:38 3,6 C 4,4 C 73 % 1022,6 hPa 0,0 l/m 8,6 km/h (2 Bft) SW 217 0 min 0,000 mm 0,0 UV-I 34 W/m -0,8 C 1,6 C 12,9 km/h (3 Bft) 100,00 %
27.11.2017 15:40 3,6 C 4,4 C 73 % 1022,6 hPa 0,0 l/m 6,7 km/h (2 Bft) W-SW 247 0 min 0,000 mm 0,0 UV-I 33 W/m -0,8 C 3,3 C 11,3 km/h (2 Bft) 100,00 %
27.11.2017 15:42 3,6 C 4,4 C 74 % 1022,6 hPa 0,0 l/m 8,4 km/h (2 Bft) SW 229 2 min 0,000 mm 0,0 UV-I 36 W/m -0,6 C 1,8 C 12,9 km/h (3 Bft) 100,00 %
27.11.2017 15:44 3,6 C 4,4 C 74 % 1022,6 hPa 0,0 l/m 7,4 km/h (2 Bft) W-SW 241 2 min 0,000 mm 0,0 UV-I 39 W/m -0,6 C 2,7 C 11,3 km/h (2 Bft) 100,00 %
27.11.2017 15:46 3,6 C 4,4 C 74 % 1022,5 hPa 0,0 l/m 8,3 km/h (2 Bft) S-SW 213 2 min 0,000 mm 0,0 UV-I 35 W/m -0,6 C 1,9 C 14,5 km/h (3 Bft) 100,00 %
27.11.2017 15:48 3,6 C 4,4 C 74 % 1022,5 hPa 0,0 l/m 8,3 km/h (2 Bft) S-SW 194 2 min 0,000 mm 0,0 UV-I 31 W/m -0,6 C 1,9 C 12,9 km/h (3 Bft) 100,00 %
27.11.2017 15:50 3,6 C 4,4 C 74 % 1022,5 hPa 0,0 l/m 9,2 km/h (2 Bft) SW 232 2 min 0,000 mm 0,0 UV-I 30 W/m -0,6 C 1,1 C 14,5 km/h (3 Bft) 100,00 %
27.11.2017 15:52 3,5 C 4,4 C 74 % 1022,5 hPa 0,0 l/m 8,8 km/h (2 Bft) SW 218 2 min 0,000 mm 0,0 UV-I 28 W/m -0,7 C 1,4 C 12,9 km/h (3 Bft) 100,00 %
27.11.2017 15:54 3,6 C 4,4 C 74 % 1022,4 hPa 0,0 l/m 9,3 km/h (2 Bft) S-SW 198 2 min 0,000 mm 0,0 UV-I 24 W/m -0,6 C 1,1 C 16,1 km/h (3 Bft) 100,00 %
27.11.2017 15:56 3,6 C 4,4 C 74 % 1022,4 hPa 0,0 l/m 9,1 km/h (2 Bft) SW 223 2 min 0,000 mm 0,0 UV-I 21 W/m -0,6 C 1,2 C 16,1 km/h (3 Bft) 97,87 %
27.11.2017 15:58 3,5 C 4,4 C 74 % 1022,4 hPa 0,0 l/m 7,6 km/h (2 Bft) S-SW 211 2 min 0,000 mm 0,0 UV-I 18 W/m -0,7 C 2,4 C 9,7 km/h (2 Bft) 97,92 %
27.11.2017 16:00 3,6 C 4,4 C 74 % 1022,4 hPa 0,0 l/m 8,9 km/h (2 Bft) SW 219 2 min 0,026 mm 0,0 UV-I 14 W/m -0,6 C 1,4 C 12,9 km/h (3 Bft) 100,00 %
27.11.2017 16:02 3,6 C 4,4 C 74 % 1022,4 hPa 0,0 l/m 7,5 km/h (2 Bft) S-SW 196 2 min 0,000 mm 0,0 UV-I 15 W/m -0,6 C 2,6 C 12,9 km/h (3 Bft) 97,87 %
27.11.2017 16:04 3,5 C 4,4 C 74 % 1022,4 hPa 0,0 l/m 8,9 km/h (2 Bft) SW 221 0 min 0,000 mm 0,0 UV-I 13 W/m -0,7 C 1,3 C 14,5 km/h (3 Bft) 96,00 %
27.11.2017 16:06 3,5 C 4,4 C 74 % 1022,4 hPa 0,0 l/m 7,3 km/h (2 Bft) S-SW 202 0 min 0,000 mm 0,0 UV-I 12 W/m -0,7 C 2,7 C 9,7 km/h (2 Bft) 97,87 %
27.11.2017 16:08 3,5 C 4,4 C 74 % 1022,4 hPa 0,0 l/m 5,6 km/h (1 Bft) SW 229 0 min 0,000 mm 0,0 UV-I 11 W/m -0,7 C 3,5 C 8,0 km/h (2 Bft) 96,23 %
27.11.2017 16:10 3,5 C 4,4 C 74 % 1022,4 hPa 0,0 l/m 7,8 km/h (2 Bft) SW 217 0 min 0,000 mm 0,0 UV-I 9 W/m -0,7 C 2,2 C 12,9 km/h (3 Bft) 97,87 %
27.11.2017 16:12 3,5 C 4,4 C 74 % 1022,4 hPa 0,0 l/m 8,2 km/h (2 Bft) SW 224 0 min 0,000 mm 0,0 UV-I 8 W/m -0,7 C 1,9 C 12,9 km/h (3 Bft) 94,29 %
27.11.2017 16:14 3,5 C 4,4 C 74 % 1022,4 hPa 0,0 l/m 7,1 km/h (2 Bft) SW 232 0 min 0,000 mm 0,0 UV-I 7 W/m -0,7 C 2,8 C 12,9 km/h (3 Bft) 98,00 %
27.11.2017 16:16 3,5 C 4,4 C 74 % 1022,4 hPa 0,0 l/m 5,8 km/h (2 Bft) S-SW 211 0 min 0,000 mm 0,0 UV-I 6 W/m -0,7 C 3,5 C 9,7 km/h (2 Bft) 97,87 %
27.11.2017 16:18 3,5 C 4,4 C 74 % 1022,4 hPa 0,0 l/m 5,4 km/h (1 Bft) SW 215 0 min 0,000 mm 0,0 UV-I 5 W/m -0,7 C 3,5 C 9,7 km/h (2 Bft) 93,62 %
27.11.2017 16:20 3,5 C 4,4 C 75 % 1022,3 hPa 0,0 l/m 7,4 km/h (2 Bft) S-SW 209 0 min 0,000 mm 0,0 UV-I 5 W/m -0,5 C 2,6 C 11,3 km/h (2 Bft) 97,87 %
27.11.2017 16:22 3,4 C 4,4 C 74 % 1022,3 hPa 0,0 l/m 6,5 km/h (2 Bft) SW 223 0 min 0,000 mm 0,0 UV-I 5 W/m -0,8 C 3,3 C 8,0 km/h (2 Bft) 95,74 %
27.11.2017 16:24 3,4 C 4,4 C 75 % 1022,3 hPa 0,0 l/m 6,2 km/h (2 Bft) SW 219 0 min 0,000 mm 0,0 UV-I 5 W/m -0,6 C 3,4 C 9,7 km/h (2 Bft) 97,87 %
27.11.2017 16:26 3,4 C 4,4 C 75 % 1022,3 hPa 0,0 l/m 6,4 km/h (2 Bft) S-SW 211 0 min 0,000 mm 0,0 UV-I 2 W/m -0,6 C 3,4 C 11,3 km/h (2 Bft) 95,74 %
27.11.2017 16:28 3,3 C 4,4 C 75 % 1022,3 hPa 0,0 l/m 5,9 km/h (2 Bft) S-SW 200 0 min 0,000 mm 0,0 UV-I 0 W/m -0,7 C 3,3 C 9,7 km/h (2 Bft) 97,87 %
27.11.2017 16:30 3,3 C 4,4 C 75 % 1022,3 hPa 0,0 l/m 5,4 km/h (1 Bft) S-SW 202 0 min 0,000 mm 0,0 UV-I 0 W/m -0,7 C 3,3 C 9,7 km/h (2 Bft) 94,00 %
27.11.2017 16:32 3,3 C 4,4 C 76 % 1022,3 hPa 0,0 l/m 5,4 km/h (1 Bft) W-SW 239 0 min 0,000 mm 0,0 UV-I 0 W/m -0,5 C 3,3 C 8,0 km/h (2 Bft) 93,62 %
27.11.2017 16:34 3,3 C 4,4 C 76 % 1022,2 hPa 0,0 l/m 6,4 km/h (2 Bft) W-SW 254 0 min 0,000 mm 0,0 UV-I 0 W/m -0,5 C 3,3 C 11,3 km/h (2 Bft) 97,87 %
27.11.2017 16:36 3,3 C 4,4 C 76 % 1022,2 hPa 0,0 l/m 7,2 km/h (2 Bft) W-SW 245 0 min 0,000 mm 0,0 UV-I 0 W/m -0,5 C 2,5 C 9,7 km/h (2 Bft) 97,87 %
27.11.2017 16:38 3,2 C 4,4 C 77 % 1022,2 hPa 0,0 l/m 4,8 km/h (1 Bft) SW 230 0 min 0,000 mm 0,0 UV-I 0 W/m -0,4 C 3,2 C 8,0 km/h (2 Bft) 95,74 %
27.11.2017 16:40 3,2 C 4,4 C 77 % 1022,2 hPa 0,0 l/m 6,7 km/h (2 Bft) SW 232 0 min 0,000 mm 0,0 UV-I 0 W/m -0,4 C 2,9 C 9,7 km/h (2 Bft) 100,00 %
27.11.2017 16:42 3,2 C 4,4 C 77 % 1022,2 hPa 0,0 l/m 3,8 km/h (1 Bft) SW 232 0 min 0,000 mm 0,0 UV-I 0 W/m -0,4 C 3,2 C 6,4 km/h (2 Bft) 100,00 %
27.11.2017 16:44 3,2 C 4,4 C 77 % 1022,2 hPa 0,0 l/m 5,1 km/h (1 Bft) W-SW 238 0 min 0,000 mm 0,0 UV-I 0 W/m -0,4 C 3,2 C 6,4 km/h (2 Bft) 95,83 %
27.11.2017 16:46 3,1 C 4,4 C 77 % 1022,1 hPa 0,0 l/m 3,9 km/h (1 Bft) W-SW 238 0 min 0,000 mm 0,0 UV-I 0 W/m -0,5 C 3,1 C 6,4 km/h (2 Bft) 100,00 %
27.11.2017 16:48 3,1 C 4,4 C 76 % 1022,1 hPa 0,0 l/m 4,2 km/h (1 Bft) S-SW 210 0 min 0,000 mm 0,0 UV-I 0 W/m -0,7 C 3,1 C 4,8 km/h (1 Bft) 100,00 %
27.11.2017 16:50 3,2 C 4,4 C 76 % 1022,0 hPa 0,0 l/m 5,0 km/h (1 Bft) SW 223 0 min 0,000 mm 0,0 UV-I 0 W/m -0,6 C 3,2 C 6,4 km/h (2 Bft) 95,74 %
27.11.2017 16:52 3,1 C 4,4 C 77 % 1022,0 hPa 0,0 l/m 5,3 km/h (1 Bft) SW 223 0 min 0,000 mm 0,0 UV-I 0 W/m -0,5 C 3,1 C 8,0 km/h (2 Bft) 97,87 %
27.11.2017 16:54 3,1 C 4,4 C 76 % 1022,0 hPa 0,0 l/m 4,7 km/h (1 Bft) SW 217 0 min 0,000 mm 0,0 UV-I 0 W/m -0,7 C 3,1 C 8,0 km/h (2 Bft) 93,62 %
27.11.2017 16:56 3,1 C 4,4 C 77 % 1022,0 hPa 0,0 l/m 5,4 km/h (1 Bft) SW 233 0 min 0,000 mm 0,0 UV-I 0 W/m -0,5 C 3,1 C 8,0 km/h (2 Bft) 97,37 %
27.11.2017 16:58 3,1 C 4,4 C 76 % 1022,0 hPa 0,0 l/m 4,1 km/h (1 Bft) SW 227 0 min 0,000 mm 0,0 UV-I 0 W/m -0,7 C 3,1 C 6,4 km/h (2 Bft) 95,74 %
27.11.2017 17:00 3,1 C 4,4 C 76 % 1022,0 hPa 0,0 l/m 4,3 km/h (1 Bft) SW 235 0 min 0,025 mm 0,0 UV-I 0 W/m -0,7 C 3,1 C 8,0 km/h (2 Bft) 97,87 %
27.11.2017 17:02 3,1 C 4,4 C 75 % 1022,0 hPa 0,0 l/m 3,7 km/h (1 Bft) W-SW 246 0 min 0,000 mm 0,0 UV-I 0 W/m -0,9 C 3,1 C 4,8 km/h (1 Bft) 96,00 %
27.11.2017 17:04 3,1 C 4,4 C 75 % 1022,0 hPa 0,0 l/m 4,6 km/h (1 Bft) W-SW 238 0 min 0,000 mm 0,0 UV-I 0 W/m -0,9 C 3,1 C 6,4 km/h (2 Bft) 95,74 %
27.11.2017 17:06 3,1 C 4,4 C 75 % 1021,9 hPa 0,0 l/m 3,8 km/h (1 Bft) SW 231 0 min 0,000 mm 0,0 UV-I 0 W/m -0,9 C 3,1 C 6,4 km/h (2 Bft) 97,87 %
27.11.2017 17:08 3,0 C 4,4 C 75 % 1021,9 hPa 0,0 l/m 4,8 km/h (1 Bft) SW 223 0 min 0,000 mm 0,0 UV-I 0 W/m -1,0 C 3,0 C 8,0 km/h (2 Bft) 98,00 %
27.11.2017 17:10 3,0 C 4,4 C 74 % 1021,9 hPa 0,0 l/m 6,0 km/h (2 Bft) SW 214 0 min 0,000 mm 0,0 UV-I 0 W/m -1,2 C 3,0 C 8,0 km/h (2 Bft) 97,87 %
27.11.2017 17:12 2,9 C 4,4 C 74 % 1021,9 hPa 0,0 l/m 4,5 km/h (1 Bft) SW 214 0 min 0,000 mm 0,0 UV-I 0 W/m -1,3 C 2,9 C 8,0 km/h (2 Bft) 97,87 %
27.11.2017 17:14 2,8 C 4,4 C 75 % 1021,9 hPa 0,0 l/m 4,5 km/h (1 Bft) S-SW 204 0 min 0,000 mm 0,0 UV-I 0 W/m -1,2 C 2,8 C 6,4 km/h (2 Bft) 97,22 %
27.11.2017 17:16 2,8 C 4,4 C 75 % 1021,9 hPa 0,0 l/m 4,2 km/h (1 Bft) S-SW 206 0 min 0,000 mm 0,0 UV-I 0 W/m -1,2 C 2,8 C 6,4 km/h (2 Bft) 96,00 %
27.11.2017 17:18 2,7 C 4,4 C 74 % 1021,9 hPa 0,0 l/m 4,7 km/h (1 Bft) S-SW 195 0 min 0,000 mm 0,0 UV-I 0 W/m -1,5 C 2,7 C 6,4 km/h (2 Bft) 97,87 %
27.11.2017 17:20 2,7 C 4,4 C 74 % 1021,8 hPa 0,0 l/m 4,7 km/h (1 Bft) S-SW 201 0 min 0,000 mm 0,0 UV-I 0 W/m -1,5 C 2,7 C 6,4 km/h (2 Bft) 95,74 %
27.11.2017 17:22 2,7 C 4,4 C 74 % 1021,9 hPa 0,0 l/m 4,9 km/h (1 Bft) S-SW 194 0 min 0,000 mm 0,0 UV-I 0 W/m -1,5 C 2,7 C 6,4 km/h (2 Bft) 98,00 %
27.11.2017 17:24 2,7 C 4,4 C 74 % 1021,9 hPa 0,0 l/m 3,6 km/h (1 Bft) S 190 0 min 0,000 mm 0,0 UV-I 0 W/m -1,5 C 2,7 C 4,8 km/h (1 Bft) 95,74 %
27.11.2017 17:26 2,7 C 4,4 C 74 % 1021,8 hPa 0,0 l/m 3,9 km/h (1 Bft) S 190 0 min 0,000 mm 0,0 UV-I 0 W/m -1,5 C 2,7 C 6,4 km/h (2 Bft) 94,00 %
27.11.2017 17:28 2,7 C 4,4 C 74 % 1021,8 hPa 0,0 l/m 3,6 km/h (1 Bft) S 190 0 min 0,000 mm 0,0 UV-I 0 W/m -1,5 C 2,7 C 6,4 km/h (2 Bft) 97,87 %
27.11.2017 17:30 2,7 C 4,4 C 74 % 1021,8 hPa 0,0 l/m 3,4 km/h (1 Bft) S-SW 196 0 min 0,000 mm 0,0 UV-I 0 W/m -1,5 C 2,7 C 6,4 km/h (2 Bft) 97,87 %
27.11.2017 17:32 2,7 C 4,4 C 74 % 1021,8 hPa 0,0 l/m 3,1 km/h (1 Bft) S-SW 195 0 min 0,000 mm 0,0 UV-I 0 W/m -1,5 C 2,7 C 4,8 km/h (1 Bft) 95,74 %
27.11.2017 17:34 2,7 C 4,4 C 74 % 1021,7 hPa 0,0 l/m 3,3 km/h (1 Bft) S-SW 195 0 min 0,000 mm 0,0 UV-I 0 W/m -1,5 C 2,7 C 6,4 km/h (2 Bft) 94,00 %
27.11.2017 17:36 2,6 C 4,4 C 74 % 1021,7 hPa 0,0 l/m 3,0 km/h (1 Bft) S-SW 204 0 min 0,000 mm 0,0 UV-I 0 W/m -1,6 C 2,6 C 6,4 km/h (2 Bft) 94,29 %
27.11.2017 17:38 2,6 C 4,4 C 74 % 1021,7 hPa 0,0 l/m 2,7 km/h (1 Bft) S 188 0 min 0,000 mm 0,0 UV-I 0 W/m -1,6 C 2,6 C 4,8 km/h (1 Bft) 93,62 %
27.11.2017 17:40 2,7 C 4,4 C 74 % 1021,6 hPa 0,0 l/m 2,8 km/h (1 Bft) S 188 0 min 0,000 mm 0,0 UV-I 0 W/m -1,5 C 2,7 C 4,8 km/h (1 Bft) 97,87 %
27.11.2017 17:42 2,6 C 4,4 C 74 % 1021,7 hPa 0,0 l/m 3,1 km/h (1 Bft) S-SW 205 0 min 0,000 mm 0,0 UV-I 0 W/m -1,6 C 2,6 C 6,4 km/h (2 Bft) 93,62 %
27.11.2017 17:44 2,6 C 4,4 C 74 % 1021,7 hPa 0,0 l/m 2,1 km/h (1 Bft) S-SW 205 0 min 0,000 mm 0,0 UV-I 0 W/m -1,6 C 2,6 C 4,8 km/h (1 Bft) 93,62 %
27.11.2017 17:46 2,5 C 4,4 C 75 % 1021,7 hPa 0,0 l/m 2,8 km/h (1 Bft) S-SW 205 0 min 0,000 mm 0,0 UV-I 0 W/m -1,5 C 2,5 C 4,8 km/h (1 Bft) 100,00 %
27.11.2017 17:48 2,4 C 4,4 C 74 % 1021,7 hPa 0,0 l/m 3,1 km/h (1 Bft) S-SW 205 0 min 0,000 mm 0,0 UV-I 0 W/m -1,7 C 2,4 C 4,8 km/h (1 Bft) 97,87 %
27.11.2017 17:50 2,4 C 4,4 C 75 % 1021,7 hPa 0,0 l/m 2,5 km/h (1 Bft) S-SW 205 0 min 0,000 mm 0,0 UV-I 0 W/m -1,6 C 2,4 C 4,8 km/h (1 Bft) 91,49 %
27.11.2017 17:52 2,4 C 4,4 C 75 % 1021,7 hPa 0,0 l/m 3,1 km/h (1 Bft) S-SW 205 0 min 0,000 mm 0,0 UV-I 0 W/m -1,6 C 2,4 C 4,8 km/h (1 Bft) 97,87 %
27.11.2017 17:54 2,3 C 4,4 C 75 % 1021,6 hPa 0,0 l/m 3,3 km/h (1 Bft) S-SW 205 0 min 0,000 mm 0,0 UV-I 0 W/m -1,7 C 2,3 C 4,8 km/h (1 Bft) 97,87 %
27.11.2017 17:56 2,2 C 4,4 C 76 % 1021,6 hPa 0,0 l/m 4,0 km/h (1 Bft) S-SW 205 0 min 0,000 mm 0,0 UV-I 0 W/m -1,6 C 2,2 C 6,4 km/h (2 Bft) 97,87 %
27.11.2017 17:58 2,2 C 4,4 C 76 % 1021,6 hPa 0,0 l/m 4,0 km/h (1 Bft) S-SW 205 0 min 0,000 mm 0,0 UV-I 0 W/m -1,6 C 2,2 C 6,4 km/h (2 Bft) 95,74 %
27.11.2017 18:00 2,1 C 4,4 C 77 % 1021,6 hPa 0,0 l/m 4,5 km/h (1 Bft) S-SW 205 0 min 0,000 mm 0,0 UV-I 0 W/m -1,5 C 2,1 C 8,0 km/h (2 Bft) 97,92 %
27.11.2017 18:02 2,0 C 4,4 C 77 % 1021,6 hPa 0,0 l/m 4,8 km/h (1 Bft) S-SW 205 0 min 0,000 mm 0,0 UV-I 0 W/m -1,6 C 2,0 C 8,0 km/h (2 Bft) 100,00 %
27.11.2017 18:04 1,9 C 4,4 C 77 % 1021,5 hPa 0,0 l/m 5,0 km/h (1 Bft) S-SW 205 0 min 0,000 mm 0,0 UV-I 0 W/m -1,7 C 1,9 C 6,4 km/h (2 Bft) 100,00 %
27.11.2017 18:06 2,0 C 4,4 C 76 % 1021,5 hPa 0,0 l/m 4,8 km/h (1 Bft) S-SW 202 0 min 0,000 mm 0,0 UV-I 0 W/m -1,8 C 2,0 C 6,4 km/h (2 Bft) 97,87 %
27.11.2017 18:08 2,0 C 4,4 C 76 % 1021,5 hPa 0,0 l/m 5,5 km/h (1 Bft) S-SW 211 0 min 0,000 mm 0,0 UV-I 0 W/m -1,8 C 2,0 C 8,0 km/h (2 Bft) 97,87 %
27.11.2017 18:10 2,0 C 4,4 C 76 % 1021,4 hPa 0,0 l/m 6,1 km/h (2 Bft) S-SW 207 0 min 0,000 mm 0,0 UV-I 0 W/m -1,8 C 2,0 C 8,0 km/h (2 Bft) 100,00 %
27.11.2017 18:12 2,1 C 4,4 C 75 % 1021,4 hPa 0,0 l/m 6,0 km/h (2 Bft) S-SW 202 0 min 0,000 mm 0,0 UV-I 0 W/m -1,9 C 2,1 C 9,7 km/h (2 Bft) 100,00 %
27.11.2017 18:14 2,2 C 4,4 C 74 % 1021,4 hPa 0,0 l/m 6,1 km/h (2 Bft) S-SW 192 0 min 0,000 mm 0,0 UV-I 0 W/m -1,9 C 2,2 C 9,7 km/h (2 Bft) 97,87 %
27.11.2017 18:16 2,2 C 4,4 C 74 % 1021,4 hPa 0,0 l/m 6,0 km/h (2 Bft) SW 221 0 min 0,000 mm 0,0 UV-I 0 W/m -1,9 C 2,2 C 9,7 km/h (2 Bft) 97,37 %
27.11.2017 18:18 2,3 C 4,4 C 73 % 1021,4 hPa 0,0 l/m 6,2 km/h (2 Bft) S-SW 207 0 min 0,000 mm 0,0 UV-I 0 W/m -2,0 C 2,3 C 8,0 km/h (2 Bft) 97,87 %
27.11.2017 18:20 2,3 C 4,4 C 73 % 1021,3 hPa 0,0 l/m 5,9 km/h (2 Bft) SW 214 0 min 0,000 mm 0,0 UV-I 0 W/m -2,0 C 2,3 C 8,0 km/h (2 Bft) 98,00 %
27.11.2017 18:22 2,3 C 4,4 C 73 % 1021,3 hPa 0,0 l/m 4,8 km/h (1 Bft) S-SW 192 0 min 0,000 mm 0,0 UV-I 0 W/m -2,0 C 2,3 C 8,0 km/h (2 Bft) 97,87 %
27.11.2017 18:24 2,3 C 4,4 C 73 % 1021,3 hPa 0,0 l/m 5,4 km/h (1 Bft) S-SW 193 0 min 0,000 mm 0,0 UV-I 0 W/m -2,0 C 2,3 C 8,0 km/h (2 Bft) 95,74 %
27.11.2017 18:26 2,3 C 4,4 C 72 % 1021,3 hPa 0,0 l/m 5,2 km/h (1 Bft) S-SW 211 0 min 0,000 mm 0,0 UV-I 0 W/m -2,2 C 2,3 C 8,0 km/h (2 Bft) 95,74 %
27.11.2017 18:28 2,4 C 4,4 C 72 % 1021,3 hPa 0,0 l/m 5,8 km/h (2 Bft) S-SW 205 0 min 0,000 mm 0,0 UV-I 0 W/m -2,1 C 2,4 C 9,7 km/h (2 Bft) 95,92 %
27.11.2017 18:30 2,4 C 4,4 C 72 % 1021,3 hPa 0,0 l/m 5,5 km/h (1 Bft) S 190 0 min 0,000 mm 0,0 UV-I 0 W/m -2,1 C 2,4 C 9,7 km/h (2 Bft) 97,87 %
27.11.2017 18:32 2,5 C 4,4 C 72 % 1021,2 hPa 0,0 l/m 4,4 km/h (1 Bft) S-SW 192 0 min 0,000 mm 0,0 UV-I 0 W/m -2,0 C 2,5 C 9,7 km/h (2 Bft) 98,00 %
27.11.2017 18:34 2,5 C 4,4 C 71 % 1021,2 hPa 0,0 l/m 5,8 km/h (2 Bft) S-SW 198 0 min 0,000 mm 0,0 UV-I 0 W/m -2,2 C 2,5 C 8,0 km/h (2 Bft) 95,74 %
27.11.2017 18:36 2,6 C 4,4 C 71 % 1021,2 hPa 0,0 l/m 5,8 km/h (2 Bft) S-SW 200 0 min 0,000 mm 0,0 UV-I 0 W/m -2,1 C 2,6 C 8,0 km/h (2 Bft) 97,22 %
27.11.2017 18:38 2,6 C 4,4 C 71 % 1021,2 hPa 0,0 l/m 6,3 km/h (2 Bft) S-SW 202 0 min 0,000 mm 0,0 UV-I 0 W/m -2,1 C 2,6 C 11,3 km/h (2 Bft) 98,25 %
27.11.2017 18:40 2,7 C 4,4 C 71 % 1021,1 hPa 0,0 l/m 4,8 km/h (1 Bft) S 178 0 min 0,000 mm 0,0 UV-I 0 W/m -2,0 C 2,7 C 8,0 km/h (2 Bft) 95,74 %
27.11.2017 18:42 2,7 C 4,4 C 70 % 1021,1 hPa 0,0 l/m 4,7 km/h (1 Bft) S-SW 202 0 min 0,000 mm 0,0 UV-I 0 W/m -2,2 C 2,7 C 8,0 km/h (2 Bft) 97,87 %
27.11.2017 18:44 2,8 C 4,4 C 70 % 1021,1 hPa 0,0 l/m 5,5 km/h (1 Bft) SW 215 0 min 0,000 mm 0,0 UV-I 0 W/m -2,1 C 2,8 C 9,7 km/h (2 Bft) 95,83 %
27.11.2017 18:46 2,8 C 4,4 C 70 % 1021,1 hPa 0,0 l/m 5,1 km/h (1 Bft) S 176 0 min 0,000 mm 0,0 UV-I 0 W/m -2,1 C 2,8 C 8,0 km/h (2 Bft) 97,87 %
27.11.2017 18:48 2,8 C 4,4 C 70 % 1021,1 hPa 0,0 l/m 4,2 km/h (1 Bft) S 188 0 min 0,000 mm 0,0 UV-I 0 W/m -2,1 C 2,8 C 8,0 km/h (2 Bft) 97,87 %
27.11.2017 18:50 2,9 C 4,4 C 69 % 1021,1 hPa 0,0 l/m 3,7 km/h (1 Bft) S 190 0 min 0,000 mm 0,0 UV-I 0 W/m -2,2 C 2,9 C 6,4 km/h (2 Bft) 97,87 %
27.11.2017 18:52 2,9 C 4,4 C 68 % 1021,1 hPa 0,0 l/m 3,8 km/h (1 Bft) S 170 0 min 0,000 mm 0,0 UV-I 0 W/m -2,4 C 2,9 C 8,0 km/h (2 Bft) 100,00 %
27.11.2017 18:54 3,0 C 4,4 C 68 % 1021,0 hPa 0,0 l/m 4,9 km/h (1 Bft) S 182 0 min 0,000 mm 0,0 UV-I 0 W/m -2,3 C 3,0 C 11,3 km/h (2 Bft) 100,00 %
27.11.2017 18:56 3,1 C 4,4 C 68 % 1021,1 hPa 0,0 l/m 4,4 km/h (1 Bft) S-SW 192 0 min 0,000 mm 0,0 UV-I 0 W/m -2,2 C 3,1 C 8,0 km/h (2 Bft) 100,00 %
27.11.2017 18:58 3,1 C 4,4 C 68 % 1021,0 hPa 0,0 l/m 4,7 km/h (1 Bft) S 188 0 min 0,000 mm 0,0 UV-I 0 W/m -2,2 C 3,1 C 12,9 km/h (3 Bft) 97,87 %
27.11.2017 19:00 3,1 C 4,4 C 68 % 1021,0 hPa 0,0 l/m 3,2 km/h (1 Bft) S 184 0 min 0,025 mm 0,0 UV-I 0 W/m -2,2 C 3,1 C 8,0 km/h (2 Bft) 95,74 %
27.11.2017 19:02 3,1 C 4,4 C 68 % 1021,0 hPa 0,0 l/m 4,2 km/h (1 Bft) S-SW 203 0 min 0,000 mm 0,0 UV-I 0 W/m -2,2 C 3,1 C 8,0 km/h (2 Bft) 95,74 %
27.11.2017 19:04 3,0 C 4,4 C 68 % 1021,0 hPa 0,0 l/m 4,6 km/h (1 Bft) S-SW 194 0 min 0,000 mm 0,0 UV-I 0 W/m -2,3 C 3,0 C 8,0 km/h (2 Bft) 97,87 %
27.11.2017 19:06 2,9 C 4,4 C 69 % 1021,0 hPa 0,0 l/m 4,5 km/h (1 Bft) S-SW 194 0 min 0,000 mm 0,0 UV-I 0 W/m -2,2 C 2,9 C 6,4 km/h (2 Bft) 97,87 %
27.11.2017 19:08 2,8 C 4,4 C 70 % 1020,9 hPa 0,0 l/m 4,9 km/h (1 Bft) S-SW 194 0 min 0,000 mm 0,0 UV-I 0 W/m -2,1 C 2,8 C 6,4 km/h (2 Bft) 98,00 %
27.11.2017 19:10 2,7 C 4,4 C 70 % 1020,9 hPa 0,0 l/m 3,7 km/h (1 Bft) S 187 0 min 0,000 mm 0,0 UV-I 0 W/m -2,2 C 2,7 C 6,4 km/h (2 Bft) 97,87 %
27.11.2017 19:12 2,7 C 4,4 C 71 % 1020,9 hPa 0,0 l/m 5,2 km/h (1 Bft) S-SW 206 0 min 0,000 mm 0,0 UV-I 0 W/m -2,0 C 2,7 C 8,0 km/h (2 Bft) 100,00 %
27.11.2017 19:14 2,7 C 4,4 C 71 % 1020,8 hPa 0,0 l/m 4,8 km/h (1 Bft) S-SW 199 0 min 0,000 mm 0,0 UV-I 0 W/m -2,0 C 2,7 C 6,4 km/h (2 Bft) 100,00 %
27.11.2017 19:16 2,7 C 4,4 C 71 % 1020,9 hPa 0,0 l/m 5,1 km/h (1 Bft) SW 219 0 min 0,000 mm 0,0 UV-I 0 W/m -2,0 C 2,7 C 8,0 km/h (2 Bft) 100,00 %
27.11.2017 19:18 2,7 C 4,4 C 70 % 1020,8 hPa 0,0 l/m 4,4 km/h (1 Bft) S-SW 207 0 min 0,000 mm 0,0 UV-I 0 W/m -2,2 C 2,7 C 9,7 km/h (2 Bft) 100,00 %
27.11.2017 19:20 2,8 C 4,4 C 70 % 1020,8 hPa 0,0 l/m 5,2 km/h (1 Bft) S 180 0 min 0,000 mm 0,0 UV-I 0 W/m -2,1 C 2,8 C 8,0 km/h (2 Bft) 100,00 %
27.11.2017 19:22 2,8 C 4,4 C 69 % 1020,8 hPa 0,0 l/m 4,5 km/h (1 Bft) S-SW 198 0 min 0,000 mm 0,0 UV-I 0 W/m -2,3 C 2,8 C 6,4 km/h (2 Bft) 100,00 %
27.11.2017 19:24 2,8 C 4,4 C 69 % 1020,8 hPa 0,0 l/m 5,3 km/h (1 Bft) S-SW 201 0 min 0,000 mm 0,0 UV-I 0 W/m -2,3 C 2,8 C 8,0 km/h (2 Bft) 97,87 %
27.11.2017 19:26 2,9 C 4,4 C 69 % 1020,8 hPa 0,0 l/m 4,4 km/h (1 Bft) S-SW 202 0 min 0,000 mm 0,0 UV-I 0 W/m -2,2 C 2,9 C 6,4 km/h (2 Bft) 97,87 %
27.11.2017 19:28 2,8 C 4,4 C 69 % 1020,7 hPa 0,0 l/m 4,3 km/h (1 Bft) S-SW 198 0 min 0,000 mm 0,0 UV-I 0 W/m -2,3 C 2,8 C 6,4 km/h (2 Bft) 100,00 %
27.11.2017 19:30 2,8 C 4,4 C 69 % 1020,7 hPa 0,0 l/m 3,2 km/h (1 Bft) S-SW 206 0 min 0,000 mm 0,0 UV-I 0 W/m -2,3 C 2,8 C 4,8 km/h (1 Bft) 100,00 %
27.11.2017 19:32 2,8 C 4,4 C 69 % 1020,7 hPa 0,0 l/m 5,4 km/h (1 Bft) S-SW 210 0 min 0,000 mm 0,0 UV-I 0 W/m -2,3 C 2,8 C 8,0 km/h (2 Bft) 97,87 %
27.11.2017 19:34 2,9 C 4,4 C 69 % 1020,7 hPa 0,0 l/m 5,9 km/h (2 Bft) SW 236 0 min 0,000 mm 0,0 UV-I 0 W/m -2,2 C 2,9 C 8,0 km/h (2 Bft) 100,00 %
27.11.2017 19:36 2,9 C 4,4 C 70 % 1020,7 hPa 0,0 l/m 4,7 km/h (1 Bft) SW 220 0 min 0,000 mm 0,0 UV-I 0 W/m -2,0 C 2,9 C 8,0 km/h (2 Bft) 100,00 %
27.11.2017 19:38 2,8 C 4,4 C 70 % 1020,6 hPa 0,0 l/m 4,6 km/h (1 Bft) SW 220 0 min 0,000 mm 0,0 UV-I 0 W/m -2,1 C 2,8 C 6,4 km/h (2 Bft) 100,00 %
27.11.2017 19:40 2,8 C 4,4 C 71 % 1020,7 hPa 0,0 l/m 4,1 km/h (1 Bft) SW 221 0 min 0,000 mm 0,0 UV-I 0 W/m -1,9 C 2,8 C 6,4 km/h (2 Bft) 100,00 %
27.11.2017 19:42 2,7 C 4,4 C 72 % 1020,7 hPa 0,0 l/m 5,2 km/h (1 Bft) SW 226 0 min 0,000 mm 0,0 UV-I 0 W/m -1,8 C 2,7 C 6,4 km/h (2 Bft) 100,00 %
27.11.2017 19:44 2,7 C 4,4 C 72 % 1020,7 hPa 0,0 l/m 5,1 km/h (1 Bft) SW 228 0 min 0,000 mm 0,0 UV-I 0 W/m -1,8 C 2,7 C 8,0 km/h (2 Bft) 95,74 %
27.11.2017 19:46 2,6 C 4,4 C 73 % 1020,6 hPa 0,0 l/m 4,5 km/h (1 Bft) W-SW 256 0 min 0,000 mm 0,0 UV-I 0 W/m -1,7 C 2,6 C 6,4 km/h (2 Bft) 100,00 %
27.11.2017 19:48 2,6 C 4,4 C 73 % 1020,6 hPa 0,0 l/m 2,8 km/h (1 Bft) W-SW 255 0 min 0,000 mm 0,0 UV-I 0 W/m -1,7 C 2,6 C 4,8 km/h (1 Bft) 100,00 %
27.11.2017 19:50 2,5 C 4,4 C 74 % 1020,6 hPa 0,0 l/m 2,7 km/h (1 Bft) W-SW 255 0 min 0,000 mm 0,0 UV-I 0 W/m -1,7 C 2,5 C 3,2 km/h (1 Bft) 100,00 %
27.11.2017 19:52 2,4 C 4,4 C 74 % 1020,5 hPa 0,0 l/m 2,6 km/h (1 Bft) W-SW 255 0 min 0,000 mm 0,0 UV-I 0 W/m -1,7 C 2,4 C 4,8 km/h (1 Bft) 97,87 %
27.11.2017 19:54 2,4 C 4,4 C 75 % 1020,5 hPa 0,0 l/m 1,9 km/h (1 Bft) W-SW 256 0 min 0,000 mm 0,0 UV-I 0 W/m -1,6 C 2,4 C 4,8 km/h (1 Bft) 100,00 %
27.11.2017 19:56 2,3 C 4,4 C 76 % 1020,5 hPa 0,0 l/m 2,1 km/h (1 Bft) W-SW 244 0 min 0,000 mm 0,0 UV-I 0 W/m -1,5 C 2,3 C 3,2 km/h (1 Bft) 100,00 %
27.11.2017 19:58 2,3 C 4,4 C 75 % 1020,4 hPa 0,0 l/m 2,3 km/h (1 Bft) W-SW 244 0 min 0,000 mm 0,0 UV-I 0 W/m -1,7 C 2,3 C 4,8 km/h (1 Bft) 97,92 %
27.11.2017 20:00 2,3 C 4,4 C 76 % 1020,5 hPa 0,0 l/m 3,8 km/h (1 Bft) W-SW 243 0 min 0,000 mm 0,0 UV-I 0 W/m -1,5 C 2,3 C 4,8 km/h (1 Bft) 100,00 %
27.11.2017 20:02 2,3 C 4,4 C 74 % 1020,4 hPa 0,0 l/m 4,7 km/h (1 Bft) S-SW 210 0 min 0,026 mm 0,0 UV-I 0 W/m -1,8 C 2,3 C 8,0 km/h (2 Bft) 97,87 %
27.11.2017 20:04 2,4 C 4,4 C 73 % 1020,4 hPa 0,0 l/m 4,6 km/h (1 Bft) SW 217 0 min 0,000 mm 0,0 UV-I 0 W/m -1,9 C 2,4 C 8,0 km/h (2 Bft) 100,00 %
27.11.2017 20:06 2,4 C 4,4 C 73 % 1020,3 hPa 0,0 l/m 3,9 km/h (1 Bft) SW 217 0 min 0,000 mm 0,0 UV-I 0 W/m -1,9 C 2,4 C 4,8 km/h (1 Bft) 100,00 %
27.11.2017 20:08 2,4 C 4,4 C 73 % 1020,3 hPa 0,0 l/m 3,4 km/h (1 Bft) SW 217 0 min 0,000 mm 0,0 UV-I 0 W/m -1,9 C 2,4 C 4,8 km/h (1 Bft) 100,00 %
27.11.2017 20:10 2,3 C 4,4 C 73 % 1020,3 hPa 0,0 l/m 3,6 km/h (1 Bft) SW 217 0 min 0,000 mm 0,0 UV-I 0 W/m -2,0 C 2,3 C 6,4 km/h (2 Bft) 100,00 %
27.11.2017 20:12 2,3 C 4,4 C 74 % 1020,2 hPa 0,0 l/m 4,4 km/h (1 Bft) SW 217 0 min 0,000 mm 0,0 UV-I 0 W/m -1,8 C 2,3 C 6,4 km/h (2 Bft) 100,00 %
27.11.2017 20:14 2,2 C 4,4 C 74 % 1020,2 hPa 0,0 l/m 5,1 km/h (1 Bft) W-SW 242 0 min 0,000 mm 0,0 UV-I 0 W/m -1,9 C 2,2 C 6,4 km/h (2 Bft) 100,00 %
27.11.2017 20:16 2,2 C 4,4 C 74 % 1020,2 hPa 0,0 l/m 6,1 km/h (2 Bft) SW 220 0 min 0,000 mm 0,0 UV-I 0 W/m -1,9 C 2,2 C 8,0 km/h (2 Bft) 100,00 %
27.11.2017 20:18 2,1 C 4,4 C 75 % 1020,2 hPa 0,0 l/m 4,6 km/h (1 Bft) SW 229 0 min 0,000 mm 0,0 UV-I 0 W/m -1,9 C 2,1 C 8,0 km/h (2 Bft) 100,00 %
27.11.2017 20:20 2,1 C 4,4 C 76 % 1020,2 hPa 0,0 l/m 6,0 km/h (2 Bft) S-SW 211 0 min 0,000 mm 0,0 UV-I 0 W/m -1,7 C 2,1 C 8,0 km/h (2 Bft) 100,00 %
27.11.2017 20:22 2,0 C 4,4 C 76 % 1020,1 hPa 0,0 l/m 7,1 km/h (2 Bft) S 190 0 min 0,000 mm 0,0 UV-I 0 W/m -1,8 C 1,3 C 11,3 km/h (2 Bft) 95,74 %
27.11.2017 20:24 2,1 C 4,4 C 75 % 1020,1 hPa 0,0 l/m 7,9 km/h (2 Bft) SW 219 0 min 0,000 mm 0,0 UV-I 0 W/m -1,9 C 0,7 C 12,9 km/h (3 Bft) 97,87 %
27.11.2017 20:26 2,2 C 4,4 C 74 % 1020,1 hPa 0,0 l/m 4,9 km/h (1 Bft) W 261 0 min 0,000 mm 0,0 UV-I 0 W/m -1,9 C 2,2 C 8,0 km/h (2 Bft) 93,62 %
27.11.2017 20:28 2,1 C 4,4 C 76 % 1020,2 hPa 0,0 l/m 6,6 km/h (2 Bft) W-SW 256 0 min 0,000 mm 0,0 UV-I 0 W/m -1,7 C 1,9 C 11,3 km/h (2 Bft) 97,87 %
27.11.2017 20:30 2,0 C 4,4 C 76 % 1020,1 hPa 0,0 l/m 6,3 km/h (2 Bft) W-NW 289 0 min 0,000 mm 0,0 UV-I 0 W/m -1,8 C 2,0 C 11,3 km/h (2 Bft) 97,87 %
27.11.2017 20:32 1,9 C 4,4 C 76 % 1020,0 hPa 0,0 l/m 4,7 km/h (1 Bft) W-SW 254 0 min 0,000 mm 0,0 UV-I 0 W/m -1,9 C 1,9 C 8,0 km/h (2 Bft) 95,74 %
27.11.2017 20:34 1,9 C 4,4 C 76 % 1020,0 hPa 0,0 l/m 6,1 km/h (2 Bft) SW 231 0 min 0,000 mm 0,0 UV-I 0 W/m -1,9 C 1,9 C 11,3 km/h (2 Bft) 96,00 %
27.11.2017 20:36 2,0 C 4,4 C 75 % 1019,9 hPa 0,0 l/m 7,9 km/h (2 Bft) W-SW 246 0 min 0,000 mm 0,0 UV-I 0 W/m -2,0 C 0,5 C 14,5 km/h (3 Bft) 96,00 %
27.11.2017 20:38 2,1 C 4,4 C 74 % 1019,9 hPa 0,0 l/m 7,7 km/h (2 Bft) W 271 0 min 0,000 mm 0,0 UV-I 0 W/m -2,0 C 0,8 C 11,3 km/h (2 Bft) 95,74 %
27.11.2017 20:40 2,1 C 4,4 C 75 % 1019,9 hPa 0,0 l/m 5,3 km/h (1 Bft) SW 225 0 min 0,000 mm 0,0 UV-I 0 W/m -1,9 C 2,1 C 11,3 km/h (2 Bft) 94,00 %
27.11.2017 20:42 2,1 C 4,4 C 75 % 1019,9 hPa 0,0 l/m 6,3 km/h (2 Bft) S-SW 207 0 min 0,000 mm 0,0 UV-I 0 W/m -1,9 C 2,1 C 9,7 km/h (2 Bft) 100,00 %
27.11.2017 20:44 2,0 C 4,4 C 75 % 1019,8 hPa 0,0 l/m 9,4 km/h (2 Bft) S-SW 204 0 min 0,000 mm 0,0 UV-I 0 W/m -2,0 C -0,8 C 16,1 km/h (3 Bft) 93,62 %
27.11.2017 20:46 2,1 C 4,4 C 74 % 1019,8 hPa 0,0 l/m 7,5 km/h (2 Bft) W-SW 240 0 min 0,000 mm 0,0 UV-I 0 W/m -2,0 C 1,0 C 11,3 km/h (2 Bft) 97,87 %
27.11.2017 20:48 2,2 C 4,4 C 74 % 1019,8 hPa 0,0 l/m 7,6 km/h (2 Bft) SW 226 0 min 0,000 mm 0,0 UV-I 0 W/m -1,9 C 1,0 C 11,3 km/h (2 Bft) 97,87 %
27.11.2017 20:50 2,2 C 4,4 C 74 % 1019,8 hPa 0,0 l/m 7,4 km/h (2 Bft) W-SW 238 0 min 0,000 mm 0,0 UV-I 0 W/m -1,9 C 1,2 C 9,7 km/h (2 Bft) 94,00 %
27.11.2017 20:52 2,2 C 4,4 C 74 % 1019,8 hPa 0,0 l/m 7,9 km/h (2 Bft) S-SW 198 0 min 0,000 mm 0,0 UV-I 0 W/m -1,9 C 0,8 C 12,9 km/h (3 Bft) 95,74 %
27.11.2017 20:54 2,2 C 4,4 C 74 % 1019,7 hPa 0,0 l/m 10,7 km/h (2 Bft) W-SW 243 0 min 0,000 mm 0,0 UV-I 0 W/m -1,9 C -1,6 C 16,1 km/h (3 Bft) 96,00 %
27.11.2017 20:56 2,3 C 4,4 C 73 % 1019,7 hPa 0,0 l/m 8,8 km/h (2 Bft) S-SW 205 0 min 0,000 mm 0,0 UV-I 0 W/m -2,0 C 0,1 C 12,9 km/h (3 Bft) 95,74 %
27.11.2017 20:58 2,4 C 4,4 C 73 % 1019,7 hPa 0,0 l/m 8,8 km/h (2 Bft) SW 221 0 min 0,000 mm 0,0 UV-I 0 W/m -1,9 C 0,2 C 14,5 km/h (3 Bft) 95,74 %
27.11.2017 21:00 2,4 C 4,4 C 72 % 1019,7 hPa 0,0 l/m 6,9 km/h (2 Bft) W-SW 247 0 min 0,000 mm 0,0 UV-I 0 W/m -2,1 C 1,9 C 9,7 km/h (2 Bft) 95,74 %
27.11.2017 21:02 2,5 C 4,4 C 72 % 1019,7 hPa 0,0 l/m 9,3 km/h (2 Bft) S 188 0 min 0,025 mm 0,0 UV-I 0 W/m -2,0 C -0,1 C 16,1 km/h (3 Bft) 98,00 %
27.11.2017 21:04 2,5 C 4,4 C 73 % 1019,6 hPa 0,0 l/m 9,3 km/h (2 Bft) S-SW 207 0 min 0,000 mm 0,0 UV-I 0 W/m -1,8 C -0,1 C 12,9 km/h (3 Bft) 92,11 %
27.11.2017 21:06 2,4 C 4,4 C 73 % 1019,6 hPa 0,0 l/m 7,8 km/h (2 Bft) S-SW 210 0 min 0,000 mm 0,0 UV-I 0 W/m -1,9 C 1,1 C 12,9 km/h (3 Bft) 96,00 %
27.11.2017 21:08 2,4 C 4,4 C 73 % 1019,6 hPa 0,0 l/m 9,0 km/h (2 Bft) S-SW 203 0 min 0,000 mm 0,0 UV-I 0 W/m -1,9 C 0,0 C 14,5 km/h (3 Bft) 97,87 %
27.11.2017 21:10 2,5 C 4,4 C 72 % 1019,6 hPa 0,0 l/m 10,0 km/h (2 Bft) S-SW 209 0 min 0,000 mm 0,0 UV-I 0 W/m -2,0 C -0,7 C 12,9 km/h (3 Bft) 97,87 %
27.11.2017 21:12 2,6 C 4,4 C 72 % 1019,5 hPa 0,0 l/m 10,8 km/h (2 Bft) S 187 0 min 0,000 mm 0,0 UV-I 0 W/m -1,9 C -1,2 C 14,5 km/h (3 Bft) 97,87 %
27.11.2017 21:14 2,7 C 4,4 C 71 % 1019,5 hPa 0,0 l/m 10,2 km/h (2 Bft) SW 234 0 min 0,000 mm 0,0 UV-I 0 W/m -2,0 C -0,6 C 12,9 km/h (3 Bft) 95,74 %
27.11.2017 21:16 2,7 C 4,4 C 71 % 1019,5 hPa 0,0 l/m 7,8 km/h (2 Bft) SW 231 0 min 0,000 mm 0,0 UV-I 0 W/m -2,0 C 1,4 C 11,3 km/h (2 Bft) 95,74 %
27.11.2017 21:18 2,8 C 4,4 C 70 % 1019,4 hPa 0,0 l/m 8,3 km/h (2 Bft) S-SW 204 0 min 0,000 mm 0,0 UV-I 0 W/m -2,1 C 1,0 C 12,9 km/h (3 Bft) 98,00 %
27.11.2017 21:20 2,8 C 4,4 C 70 % 1019,4 hPa 0,0 l/m 7,9 km/h (2 Bft) SW 216 0 min 0,000 mm 0,0 UV-I 0 W/m -2,1 C 1,4 C 12,9 km/h (3 Bft) 95,74 %
27.11.2017 21:22 2,9 C 4,4 C 70 % 1019,4 hPa 0,0 l/m 8,5 km/h (2 Bft) S-SW 207 0 min 0,000 mm 0,0 UV-I 0 W/m -2,0 C 1,0 C 11,3 km/h (2 Bft) 95,92 %
27.11.2017 21:24 2,9 C 4,4 C 69 % 1019,4 hPa 0,0 l/m 8,6 km/h (2 Bft) S-SW 211 0 min 0,000 mm 0,0 UV-I 0 W/m -2,2 C 0,9 C 11,3 km/h (2 Bft) 97,37 %
27.11.2017 21:26 2,9 C 4,4 C 69 % 1019,4 hPa 0,0 l/m 7,2 km/h (2 Bft) S-SO 167 0 min 0,000 mm 0,0 UV-I 0 W/m -2,2 C 2,1 C 9,7 km/h (2 Bft) 96,00 %
27.11.2017 21:28 2,9 C 4,4 C 69 % 1019,4 hPa 0,0 l/m 7,4 km/h (2 Bft) S-SO 163 0 min 0,000 mm 0,0 UV-I 0 W/m -2,2 C 1,9 C 9,7 km/h (2 Bft) 96,00 %
27.11.2017 21:30 2,9 C 4,4 C 70 % 1019,4 hPa 0,0 l/m 6,1 km/h (2 Bft) S-SW 198 0 min 0,000 mm 0,0 UV-I 0 W/m -2,0 C 2,9 C 9,7 km/h (2 Bft) 97,87 %
27.11.2017 21:32 2,8 C 4,4 C 70 % 1019,4 hPa 0,0 l/m 5,5 km/h (1 Bft) S-SW 212 0 min 0,000 mm 0,0 UV-I 0 W/m -2,1 C 2,8 C 8,0 km/h (2 Bft) 95,74 %
27.11.2017 21:34 2,7 C 4,4 C 71 % 1019,3 hPa 0,0 l/m 5,7 km/h (1 Bft) S-SW 202 0 min 0,000 mm 0,0 UV-I 0 W/m -2,0 C 2,7 C 8,0 km/h (2 Bft) 97,30 %
27.11.2017 21:36 2,7 C 4,4 C 71 % 1019,3 hPa 0,0 l/m 5,6 km/h (1 Bft) S 188 0 min 0,000 mm 0,0 UV-I 0 W/m -2,0 C 2,7 C 8,0 km/h (2 Bft) 97,96 %
27.11.2017 21:38 2,7 C 4,4 C 71 % 1019,2 hPa 0,0 l/m 4,6 km/h (1 Bft) S 180 0 min 0,000 mm 0,0 UV-I 0 W/m -2,0 C 2,7 C 6,4 km/h (2 Bft) 97,87 %
27.11.2017 21:40 2,7 C 4,4 C 70 % 1019,2 hPa 0,0 l/m 5,7 km/h (1 Bft) S-SW 197 0 min 0,000 mm 0,0 UV-I 0 W/m -2,2 C 2,7 C 8,0 km/h (2 Bft) 97,87 %
27.11.2017 21:42 2,8 C 4,4 C 70 % 1019,2 hPa 0,0 l/m 6,0 km/h (2 Bft) S 189 0 min 0,000 mm 0,0 UV-I 0 W/m -2,1 C 2,8 C 8,0 km/h (2 Bft) 98,00 %
27.11.2017 21:44 2,8 C 4,4 C 70 % 1019,2 hPa 0,0 l/m 5,6 km/h (1 Bft) S 183 0 min 0,000 mm 0,0 UV-I 0 W/m -2,1 C 2,8 C 8,0 km/h (2 Bft) 97,87 %
27.11.2017 21:46 2,8 C 4,4 C 70 % 1019,1 hPa 0,0 l/m 5,2 km/h (1 Bft) S-SW 196 0 min 0,000 mm 0,0 UV-I 0 W/m -2,1 C 2,8 C 8,0 km/h (2 Bft) 93,62 %
27.11.2017 21:48 2,8 C 4,4 C 70 % 1019,0 hPa 0,0 l/m 5,2 km/h (1 Bft) S-SW 193 0 min 0,000 mm 0,0 UV-I 0 W/m -2,1 C 2,8 C 6,4 km/h (2 Bft) 97,83 %
27.11.2017 21:50 2,8 C 4,4 C 70 % 1019,0 hPa 0,0 l/m 4,8 km/h (1 Bft) S-SW 196 0 min 0,000 mm 0,0 UV-I 0 W/m -2,1 C 2,8 C 8,0 km/h (2 Bft) 97,87 %
27.11.2017 21:52 2,8 C 4,4 C 69 % 1019,0 hPa 0,0 l/m 5,5 km/h (1 Bft) S-SW 200 0 min 0,000 mm 0,0 UV-I 0 W/m -2,3 C 2,8 C 8,0 km/h (2 Bft) 97,87 %
27.11.2017 21:54 2,8 C 4,4 C 70 % 1019,0 hPa 0,0 l/m 5,7 km/h (1 Bft) S-SW 201 0 min 0,000 mm 0,0 UV-I 0 W/m -2,1 C 2,8 C 8,0 km/h (2 Bft) 93,88 %
27.11.2017 21:56 2,7 C 4,4 C 70 % 1019,0 hPa 0,0 l/m 4,7 km/h (1 Bft) S-SW 204 0 min 0,000 mm 0,0 UV-I 0 W/m -2,2 C 2,7 C 6,4 km/h (2 Bft) 97,87 %
27.11.2017 21:58 2,6 C 4,4 C 70 % 1019,0 hPa 0,0 l/m 5,1 km/h (1 Bft) S 189 0 min 0,000 mm 0,0 UV-I 0 W/m -2,3 C 2,6 C 6,4 km/h (2 Bft) 95,74 %
27.11.2017 22:00 2,6 C 4,4 C 71 % 1019,0 hPa 0,0 l/m 3,8 km/h (1 Bft) S 188 0 min 0,026 mm 0,0 UV-I 0 W/m -2,1 C 2,6 C 4,8 km/h (1 Bft) 97,87 %
27.11.2017 22:02 2,5 C 4,4 C 71 % 1018,9 hPa 0,0 l/m 3,0 km/h (1 Bft) S 183 0 min 0,000 mm 0,0 UV-I 0 W/m -2,2 C 2,5 C 4,8 km/h (1 Bft) 97,92 %
27.11.2017 22:04 2,4 C 4,4 C 71 % 1018,9 hPa 0,0 l/m 4,3 km/h (1 Bft) S 172 0 min 0,000 mm 0,0 UV-I 0 W/m -2,3 C 2,4 C 8,0 km/h (2 Bft) 97,87 %
27.11.2017 22:06 2,5 C 4,4 C 70 % 1018,9 hPa 0,0 l/m 4,0 km/h (1 Bft) S-SW 195 0 min 0,000 mm 0,0 UV-I 0 W/m -2,4 C 2,5 C 8,0 km/h (2 Bft) 95,74 %
27.11.2017 22:08 2,5 C 4,4 C 70 % 1018,9 hPa 0,0 l/m 3,2 km/h (1 Bft) S 185 0 min 0,000 mm 0,0 UV-I 0 W/m -2,4 C 2,5 C 4,8 km/h (1 Bft) 100,00 %
27.11.2017 22:10 2,5 C 4,4 C 70 % 1018,9 hPa 0,0 l/m 2,7 km/h (1 Bft) S 184 0 min 0,000 mm 0,0 UV-I 0 W/m -2,4 C 2,5 C 4,8 km/h (1 Bft) 100,00 %
27.11.2017 22:12 2,4 C 4,4 C 70 % 1018,9 hPa 0,0 l/m 2,9 km/h (1 Bft) S 179 0 min 0,000 mm 0,0 UV-I 0 W/m -2,5 C 2,4 C 4,8 km/h (1 Bft) 100,00 %
27.11.2017 22:14 2,4 C 4,4 C 70 % 1018,9 hPa 0,0 l/m 5,0 km/h (1 Bft) S-SW 203 0 min 0,000 mm 0,0 UV-I 0 W/m -2,5 C 2,4 C 8,0 km/h (2 Bft) 95,74 %
27.11.2017 22:16 2,4 C 4,4 C 70 % 1018,9 hPa 0,0 l/m 3,1 km/h (1 Bft) S-SW 203 0 min 0,000 mm 0,0 UV-I 0 W/m -2,5 C 2,4 C 4,8 km/h (1 Bft) 97,37 %
27.11.2017 22:18 2,3 C 4,4 C 70 % 1018,8 hPa 0,0 l/m 4,2 km/h (1 Bft) S-SW 202 0 min 0,000 mm 0,0 UV-I 0 W/m -2,6 C 2,3 C 6,4 km/h (2 Bft) 100,00 %
27.11.2017 22:20 2,2 C 4,4 C 71 % 1018,8 hPa 0,0 l/m 2,6 km/h (1 Bft) S-SW 202 0 min 0,000 mm 0,0 UV-I 0 W/m -2,5 C 2,2 C 4,8 km/h (1 Bft) 100,00 %
27.11.2017 22:22 2,0 C 4,4 C 72 % 1018,8 hPa 0,0 l/m 3,1 km/h (1 Bft) S-SW 202 0 min 0,000 mm 0,0 UV-I 0 W/m -2,5 C 2,0 C 4,8 km/h (1 Bft) 96,23 %
27.11.2017 22:24 1,9 C 4,4 C 72 % 1018,7 hPa 0,0 l/m 2,3 km/h (1 Bft) S-SW 202 0 min 0,000 mm 0,0 UV-I 0 W/m -2,6 C 1,9 C 4,8 km/h (1 Bft) 97,87 %
27.11.2017 22:26 1,9 C 4,4 C 72 % 1018,7 hPa 0,0 l/m 3,3 km/h (1 Bft) S-SW 202 0 min 0,000 mm 0,0 UV-I 0 W/m -2,6 C 1,9 C 4,8 km/h (1 Bft) 100,00 %
27.11.2017 22:28 1,8 C 4,4 C 74 % 1018,7 hPa 0,0 l/m 2,1 km/h (1 Bft) S-SW 202 0 min 0,000 mm 0,0 UV-I 0 W/m -2,3 C 1,8 C 3,2 km/h (1 Bft) 100,00 %
27.11.2017 22:30 1,7 C 4,4 C 74 % 1018,7 hPa 0,0 l/m 3,7 km/h (1 Bft) S-SW 203 0 min 0,000 mm 0,0 UV-I 0 W/m -2,4 C 1,7 C 4,8 km/h (1 Bft) 97,87 %
27.11.2017 22:32 1,8 C 4,4 C 73 % 1018,6 hPa 0,0 l/m 3,2 km/h (1 Bft) S-SW 203 0 min 0,000 mm 0,0 UV-I 0 W/m -2,5 C 1,8 C 4,8 km/h (1 Bft) 100,00 %
27.11.2017 22:34 1,8 C 4,4 C 73 % 1018,7 hPa 0,0 l/m 3,2 km/h (1 Bft) S-SW 202 0 min 0,000 mm 0,0 UV-I 0 W/m -2,5 C 1,8 C 4,8 km/h (1 Bft) 97,87 %
27.11.2017 22:36 1,8 C 4,4 C 74 % 1018,5 hPa 0,0 l/m 2,5 km/h (1 Bft) S-SW 202 0 min 0,000 mm 0,0 UV-I 0 W/m -2,3 C 1,8 C 4,8 km/h (1 Bft) 93,75 %
27.11.2017 22:38 1,7 C 4,4 C 75 % 1018,5 hPa 0,0 l/m 0,9 km/h (0 Bft) S-SW 200 0 min 0,000 mm 0,0 UV-I 0 W/m -2,2 C 1,7 C 3,2 km/h (1 Bft) 97,96 %
27.11.2017 22:40 1,6 C 4,4 C 75 % 1018,5 hPa 0,0 l/m 2,5 km/h (1 Bft) S 170 0 min 0,000 mm 0,0 UV-I 0 W/m -2,3 C 1,6 C 4,8 km/h (1 Bft) 97,92 %
27.11.2017 22:42 1,6 C 4,4 C 75 % 1018,5 hPa 0,0 l/m 4,8 km/h (1 Bft) SW 228 0 min 0,000 mm 0,0 UV-I 0 W/m -2,3 C 1,6 C 6,4 km/h (2 Bft) 95,74 %
27.11.2017 22:44 1,6 C 4,4 C 75 % 1018,5 hPa 0,0 l/m 3,8 km/h (1 Bft) SW 228 0 min 0,000 mm 0,0 UV-I 0 W/m -2,3 C 1,6 C 4,8 km/h (1 Bft) 97,87 %
27.11.2017 22:46 1,6 C 4,4 C 75 % 1018,5 hPa 0,0 l/m 3,2 km/h (1 Bft) S 178 0 min 0,000 mm 0,0 UV-I 0 W/m -2,3 C 1,6 C 6,4 km/h (2 Bft) 98,00 %
27.11.2017 22:48 1,5 C 4,4 C 75 % 1018,4 hPa 0,0 l/m 3,8 km/h (1 Bft) S-SO 167 0 min 0,000 mm 0,0 UV-I 0 W/m -2,4 C 1,5 C 8,0 km/h (2 Bft) 97,14 %
27.11.2017 22:50 1,6 C 4,4 C 75 % 1018,4 hPa 0,0 l/m 5,4 km/h (1 Bft) S 180 0 min 0,000 mm 0,0 UV-I 0 W/m -2,3 C 1,6 C 8,0 km/h (2 Bft) 95,74 %
27.11.2017 22:52 1,8 C 4,4 C 74 % 1018,4 hPa 0,0 l/m 4,0 km/h (1 Bft) S-SW 197 0 min 0,000 mm 0,0 UV-I 0 W/m -2,3 C 1,8 C 8,0 km/h (2 Bft) 95,74 %
27.11.2017 22:54 1,9 C 4,4 C 74 % 1018,4 hPa 0,0 l/m 3,7 km/h (1 Bft) S 184 0 min 0,000 mm 0,0 UV-I 0 W/m -2,2 C 1,9 C 6,4 km/h (2 Bft) 97,87 %
27.11.2017 22:56 2,0 C 4,4 C 73 % 1018,4 hPa 0,0 l/m 3,6 km/h (1 Bft) S-SW 200 0 min 0,000 mm 0,0 UV-I 0 W/m -2,3 C 2,0 C 4,8 km/h (1 Bft) 93,62 %
27.11.2017 22:58 1,9 C 4,4 C 73 % 1018,4 hPa 0,0 l/m 3,0 km/h (1 Bft) S-SW 197 0 min 0,000 mm 0,0 UV-I 0 W/m -2,4 C 1,9 C 4,8 km/h (1 Bft) 97,87 %
27.11.2017 23:00 1,9 C 4,4 C 73 % 1018,3 hPa 0,0 l/m 3,7 km/h (1 Bft) S 169 0 min 0,000 mm 0,0 UV-I 0 W/m -2,4 C 1,9 C 8,0 km/h (2 Bft) 95,74 %
27.11.2017 23:02 2,0 C 4,4 C 74 % 1018,3 hPa 0,0 l/m 4,5 km/h (1 Bft) S 169 0 min 0,000 mm 0,0 UV-I 0 W/m -2,1 C 2,0 C 8,0 km/h (2 Bft) 93,62 %
27.11.2017 23:04 2,1 C 4,4 C 73 % 1018,3 hPa 0,0 l/m 3,4 km/h (1 Bft) S 178 0 min 0,000 mm 0,0 UV-I 0 W/m -2,2 C 2,1 C 6,4 km/h (2 Bft) 96,00 %
27.11.2017 23:06 2,1 C 4,4 C 74 % 1018,2 hPa 0,0 l/m 3,2 km/h (1 Bft) S-SO 168 0 min 0,000 mm 0,0 UV-I 0 W/m -2,0 C 2,1 C 4,8 km/h (1 Bft) 95,74 %
27.11.2017 23:08 2,2 C 4,4 C 72 % 1018,2 hPa 0,0 l/m 4,5 km/h (1 Bft) S 181 0 min 0,000 mm 0,0 UV-I 0 W/m -2,3 C 2,2 C 8,0 km/h (2 Bft) 95,74 %
27.11.2017 23:10 2,3 C 4,4 C 72 % 1018,1 hPa 0,0 l/m 3,2 km/h (1 Bft) S-SW 195 0 min 0,000 mm 0,0 UV-I 0 W/m -2,2 C 2,3 C 6,4 km/h (2 Bft) 97,87 %
27.11.2017 23:12 2,4 C 4,4 C 72 % 1018,1 hPa 0,0 l/m 3,4 km/h (1 Bft) S-SW 192 0 min 0,000 mm 0,0 UV-I 0 W/m -2,1 C 2,4 C 4,8 km/h (1 Bft) 97,87 %
27.11.2017 23:14 2,3 C 4,4 C 72 % 1018,0 hPa 0,0 l/m 3,8 km/h (1 Bft) S 191 0 min 0,000 mm 0,0 UV-I 0 W/m -2,2 C 2,3 C 8,0 km/h (2 Bft) 95,74 %
27.11.2017 23:16 2,3 C 4,4 C 72 % 1018,0 hPa 0,0 l/m 3,9 km/h (1 Bft) S 173 0 min 0,000 mm 0,0 UV-I 0 W/m -2,2 C 2,3 C 6,4 km/h (2 Bft) 100,00 %
27.11.2017 23:18 2,3 C 4,4 C 73 % 1017,9 hPa 0,0 l/m 3,4 km/h (1 Bft) S 177 0 min 0,000 mm 0,0 UV-I 0 W/m -2,0 C 2,3 C 6,4 km/h (2 Bft) 95,74 %
27.11.2017 23:20 2,3 C 4,4 C 73 % 1017,9 hPa 0,0 l/m 4,9 km/h (1 Bft) S 177 0 min 0,000 mm 0,0 UV-I 0 W/m -2,0 C 2,3 C 6,4 km/h (2 Bft) 100,00 %
27.11.2017 23:22 2,3 C 4,4 C 73 % 1017,9 hPa 0,0 l/m 4,0 km/h (1 Bft) S 189 0 min 0,000 mm 0,0 UV-I 0 W/m -2,0 C 2,3 C 4,8 km/h (1 Bft) 100,00 %
27.11.2017 23:24 2,3 C 4,4 C 73 % 1017,8 hPa 0,0 l/m 4,5 km/h (1 Bft) S-SO 166 0 min 0,000 mm 0,0 UV-I 0 W/m -2,0 C 2,3 C 6,4 km/h (2 Bft) 100,00 %
27.11.2017 23:26 2,5 C 4,4 C 73 % 1017,8 hPa 0,0 l/m 3,5 km/h (1 Bft) S 175 0 min 0,000 mm 0,0 UV-I 0 W/m -1,8 C 2,5 C 6,4 km/h (2 Bft) 100,00 %
27.11.2017 23:28 2,7 C 4,4 C 71 % 1017,8 hPa 0,0 l/m 3,2 km/h (1 Bft) S 176 0 min 0,000 mm 0,0 UV-I 0 W/m -2,0 C 2,7 C 6,4 km/h (2 Bft) 97,87 %
27.11.2017 23:30 2,9 C 4,4 C 70 % 1017,8 hPa 0,0 l/m 3,2 km/h (1 Bft) S 170 0 min 0,000 mm 0,0 UV-I 0 W/m -2,0 C 2,9 C 6,4 km/h (2 Bft) 100,00 %
27.11.2017 23:32 3,0 C 4,4 C 70 % 1017,7 hPa 0,0 l/m 4,5 km/h (1 Bft) S 180 0 min 0,000 mm 0,0 UV-I 0 W/m -1,9 C 3,0 C 6,4 km/h (2 Bft) 98,00 %
27.11.2017 23:34 2,9 C 4,4 C 70 % 1017,7 hPa 0,0 l/m 2,5 km/h (1 Bft) S 188 0 min 0,000 mm 0,0 UV-I 0 W/m -2,0 C 2,9 C 3,2 km/h (1 Bft) 97,37 %
27.11.2017 23:36 2,8 C 4,4 C 71 % 1017,7 hPa 0,0 l/m 4,1 km/h (1 Bft) S 182 0 min 0,000 mm 0,0 UV-I 0 W/m -1,9 C 2,8 C 6,4 km/h (2 Bft) 100,00 %
27.11.2017 23:38 2,7 C 4,4 C 71 % 1017,6 hPa 0,0 l/m 3,5 km/h (1 Bft) S-SO 159 0 min 0,000 mm 0,0 UV-I 0 W/m -2,0 C 2,7 C 8,0 km/h (2 Bft) 100,00 %
27.11.2017 23:40 2,7 C 4,4 C 72 % 1017,6 hPa 0,0 l/m 3,9 km/h (1 Bft) S-SW 193 0 min 0,000 mm 0,0 UV-I 0 W/m -1,8 C 2,7 C 6,4 km/h (2 Bft) 97,87 %
27.11.2017 23:42 2,5 C 4,4 C 73 % 1017,6 hPa 0,0 l/m 3,5 km/h (1 Bft) S-SW 198 0 min 0,000 mm 0,0 UV-I 0 W/m -1,8 C 2,5 C 4,8 km/h (1 Bft) 100,00 %
27.11.2017 23:44 2,4 C 4,4 C 73 % 1017,6 hPa 0,0 l/m 4,2 km/h (1 Bft) S-SW 196 0 min 0,000 mm 0,0 UV-I 0 W/m -1,9 C 2,4 C 6,4 km/h (2 Bft) 100,00 %
27.11.2017 23:46 2,4 C 4,4 C 73 % 1017,4 hPa 0,0 l/m 3,6 km/h (1 Bft) S-SW 195 0 min 0,000 mm 0,0 UV-I 0 W/m -1,9 C 2,4 C 6,4 km/h (2 Bft) 97,87 %
27.11.2017 23:48 2,3 C 4,4 C 74 % 1017,4 hPa 0,0 l/m 3,3 km/h (1 Bft) S-SW 194 0 min 0,000 mm 0,0 UV-I 0 W/m -1,8 C 2,3 C 4,8 km/h (1 Bft) 100,00 %
27.11.2017 23:50 2,4 C 4,4 C 73 % 1017,4 hPa 0,0 l/m 3,5 km/h (1 Bft) S-SW 194 0 min 0,000 mm 0,0 UV-I 0 W/m -1,9 C 2,4 C 6,4 km/h (2 Bft) 97,87 %
27.11.2017 23:52 2,5 C 4,4 C 73 % 1017,4 hPa 0,0 l/m 3,5 km/h (1 Bft) S-SW 194 0 min 0,000 mm 0,0 UV-I 0 W/m -1,8 C 2,5 C 4,8 km/h (1 Bft) 97,87 %
27.11.2017 23:54 2,6 C 4,4 C 73 % 1017,3 hPa 0,0 l/m 4,1 km/h (1 Bft) S 175 0 min 0,000 mm 0,0 UV-I 0 W/m -1,7 C 2,6 C 6,4 km/h (2 Bft) 97,87 %
27.11.2017 23:56 2,7 C 4,4 C 72 % 1017,3 hPa 0,0 l/m 4,6 km/h (1 Bft) S-SW 196 0 min 0,000 mm 0,0 UV-I 0 W/m -1,8 C 2,7 C 8,0 km/h (2 Bft) 100,00 %
27.11.2017 23:58 2,7 C 4,4 C 72 % 1017,3 hPa 0,0 l/m 3,3 km/h (1 Bft) S 175 0 min 0,000 mm 0,0 UV-I 0 W/m -1,8 C 2,7 C 4,8 km/h (1 Bft) 96,00 %
_ Min-Zeit 00:00 00:00 13:24 23:54 - 22:38 - - - - - - 22:24 01:02 19:50 10:44
Minimum _ 0,7 C 4,4 C 64 % 1017,3 hPa - 0,9 km/h (0 Bft) - - - - - - -2,6 C -6,1 C 3,2 km/h (1 Bft) 71,70 %
_ Max-Zeit 12:50 00:00 00:00 08:04 09:38 13:16 - - 13:13 14:00 11:30 11:34 11:38 12:28 13:16 00:00
Maximum _ 5,5 C 4,4 C 94 % 1027,0 hPa 0,2 l/m 23,8 km/h
SW (4 Bft)
- - 3 min 0,178 mm 0,7 UV-I 457 W/m 0,6 C 4,4 C 35,4 km/h
SW (5 Bft)
100,00 %
Durchschnitt _ 2,5 C 4,4 C 80 % 1023,8 hPa #0,4 l/m 9,7 km/h (2 Bft) W-SW - #3:22 h #0,864 mm 0,6 UV-I 148 W/m -0,8 C -0,6 C 14,7 km/h (3 Bft) 97,61 %